PWSweather.com
Personal Weather Stations
Station Observations
WEERALK
AlkmaarNL 1827 PE

AlkmaarNL 1827 PE

Lat: 52.6712679, Lon: 4.7682444

Elevation: 7

Station Type: Davis Vantage Pro2

Latest ConditionsUpdated 12:54:00 PM GMT+01:01 Saturday, Apr 19, 2014
Currently Today's Max Today's Min Today's Average
Temperature 58.5°F14.7°C 58.6°F14.8°C 43.2°F6.2°C 47.2°F8.4°C
Dew Point 43.7°F6.5°C 45.7°F7.6°C 39.9°F4.4°C 42.4°F5.8°C
Winds 7.0 mph E11.3 kmh E 9.0 mph E14.5 kmh E - 5.3 mph 8.5 kmh
Wind Gusts 15.0 mph24.1 kmh 19.0 mph30.6 kmh - -
Humidity 58% 93% 58% 84%
Pressure 30.08 in1018.6 mb 30.12 in1020.0 mb 30.02 in1016.6 mb -
Hour Temp Dew Point Humidity Winds Wind Gusts Pressure Precip Precip Rate Daily Precip Total
12:54 PM 58.5°F14.7°C 43.7°F6.5°C 58% 7.0 mph E11.3 kmh E 15.0 mph24.1 kmh 30.08 in1018.6 mb 0.00 in0.0 mm 0.00 in/hr0.0 mm/hr 0.00 in0.0 mm
12:53 PM 58.6°F14.8°C 43.9°F6.6°C 58% 8.0 mph E12.9 kmh E 15.0 mph24.1 kmh 30.08 in1018.6 mb 0.00 in0.0 mm 0.00 in/hr0.0 mm/hr 0.00 in0.0 mm
12:52 PM 58.5°F14.7°C 43.7°F6.5°C 58% 8.0 mph E12.9 kmh E 15.0 mph24.1 kmh 30.09 in1019.0 mb 0.00 in0.0 mm 0.00 in/hr0.0 mm/hr 0.00 in0.0 mm
12:51 PM 58.5°F14.7°C 43.7°F6.5°C 58% 8.0 mph E12.9 kmh E 15.0 mph24.1 kmh 30.09 in1019.0 mb 0.00 in0.0 mm 0.00 in/hr0.0 mm/hr 0.00 in0.0 mm
12:50 PM 58.3°F14.6°C 43.9°F6.6°C 59% 9.0 mph E14.5 kmh E 15.0 mph24.1 kmh 30.09 in1019.0 mb 0.00 in0.0 mm 0.00 in/hr0.0 mm/hr 0.00 in0.0 mm
12:49 PM 57.7°F14.3°C 44.1°F6.7°C 60% 8.0 mph E12.9 kmh E 15.0 mph24.1 kmh 30.09 in1019.0 mb 0.00 in0.0 mm 0.00 in/hr0.0 mm/hr 0.00 in0.0 mm
12:48 PM 57.7°F14.3°C 43.9°F6.6°C 60% 8.0 mph E12.9 kmh E 15.0 mph24.1 kmh 30.09 in1019.0 mb 0.00 in0.0 mm 0.00 in/hr0.0 mm/hr 0.00 in0.0 mm
12:47 PM 57.7°F14.3°C 43.5°F6.4°C 59% 8.0 mph E12.9 kmh E 15.0 mph24.1 kmh 30.09 in1019.0 mb 0.00 in0.0 mm 0.00 in/hr0.0 mm/hr 0.00 in0.0 mm
12:46 PM 57.6°F14.2°C 43.9°F6.6°C 60% 8.0 mph E12.9 kmh E 15.0 mph24.1 kmh 30.09 in1019.0 mb 0.00 in0.0 mm 0.00 in/hr0.0 mm/hr 0.00 in0.0 mm
12:45 PM 57.4°F14.1°C 43.5°F6.4°C 60% 8.0 mph E12.9 kmh E 15.0 mph24.1 kmh 30.09 in1019.0 mb 0.00 in0.0 mm 0.00 in/hr0.0 mm/hr 0.00 in0.0 mm
12:44 PM 57.4°F14.1°C 43.9°F6.6°C 61% 7.0 mph ENE11.3 kmh ENE 15.0 mph24.1 kmh 30.09 in1019.0 mb 0.00 in0.0 mm 0.00 in/hr0.0 mm/hr 0.00 in0.0 mm
12:43 PM 57.0°F13.9°C 43.7°F6.5°C 61% 8.0 mph ENE12.9 kmh ENE 15.0 mph24.1 kmh 30.09 in1019.0 mb 0.00 in0.0 mm 0.00 in/hr0.0 mm/hr 0.00 in0.0 mm
12:42 PM 56.8°F13.8°C 43.2°F6.2°C 60% 8.0 mph ENE12.9 kmh ENE 15.0 mph24.1 kmh 30.09 in1019.0 mb 0.00 in0.0 mm 0.00 in/hr0.0 mm/hr 0.00 in0.0 mm
12:41 PM 56.8°F13.8°C 43.5°F6.4°C 61% 7.0 mph ENE11.3 kmh ENE 15.0 mph24.1 kmh 30.09 in1019.0 mb 0.00 in0.0 mm 0.00 in/hr0.0 mm/hr 0.00 in0.0 mm
12:40 PM 56.5°F13.6°C 43.9°F6.6°C 63% 7.0 mph ENE11.3 kmh ENE 15.0 mph24.1 kmh 30.09 in1019.0 mb 0.00 in0.0 mm 0.00 in/hr0.0 mm/hr 0.00 in0.0 mm
12:39 PM 55.9°F13.3°C 44.1°F6.7°C 64% 7.0 mph ENE11.3 kmh ENE 15.0 mph24.1 kmh 30.09 in1019.0 mb 0.00 in0.0 mm 0.00 in/hr0.0 mm/hr 0.00 in0.0 mm
12:38 PM 55.8°F13.2°C 43.7°F6.5°C 64% 7.0 mph ENE11.3 kmh ENE 14.0 mph22.5 kmh 30.09 in1019.0 mb 0.00 in0.0 mm 0.00 in/hr0.0 mm/hr 0.00 in0.0 mm
12:37 PM 55.8°F13.2°C 43.3°F6.3°C 63% 6.0 mph E9.7 kmh E 14.0 mph22.5 kmh 30.09 in1019.0 mb 0.00 in0.0 mm 0.00 in/hr0.0 mm/hr 0.00 in0.0 mm
12:36 PM 55.8°F13.2°C 43.3°F6.3°C 63% 6.0 mph E9.7 kmh E 14.0 mph22.5 kmh 30.09 in1019.0 mb 0.00 in0.0 mm 0.00 in/hr0.0 mm/hr 0.00 in0.0 mm
12:35 PM 55.9°F13.3°C 43.0°F6.1°C 62% 6.0 mph E9.7 kmh E 14.0 mph22.5 kmh 30.09 in1019.0 mb 0.00 in0.0 mm 0.00 in/hr0.0 mm/hr 0.00 in0.0 mm
12:34 PM 56.3°F13.5°C 42.6°F5.9°C 60% 6.0 mph E9.7 kmh E 13.0 mph20.9 kmh 30.09 in1019.0 mb 0.00 in0.0 mm 0.00 in/hr0.0 mm/hr 0.00 in0.0 mm
12:33 PM 56.7°F13.7°C 43.3°F6.3°C 61% 6.0 mph E9.7 kmh E 13.0 mph20.9 kmh 30.09 in1019.0 mb 0.00 in0.0 mm 0.00 in/hr0.0 mm/hr 0.00 in0.0 mm
12:32 PM 56.8°F13.8°C 43.5°F6.4°C 61% 6.0 mph E9.7 kmh E 13.0 mph20.9 kmh 30.09 in1019.0 mb 0.00 in0.0 mm 0.00 in/hr0.0 mm/hr 0.00 in0.0 mm
12:31 PM 57.0°F13.9°C 44.6°F7.0°C 63% 6.0 mph ESE9.7 kmh ESE 13.0 mph20.9 kmh 30.09 in1019.0 mb 0.00 in0.0 mm 0.00 in/hr0.0 mm/hr 0.00 in0.0 mm
12:30 PM 57.0°F13.9°C 45.0°F7.2°C 64% 6.0 mph E9.7 kmh E 13.0 mph20.9 kmh 30.09 in1019.0 mb 0.00 in0.0 mm 0.00 in/hr0.0 mm/hr 0.00 in0.0 mm
12:29 PM 56.8°F13.8°C 45.5°F7.5°C 66% 6.0 mph E9.7 kmh E 13.0 mph20.9 kmh 30.09 in1019.0 mb 0.00 in0.0 mm 0.00 in/hr0.0 mm/hr 0.00 in0.0 mm
12:28 PM 56.5°F13.6°C 44.8°F7.1°C 65% 6.0 mph E9.7 kmh E 13.0 mph20.9 kmh 30.09 in1019.0 mb 0.00 in0.0 mm 0.00 in/hr0.0 mm/hr 0.00 in0.0 mm
12:27 PM 56.1°F13.4°C 44.6°F7.0°C 65% 6.0 mph E9.7 kmh E 13.0 mph20.9 kmh 30.09 in1019.0 mb 0.00 in0.0 mm 0.00 in/hr0.0 mm/hr 0.00 in0.0 mm
12:26 PM 55.8°F13.2°C 44.2°F6.8°C 65% 6.0 mph E9.7 kmh E 13.0 mph20.9 kmh 30.09 in1019.0 mb 0.00 in0.0 mm 0.00 in/hr0.0 mm/hr 0.00 in0.0 mm
12:25 PM 55.6°F13.1°C 44.1°F6.7°C 65% 6.0 mph E9.7 kmh E 13.0 mph20.9 kmh 30.09 in1019.0 mb 0.00 in0.0 mm 0.00 in/hr0.0 mm/hr 0.00 in0.0 mm
12:24 PM 55.6°F13.1°C 43.9°F6.6°C 65% 5.0 mph ENE8.0 kmh ENE 13.0 mph20.9 kmh 30.09 in1019.0 mb 0.00 in0.0 mm 0.00 in/hr0.0 mm/hr 0.00 in0.0 mm
12:23 PM 55.6°F13.1°C 43.9°F6.6°C 65% 5.0 mph ENE8.0 kmh ENE 13.0 mph20.9 kmh 30.09 in1019.0 mb 0.00 in0.0 mm 0.00 in/hr0.0 mm/hr 0.00 in0.0 mm
12:22 PM 55.6°F13.1°C 43.9°F6.6°C 65% 5.0 mph ENE8.0 kmh ENE 13.0 mph20.9 kmh 30.09 in1019.0 mb 0.00 in0.0 mm 0.00 in/hr0.0 mm/hr 0.00 in0.0 mm
12:21 PM 55.8°F13.2°C 44.6°F7.0°C 66% 6.0 mph ENE9.7 kmh ENE 15.0 mph24.1 kmh 30.09 in1019.0 mb 0.00 in0.0 mm 0.00 in/hr0.0 mm/hr 0.00 in0.0 mm
12:20 PM 55.8°F13.2°C 43.7°F6.5°C 64% 6.0 mph ENE9.7 kmh ENE 15.0 mph24.1 kmh 30.09 in1019.0 mb 0.00 in0.0 mm 0.00 in/hr0.0 mm/hr 0.00 in0.0 mm
12:19 PM 55.9°F13.3°C 43.9°F6.6°C 64% 6.0 mph ENE9.7 kmh ENE 15.0 mph24.1 kmh 30.09 in1019.0 mb 0.00 in0.0 mm 0.00 in/hr0.0 mm/hr 0.00 in0.0 mm
12:18 PM 56.1°F13.4°C 43.7°F6.5°C 63% 6.0 mph E9.7 kmh E 15.0 mph24.1 kmh 30.09 in1019.0 mb 0.00 in0.0 mm 0.00 in/hr0.0 mm/hr 0.00 in0.0 mm
12:17 PM 56.5°F13.6°C 43.9°F6.6°C 63% 6.0 mph E9.7 kmh E 15.0 mph24.1 kmh 30.09 in1019.0 mb 0.00 in0.0 mm 0.00 in/hr0.0 mm/hr 0.00 in0.0 mm
12:16 PM 56.7°F13.7°C 44.1°F6.7°C 63% 6.0 mph E9.7 kmh E 15.0 mph24.1 kmh 30.09 in1019.0 mb 0.00 in0.0 mm 0.00 in/hr0.0 mm/hr 0.00 in0.0 mm
12:15 PM 56.7°F13.7°C 43.3°F6.3°C 61% 7.0 mph E11.3 kmh E 15.0 mph24.1 kmh 30.09 in1019.0 mb 0.00 in0.0 mm 0.00 in/hr0.0 mm/hr 0.00 in0.0 mm
12:14 PM 56.8°F13.8°C 43.2°F6.2°C 60% 7.0 mph E11.3 kmh E 15.0 mph24.1 kmh 30.09 in1019.0 mb 0.00 in0.0 mm 0.00 in/hr0.0 mm/hr 0.00 in0.0 mm
12:13 PM 57.4°F14.1°C 43.9°F6.6°C 61% 7.0 mph E11.3 kmh E 15.0 mph24.1 kmh 30.09 in1019.0 mb 0.00 in0.0 mm 0.00 in/hr0.0 mm/hr 0.00 in0.0 mm
12:12 PM 57.6°F14.2°C 44.2°F6.8°C 61% 7.0 mph E11.3 kmh E 15.0 mph24.1 kmh 30.09 in1019.0 mb 0.00 in0.0 mm 0.00 in/hr0.0 mm/hr 0.00 in0.0 mm
12:11 PM 57.6°F14.2°C 44.6°F7.0°C 62% 6.0 mph E9.7 kmh E 13.0 mph20.9 kmh 30.10 in1019.3 mb 0.00 in0.0 mm 0.00 in/hr0.0 mm/hr 0.00 in0.0 mm
12:10 PM 57.6°F14.2°C 44.6°F7.0°C 62% 6.0 mph E9.7 kmh E 13.0 mph20.9 kmh 30.09 in1019.0 mb 0.00 in0.0 mm 0.00 in/hr0.0 mm/hr 0.00 in0.0 mm
12:09 PM 57.0°F13.9°C 44.6°F7.0°C 63% 6.0 mph E9.7 kmh E 13.0 mph20.9 kmh 30.09 in1019.0 mb 0.00 in0.0 mm 0.00 in/hr0.0 mm/hr 0.00 in0.0 mm
12:08 PM 56.8°F13.8°C 44.1°F6.7°C 62% 6.0 mph E9.7 kmh E 13.0 mph20.9 kmh 30.10 in1019.3 mb 0.00 in0.0 mm 0.00 in/hr0.0 mm/hr 0.00 in0.0 mm
12:07 PM 57.2°F14.0°C 44.2°F6.8°C 62% 6.0 mph E9.7 kmh E 13.0 mph20.9 kmh 30.09 in1019.0 mb 0.00 in0.0 mm 0.00 in/hr0.0 mm/hr 0.00 in0.0 mm
12:06 PM 57.6°F14.2°C 44.1°F6.7°C 61% 5.0 mph E8.0 kmh E 13.0 mph20.9 kmh 30.09 in1019.0 mb 0.00 in0.0 mm 0.00 in/hr0.0 mm/hr 0.00 in0.0 mm
12:05 PM 57.9°F14.4°C 44.6°F7.0°C 61% 5.0 mph E8.0 kmh E 13.0 mph20.9 kmh 30.09 in1019.0 mb 0.00 in0.0 mm 0.00 in/hr0.0 mm/hr 0.00 in0.0 mm
12:04 PM 57.9°F14.4°C 45.3°F7.4°C 63% 5.0 mph E8.0 kmh E 13.0 mph20.9 kmh 30.09 in1019.0 mb 0.00 in0.0 mm 0.00 in/hr0.0 mm/hr 0.00 in0.0 mm
12:03 PM 57.7°F14.3°C 44.8°F7.1°C 62% 5.0 mph E8.0 kmh E 13.0 mph20.9 kmh 30.09 in1019.0 mb 0.00 in0.0 mm 0.00 in/hr0.0 mm/hr 0.00 in0.0 mm
12:02 PM 57.7°F14.3°C 44.8°F7.1°C 62% 4.0 mph E6.4 kmh E 10.0 mph16.1 kmh 30.09 in1019.0 mb 0.00 in0.0 mm 0.00 in/hr0.0 mm/hr 0.00 in0.0 mm
12:01 PM 57.7°F14.3°C 44.8°F7.1°C 62% 5.0 mph E8.0 kmh E 10.0 mph16.1 kmh 30.09 in1019.0 mb 0.00 in0.0 mm 0.00 in/hr0.0 mm/hr 0.00 in0.0 mm
12:00 PM 57.9°F14.4°C 44.6°F7.0°C 61% 5.0 mph E8.0 kmh E 10.0 mph16.1 kmh 30.09 in1019.0 mb 0.00 in0.0 mm 0.00 in/hr0.0 mm/hr 0.00 in0.0 mm
11:59 AM 58.3°F14.6°C 44.4°F6.9°C 60% 5.0 mph E8.0 kmh E 10.0 mph16.1 kmh 30.09 in1019.0 mb 0.00 in0.0 mm 0.00 in/hr0.0 mm/hr 0.00 in0.0 mm
11:58 AM 58.5°F14.7°C 44.6°F7.0°C 60% 5.0 mph ESE8.0 kmh ESE 11.0 mph17.7 kmh 30.09 in1019.0 mb 0.00 in0.0 mm 0.00 in/hr0.0 mm/hr 0.00 in0.0 mm
11:57 AM 58.5°F14.7°C 45.0°F7.2°C 61% 5.0 mph ESE8.0 kmh ESE 13.0 mph20.9 kmh 30.09 in1019.0 mb 0.00 in0.0 mm 0.00 in/hr0.0 mm/hr 0.00 in0.0 mm
11:56 AM 58.3°F14.6°C 44.8°F7.1°C 61% 5.0 mph ESE8.0 kmh ESE 13.0 mph20.9 kmh 30.09 in1019.0 mb 0.00 in0.0 mm 0.00 in/hr0.0 mm/hr 0.00 in0.0 mm
11:55 AM 58.1°F14.5°C 45.5°F7.5°C 63% 5.0 mph ESE8.0 kmh ESE 13.0 mph20.9 kmh 30.09 in1019.0 mb 0.00 in0.0 mm 0.00 in/hr0.0 mm/hr 0.00 in0.0 mm
11:54 AM 57.7°F14.3°C 44.8°F7.1°C 62% 5.0 mph E8.0 kmh E 13.0 mph20.9 kmh 30.09 in1019.0 mb 0.00 in0.0 mm 0.00 in/hr0.0 mm/hr 0.00 in0.0 mm
11:53 AM 57.9°F14.4°C 44.6°F7.0°C 61% 5.0 mph E8.0 kmh E 13.0 mph20.9 kmh 30.09 in1019.0 mb 0.00 in0.0 mm 0.00 in/hr0.0 mm/hr 0.00 in0.0 mm
11:52 AM 57.9°F14.4°C 45.3°F7.4°C 63% 6.0 mph E9.7 kmh E 13.0 mph20.9 kmh 30.09 in1019.0 mb 0.00 in0.0 mm 0.00 in/hr0.0 mm/hr 0.00 in0.0 mm
11:51 AM 57.7°F14.3°C 45.1°F7.3°C 63% 5.0 mph E8.0 kmh E 13.0 mph20.9 kmh 30.09 in1019.0 mb 0.00 in0.0 mm 0.00 in/hr0.0 mm/hr 0.00 in0.0 mm
11:50 AM 57.6°F14.2°C 45.5°F7.5°C 64% 5.0 mph E8.0 kmh E 13.0 mph20.9 kmh 30.09 in1019.0 mb 0.00 in0.0 mm 0.00 in/hr0.0 mm/hr 0.00 in0.0 mm
11:49 AM 57.4°F14.1°C 45.7°F7.6°C 65% 5.0 mph E8.0 kmh E 13.0 mph20.9 kmh 30.09 in1019.0 mb 0.00 in0.0 mm 0.00 in/hr0.0 mm/hr 0.00 in0.0 mm
11:48 AM 56.8°F13.8°C 45.7°F7.6°C 66% 5.0 mph E8.0 kmh E 13.0 mph20.9 kmh 30.10 in1019.3 mb 0.00 in0.0 mm 0.00 in/hr0.0 mm/hr 0.00 in0.0 mm
11:47 AM 56.5°F13.6°C 45.3°F7.4°C 66% 6.0 mph E9.7 kmh E 11.0 mph17.7 kmh 30.09 in1019.0 mb 0.00 in0.0 mm 0.00 in/hr0.0 mm/hr 0.00 in0.0 mm
11:46 AM 56.3°F13.5°C 45.1°F7.3°C 66% 6.0 mph E9.7 kmh E 11.0 mph17.7 kmh 30.09 in1019.0 mb 0.00 in0.0 mm 0.00 in/hr0.0 mm/hr 0.00 in0.0 mm
11:45 AM 55.9°F13.3°C 44.8°F7.1°C 66% 6.0 mph E9.7 kmh E 13.0 mph20.9 kmh 30.09 in1019.0 mb 0.00 in0.0 mm 0.00 in/hr0.0 mm/hr 0.00 in0.0 mm
11:44 AM 55.9°F13.3°C 44.8°F7.1°C 66% 6.0 mph E9.7 kmh E 13.0 mph20.9 kmh 30.09 in1019.0 mb 0.00 in0.0 mm 0.00 in/hr0.0 mm/hr 0.00 in0.0 mm
11:43 AM 55.8°F13.2°C 44.6°F7.0°C 66% 6.0 mph E9.7 kmh E 13.0 mph20.9 kmh 30.09 in1019.0 mb 0.00 in0.0 mm 0.00 in/hr0.0 mm/hr 0.00 in0.0 mm
11:42 AM 55.6°F13.1°C 44.1°F6.7°C 65% 5.0 mph ESE8.0 kmh ESE 13.0 mph20.9 kmh 30.09 in1019.0 mb 0.00 in0.0 mm 0.00 in/hr0.0 mm/hr 0.00 in0.0 mm
11:41 AM 55.8°F13.2°C 43.9°F6.6°C 64% 5.0 mph ESE8.0 kmh ESE 13.0 mph20.9 kmh 30.09 in1019.0 mb 0.00 in0.0 mm 0.00 in/hr0.0 mm/hr 0.00 in0.0 mm
11:40 AM 56.5°F13.6°C 43.2°F6.2°C 61% 5.0 mph ESE8.0 kmh ESE 13.0 mph20.9 kmh 30.09 in1019.0 mb 0.00 in0.0 mm 0.00 in/hr0.0 mm/hr 0.00 in0.0 mm
11:39 AM 57.0°F13.9°C 44.2°F6.8°C 62% 5.0 mph SE8.0 kmh SE 13.0 mph20.9 kmh 30.09 in1019.0 mb 0.00 in0.0 mm 0.00 in/hr0.0 mm/hr 0.00 in0.0 mm
11:38 AM 57.4°F14.1°C 44.4°F6.9°C 62% 6.0 mph SE9.7 kmh SE 13.0 mph20.9 kmh 30.09 in1019.0 mb 0.00 in0.0 mm 0.00 in/hr0.0 mm/hr 0.00 in0.0 mm
11:37 AM 57.4°F14.1°C 44.4°F6.9°C 62% 6.0 mph ESE9.7 kmh ESE 13.0 mph20.9 kmh 30.09 in1019.0 mb 0.00 in0.0 mm 0.00 in/hr0.0 mm/hr 0.00 in0.0 mm
11:36 AM 57.4°F14.1°C 44.8°F7.1°C 63% 5.0 mph ESE8.0 kmh ESE 13.0 mph20.9 kmh 30.10 in1019.3 mb 0.00 in0.0 mm 0.00 in/hr0.0 mm/hr 0.00 in0.0 mm
11:35 AM 57.2°F14.0°C 45.5°F7.5°C 65% 5.0 mph ESE8.0 kmh ESE 11.0 mph17.7 kmh 30.09 in1019.0 mb 0.00 in0.0 mm 0.00 in/hr0.0 mm/hr 0.00 in0.0 mm
11:34 AM 57.0°F13.9°C 45.5°F7.5°C 65% 5.0 mph E8.0 kmh E 11.0 mph17.7 kmh 30.10 in1019.3 mb 0.00 in0.0 mm 0.00 in/hr0.0 mm/hr 0.00 in0.0 mm
11:33 AM 56.7°F13.7°C 45.5°F7.5°C 66% 6.0 mph ESE9.7 kmh ESE 11.0 mph17.7 kmh 30.10 in1019.3 mb 0.00 in0.0 mm 0.00 in/hr0.0 mm/hr 0.00 in0.0 mm
11:32 AM 56.5°F13.6°C 44.8°F7.1°C 65% 6.0 mph ESE9.7 kmh ESE 11.0 mph17.7 kmh 30.10 in1019.3 mb 0.00 in0.0 mm 0.00 in/hr0.0 mm/hr 0.00 in0.0 mm
11:31 AM 56.1°F13.4°C 44.4°F6.9°C 65% 6.0 mph ESE9.7 kmh ESE 11.0 mph17.7 kmh 30.10 in1019.3 mb 0.00 in0.0 mm 0.00 in/hr0.0 mm/hr 0.00 in0.0 mm
11:30 AM 55.9°F13.3°C 44.2°F6.8°C 65% 6.0 mph ESE9.7 kmh ESE 11.0 mph17.7 kmh 30.10 in1019.3 mb 0.00 in0.0 mm 0.00 in/hr0.0 mm/hr 0.00 in0.0 mm
11:29 AM 55.9°F13.3°C 44.1°F6.7°C 64% 6.0 mph E9.7 kmh E 11.0 mph17.7 kmh 30.10 in1019.3 mb 0.00 in0.0 mm 0.00 in/hr0.0 mm/hr 0.00 in0.0 mm
11:28 AM 56.1°F13.4°C 44.6°F7.0°C 65% 5.0 mph ESE8.0 kmh ESE 11.0 mph17.7 kmh 30.10 in1019.3 mb 0.00 in0.0 mm 0.00 in/hr0.0 mm/hr 0.00 in0.0 mm
11:27 AM 56.5°F13.6°C 44.4°F6.9°C 64% 4.0 mph ESE6.4 kmh ESE 11.0 mph17.7 kmh 30.10 in1019.3 mb 0.00 in0.0 mm 0.00 in/hr0.0 mm/hr 0.00 in0.0 mm
11:26 AM 56.7°F13.7°C 45.1°F7.3°C 65% 4.0 mph ESE6.4 kmh ESE 11.0 mph17.7 kmh 30.10 in1019.3 mb 0.00 in0.0 mm 0.00 in/hr0.0 mm/hr 0.00 in0.0 mm
11:25 AM 56.7°F13.7°C 45.0°F7.2°C 65% 5.0 mph ESE8.0 kmh ESE 11.0 mph17.7 kmh 30.10 in1019.3 mb 0.00 in0.0 mm 0.00 in/hr0.0 mm/hr 0.00 in0.0 mm
11:24 AM 56.5°F13.6°C 45.0°F7.2°C 65% 5.0 mph ESE8.0 kmh ESE 11.0 mph17.7 kmh 30.10 in1019.3 mb 0.00 in0.0 mm 0.00 in/hr0.0 mm/hr 0.00 in0.0 mm
11:23 AM 56.1°F13.4°C 45.3°F7.4°C 67% 5.0 mph ESE8.0 kmh ESE 11.0 mph17.7 kmh 30.10 in1019.3 mb 0.00 in0.0 mm 0.00 in/hr0.0 mm/hr 0.00 in0.0 mm
11:22 AM 55.9°F13.3°C 44.4°F6.9°C 65% 5.0 mph SE8.0 kmh SE 11.0 mph17.7 kmh 30.10 in1019.3 mb 0.00 in0.0 mm 0.00 in/hr0.0 mm/hr 0.00 in0.0 mm
11:21 AM 55.9°F13.3°C 44.8°F7.1°C 66% 5.0 mph SE8.0 kmh SE 11.0 mph17.7 kmh 30.10 in1019.3 mb 0.00 in0.0 mm 0.00 in/hr0.0 mm/hr 0.00 in0.0 mm
11:20 AM 55.9°F13.3°C 44.4°F6.9°C 65% 5.0 mph SE8.0 kmh SE 11.0 mph17.7 kmh 30.10 in1019.3 mb 0.00 in0.0 mm 0.00 in/hr0.0 mm/hr 0.00 in0.0 mm
11:19 AM 56.1°F13.4°C 45.0°F7.2°C 66% 5.0 mph SE8.0 kmh SE 10.0 mph16.1 kmh 30.10 in1019.3 mb 0.00 in0.0 mm 0.00 in/hr0.0 mm/hr 0.00 in0.0 mm
11:18 AM 56.1°F13.4°C 45.0°F7.2°C 66% 6.0 mph SE9.7 kmh SE 10.0 mph16.1 kmh 30.10 in1019.3 mb 0.00 in0.0 mm 0.00 in/hr0.0 mm/hr 0.00 in0.0 mm
11:17 AM 55.9°F13.3°C 45.1°F7.3°C 67% 6.0 mph SE9.7 kmh SE 12.0 mph19.3 kmh 30.10 in1019.3 mb 0.00 in0.0 mm 0.00 in/hr0.0 mm/hr 0.00 in0.0 mm
11:16 AM 55.8°F13.2°C 44.6°F7.0°C 66% 7.0 mph SE11.3 kmh SE 12.0 mph19.3 kmh 30.10 in1019.3 mb 0.00 in0.0 mm 0.00 in/hr0.0 mm/hr 0.00 in0.0 mm
11:15 AM 55.6°F13.1°C 44.8°F7.1°C 67% 7.0 mph SE11.3 kmh SE 12.0 mph19.3 kmh 30.10 in1019.3 mb 0.00 in0.0 mm 0.00 in/hr0.0 mm/hr 0.00 in0.0 mm
11:14 AM 55.4°F13.0°C 44.6°F7.0°C 67% 7.0 mph SE11.3 kmh SE 12.0 mph19.3 kmh 30.10 in1019.3 mb 0.00 in0.0 mm 0.00 in/hr0.0 mm/hr 0.00 in0.0 mm
11:13 AM 55.2°F12.9°C 44.1°F6.7°C 66% 7.0 mph SE11.3 kmh SE 12.0 mph19.3 kmh 30.10 in1019.3 mb 0.00 in0.0 mm 0.00 in/hr0.0 mm/hr 0.00 in0.0 mm
11:12 AM 55.2°F12.9°C 44.1°F6.7°C 66% 7.0 mph SE11.3 kmh SE 12.0 mph19.3 kmh 30.10 in1019.3 mb 0.00 in0.0 mm 0.00 in/hr0.0 mm/hr 0.00 in0.0 mm
11:11 AM 55.2°F12.9°C 44.1°F6.7°C 66% 7.0 mph SE11.3 kmh SE 15.0 mph24.1 kmh 30.10 in1019.3 mb 0.00 in0.0 mm 0.00 in/hr0.0 mm/hr 0.00 in0.0 mm
11:10 AM 55.2°F12.9°C 44.4°F6.9°C 67% 7.0 mph SE11.3 kmh SE 15.0 mph24.1 kmh 30.10 in1019.3 mb 0.00 in0.0 mm 0.00 in/hr0.0 mm/hr 0.00 in0.0 mm
11:09 AM 55.2°F12.9°C 44.1°F6.7°C 66% 7.0 mph SE11.3 kmh SE 15.0 mph24.1 kmh 30.10 in1019.3 mb 0.00 in0.0 mm 0.00 in/hr0.0 mm/hr 0.00 in0.0 mm
11:08 AM 55.2°F12.9°C 44.4°F6.9°C 67% 7.0 mph SE11.3 kmh SE 15.0 mph24.1 kmh 30.10 in1019.3 mb 0.00 in0.0 mm 0.00 in/hr0.0 mm/hr 0.00 in0.0 mm
11:07 AM 55.0°F12.8°C 44.4°F6.9°C 67% 7.0 mph SE11.3 kmh SE 15.0 mph24.1 kmh 30.10 in1019.3 mb 0.00 in0.0 mm 0.00 in/hr0.0 mm/hr 0.00 in0.0 mm
11:06 AM 54.9°F12.7°C 44.6°F7.0°C 68% 7.0 mph SE11.3 kmh SE 15.0 mph24.1 kmh 30.10 in1019.3 mb 0.00 in0.0 mm 0.00 in/hr0.0 mm/hr 0.00 in0.0 mm
11:05 AM 54.9°F12.7°C 44.4°F6.9°C 68% 6.0 mph SE9.7 kmh SE 15.0 mph24.1 kmh 30.10 in1019.3 mb 0.00 in0.0 mm 0.00 in/hr0.0 mm/hr 0.00 in0.0 mm
11:04 AM 54.9°F12.7°C 44.1°F6.7°C 67% 6.0 mph SE9.7 kmh SE 15.0 mph24.1 kmh 30.10 in1019.3 mb 0.00 in0.0 mm 0.00 in/hr0.0 mm/hr 0.00 in0.0 mm
11:03 AM 54.9°F12.7°C 44.1°F6.7°C 67% 7.0 mph SE11.3 kmh SE 15.0 mph24.1 kmh 30.10 in1019.3 mb 0.00 in0.0 mm 0.00 in/hr0.0 mm/hr 0.00 in0.0 mm
11:02 AM 54.9°F12.7°C 44.1°F6.7°C 67% 7.0 mph SE11.3 kmh SE 15.0 mph24.1 kmh 30.10 in1019.3 mb 0.00 in0.0 mm 0.00 in/hr0.0 mm/hr 0.00 in0.0 mm
11:01 AM 54.9°F12.7°C 44.1°F6.7°C 67% 7.0 mph SE11.3 kmh SE 14.0 mph22.5 kmh 30.10 in1019.3 mb 0.00 in0.0 mm 0.00 in/hr0.0 mm/hr 0.00 in0.0 mm
11:00 AM 55.0°F12.8°C 44.6°F7.0°C 68% 7.0 mph SE11.3 kmh SE 14.0 mph22.5 kmh 30.11 in1019.6 mb 0.00 in0.0 mm 0.00 in/hr0.0 mm/hr 0.00 in0.0 mm
10:59 AM 54.7°F12.6°C 44.4°F6.9°C 68% 7.0 mph SE11.3 kmh SE 13.0 mph20.9 kmh 30.11 in1019.6 mb 0.00 in0.0 mm 0.00 in/hr0.0 mm/hr 0.00 in0.0 mm
10:58 AM 54.5°F12.5°C 44.6°F7.0°C 69% 7.0 mph SE11.3 kmh SE 13.0 mph20.9 kmh 30.11 in1019.6 mb 0.00 in0.0 mm 0.00 in/hr0.0 mm/hr 0.00 in0.0 mm
10:57 AM 54.3°F12.4°C 43.9°F6.6°C 68% 7.0 mph SE11.3 kmh SE 13.0 mph20.9 kmh 30.11 in1019.6 mb 0.00 in0.0 mm 0.00 in/hr0.0 mm/hr 0.00 in0.0 mm
10:56 AM 54.1°F12.3°C 44.6°F7.0°C 70% 7.0 mph SE11.3 kmh SE 13.0 mph20.9 kmh 30.11 in1019.6 mb 0.00 in0.0 mm 0.00 in/hr0.0 mm/hr 0.00 in0.0 mm
10:55 AM 54.1°F12.3°C 44.2°F6.8°C 69% 8.0 mph SE12.9 kmh SE 13.0 mph20.9 kmh 30.11 in1019.6 mb 0.00 in0.0 mm 0.00 in/hr0.0 mm/hr 0.00 in0.0 mm
10:54 AM 54.0°F12.2°C 43.7°F6.5°C 68% 8.0 mph SE12.9 kmh SE 13.0 mph20.9 kmh 30.11 in1019.6 mb 0.00 in0.0 mm 0.00 in/hr0.0 mm/hr 0.00 in0.0 mm
10:53 AM 54.1°F12.3°C 43.7°F6.5°C 68% 7.0 mph SE11.3 kmh SE 14.0 mph22.5 kmh 30.11 in1019.6 mb 0.00 in0.0 mm 0.00 in/hr0.0 mm/hr 0.00 in0.0 mm
10:52 AM 54.1°F12.3°C 43.7°F6.5°C 68% 7.0 mph SE11.3 kmh SE 14.0 mph22.5 kmh 30.11 in1019.6 mb 0.00 in0.0 mm 0.00 in/hr0.0 mm/hr 0.00 in0.0 mm
10:51 AM 54.1°F12.3°C 44.2°F6.8°C 69% 7.0 mph SE11.3 kmh SE 14.0 mph22.5 kmh 30.11 in1019.6 mb 0.00 in0.0 mm 0.00 in/hr0.0 mm/hr 0.00 in0.0 mm
10:50 AM 54.1°F12.3°C 44.6°F7.0°C 70% 8.0 mph SE12.9 kmh SE 14.0 mph22.5 kmh 30.11 in1019.6 mb 0.00 in0.0 mm 0.00 in/hr0.0 mm/hr 0.00 in0.0 mm
10:49 AM 54.0°F12.2°C 44.8°F7.1°C 71% 8.0 mph SE12.9 kmh SE 17.0 mph27.4 kmh 30.11 in1019.6 mb 0.00 in0.0 mm 0.00 in/hr0.0 mm/hr 0.00 in0.0 mm
10:48 AM 53.6°F12.0°C 44.1°F6.7°C 70% 8.0 mph ESE12.9 kmh ESE 17.0 mph27.4 kmh 30.11 in1019.6 mb 0.00 in0.0 mm 0.00 in/hr0.0 mm/hr 0.00 in0.0 mm
10:47 AM 53.4°F11.9°C 43.9°F6.6°C 70% 8.0 mph ESE12.9 kmh ESE 17.0 mph27.4 kmh 30.11 in1019.6 mb 0.00 in0.0 mm 0.00 in/hr0.0 mm/hr 0.00 in0.0 mm
10:46 AM 53.2°F11.8°C 43.7°F6.5°C 70% 8.0 mph ESE12.9 kmh ESE 17.0 mph27.4 kmh 30.11 in1019.6 mb 0.00 in0.0 mm 0.00 in/hr0.0 mm/hr 0.00 in0.0 mm
10:45 AM 53.4°F11.9°C 44.2°F6.8°C 71% 8.0 mph ESE12.9 kmh ESE 17.0 mph27.4 kmh 30.11 in1019.6 mb 0.00 in0.0 mm 0.00 in/hr0.0 mm/hr 0.00 in0.0 mm
10:44 AM 53.4°F11.9°C 44.2°F6.8°C 71% 8.0 mph ESE12.9 kmh ESE 17.0 mph27.4 kmh 30.11 in1019.6 mb 0.00 in0.0 mm 0.00 in/hr0.0 mm/hr 0.00 in0.0 mm
10:43 AM 53.1°F11.7°C 43.9°F6.6°C 71% 8.0 mph ESE12.9 kmh ESE 17.0 mph27.4 kmh 30.11 in1019.6 mb 0.00 in0.0 mm 0.00 in/hr0.0 mm/hr 0.00 in0.0 mm
10:42 AM 53.1°F11.7°C 43.9°F6.6°C 71% 8.0 mph ESE12.9 kmh ESE 17.0 mph27.4 kmh 30.11 in1019.6 mb 0.00 in0.0 mm 0.00 in/hr0.0 mm/hr 0.00 in0.0 mm
10:41 AM 52.9°F11.6°C 43.3°F6.3°C 70% 8.0 mph ESE12.9 kmh ESE 17.0 mph27.4 kmh 30.12 in1020.0 mb 0.00 in0.0 mm 0.00 in/hr0.0 mm/hr 0.00 in0.0 mm
10:40 AM 52.9°F11.6°C 43.3°F6.3°C 70% 7.0 mph ESE11.3 kmh ESE 17.0 mph27.4 kmh 30.12 in1020.0 mb 0.00 in0.0 mm 0.00 in/hr0.0 mm/hr 0.00 in0.0 mm
10:39 AM 53.1°F11.7°C 43.5°F6.4°C 70% 7.0 mph ESE11.3 kmh ESE 16.0 mph25.7 kmh 30.12 in1020.0 mb 0.00 in0.0 mm 0.00 in/hr0.0 mm/hr 0.00 in0.0 mm
10:38 AM 53.1°F11.7°C 43.9°F6.6°C 71% 7.0 mph SE11.3 kmh SE 15.0 mph24.1 kmh 30.12 in1020.0 mb 0.00 in0.0 mm 0.00 in/hr0.0 mm/hr 0.00 in0.0 mm
10:37 AM 53.1°F11.7°C 43.9°F6.6°C 71% 7.0 mph SE11.3 kmh SE 15.0 mph24.1 kmh 30.12 in1020.0 mb 0.00 in0.0 mm 0.00 in/hr0.0 mm/hr 0.00 in0.0 mm
10:36 AM 53.1°F11.7°C 43.9°F6.6°C 71% 7.0 mph SE11.3 kmh SE 15.0 mph24.1 kmh 30.12 in1020.0 mb 0.00 in0.0 mm 0.00 in/hr0.0 mm/hr 0.00 in0.0 mm
10:35 AM 52.9°F11.6°C 44.1°F6.7°C 72% 7.0 mph SE11.3 kmh SE 15.0 mph24.1 kmh 30.11 in1019.6 mb 0.00 in0.0 mm 0.00 in/hr0.0 mm/hr 0.00 in0.0 mm
10:34 AM 52.9°F11.6°C 44.1°F6.7°C 72% 7.0 mph SE11.3 kmh SE 15.0 mph24.1 kmh 30.12 in1020.0 mb 0.00 in0.0 mm 0.00 in/hr0.0 mm/hr 0.00 in0.0 mm
10:33 AM 52.5°F11.4°C 44.1°F6.7°C 73% 7.0 mph ESE11.3 kmh ESE 15.0 mph24.1 kmh 30.12 in1020.0 mb 0.00 in0.0 mm 0.00 in/hr0.0 mm/hr 0.00 in0.0 mm
10:32 AM 52.2°F11.2°C 43.5°F6.4°C 72% 7.0 mph ESE11.3 kmh ESE 19.0 mph30.6 kmh 30.12 in1020.0 mb 0.00 in0.0 mm 0.00 in/hr0.0 mm/hr 0.00 in0.0 mm
10:31 AM 52.2°F11.2°C 43.5°F6.4°C 72% 7.0 mph ESE11.3 kmh ESE 19.0 mph30.6 kmh 30.12 in1020.0 mb 0.00 in0.0 mm 0.00 in/hr0.0 mm/hr 0.00 in0.0 mm
10:30 AM 52.2°F11.2°C 44.2°F6.8°C 74% 7.0 mph ESE11.3 kmh ESE 19.0 mph30.6 kmh 30.12 in1020.0 mb 0.00 in0.0 mm 0.00 in/hr0.0 mm/hr 0.00 in0.0 mm
10:29 AM 52.2°F11.2°C 43.7°F6.5°C 73% 7.0 mph E11.3 kmh E 19.0 mph30.6 kmh 30.12 in1020.0 mb 0.00 in0.0 mm 0.00 in/hr0.0 mm/hr 0.00 in0.0 mm
10:28 AM 52.0°F11.1°C 43.2°F6.2°C 72% 8.0 mph E12.9 kmh E 19.0 mph30.6 kmh 30.12 in1020.0 mb 0.00 in0.0 mm 0.00 in/hr0.0 mm/hr 0.00 in0.0 mm
10:27 AM 52.0°F11.1°C 43.2°F6.2°C 72% 8.0 mph E12.9 kmh E 19.0 mph30.6 kmh 30.12 in1020.0 mb 0.00 in0.0 mm 0.00 in/hr0.0 mm/hr 0.00 in0.0 mm
10:26 AM 52.0°F11.1°C 43.7°F6.5°C 73% 8.0 mph E12.9 kmh E 19.0 mph30.6 kmh 30.12 in1020.0 mb 0.00 in0.0 mm 0.00 in/hr0.0 mm/hr 0.00 in0.0 mm
10:25 AM 52.0°F11.1°C 43.9°F6.6°C 74% 8.0 mph E12.9 kmh E 19.0 mph30.6 kmh 30.12 in1020.0 mb 0.00 in0.0 mm 0.00 in/hr0.0 mm/hr 0.00 in0.0 mm
10:24 AM 51.8°F11.0°C 43.7°F6.5°C 74% 8.0 mph E12.9 kmh E 19.0 mph30.6 kmh 30.12 in1020.0 mb 0.00 in0.0 mm 0.00 in/hr0.0 mm/hr 0.00 in0.0 mm
10:23 AM 51.6°F10.9°C 44.1°F6.7°C 75% 8.0 mph E12.9 kmh E 19.0 mph30.6 kmh 30.11 in1019.6 mb 0.00 in0.0 mm 0.00 in/hr0.0 mm/hr 0.00 in0.0 mm
10:22 AM 51.6°F10.9°C 43.9°F6.6°C 75% 8.0 mph E12.9 kmh E 15.0 mph24.1 kmh 30.11 in1019.6 mb 0.00 in0.0 mm 0.00 in/hr0.0 mm/hr 0.00 in0.0 mm
10:21 AM 51.4°F10.8°C 43.7°F6.5°C 75% 8.0 mph E12.9 kmh E 15.0 mph24.1 kmh 30.11 in1019.6 mb 0.00 in0.0 mm 0.00 in/hr0.0 mm/hr 0.00 in0.0 mm
10:20 AM 51.1°F10.6°C 43.5°F6.4°C 75% 7.0 mph E11.3 kmh E 15.0 mph24.1 kmh 30.12 in1020.0 mb 0.00 in0.0 mm 0.00 in/hr0.0 mm/hr 0.00 in0.0 mm
10:19 AM 51.1°F10.6°C 43.3°F6.3°C 75% 6.0 mph E9.7 kmh E 15.0 mph24.1 kmh 30.11 in1019.6 mb 0.00 in0.0 mm 0.00 in/hr0.0 mm/hr 0.00 in0.0 mm
10:18 AM 51.1°F10.6°C 43.7°F6.5°C 76% 6.0 mph E9.7 kmh E 13.0 mph20.9 kmh 30.11 in1019.6 mb 0.00 in0.0 mm 0.00 in/hr0.0 mm/hr 0.00 in0.0 mm
10:17 AM 51.1°F10.6°C 43.7°F6.5°C 76% 6.0 mph E9.7 kmh E 14.0 mph22.5 kmh 30.11 in1019.6 mb 0.00 in0.0 mm 0.00 in/hr0.0 mm/hr 0.00 in0.0 mm
10:16 AM 51.1°F10.6°C 43.7°F6.5°C 76% 6.0 mph ESE9.7 kmh ESE 14.0 mph22.5 kmh 30.11 in1019.6 mb 0.00 in0.0 mm 0.00 in/hr0.0 mm/hr 0.00 in0.0 mm
10:15 AM 51.1°F10.6°C 43.7°F6.5°C 76% 6.0 mph ESE9.7 kmh ESE 14.0 mph22.5 kmh 30.11 in1019.6 mb 0.00 in0.0 mm 0.00 in/hr0.0 mm/hr 0.00 in0.0 mm
10:14 AM 50.9°F10.5°C 43.9°F6.6°C 77% 6.0 mph ESE9.7 kmh ESE 14.0 mph22.5 kmh 30.11 in1019.6 mb 0.00 in0.0 mm 0.00 in/hr0.0 mm/hr 0.00 in0.0 mm
10:13 AM 50.7°F10.4°C 43.9°F6.6°C 77% 6.0 mph ESE9.7 kmh ESE 14.0 mph22.5 kmh 30.11 in1019.6 mb 0.00 in0.0 mm 0.00 in/hr0.0 mm/hr 0.00 in0.0 mm
10:12 AM 50.5°F10.3°C 43.9°F6.6°C 78% 6.0 mph ESE9.7 kmh ESE 14.0 mph22.5 kmh 30.11 in1019.6 mb 0.00 in0.0 mm 0.00 in/hr0.0 mm/hr 0.00 in0.0 mm
10:11 AM 50.4°F10.2°C 44.1°F6.7°C 79% 6.0 mph ESE9.7 kmh ESE 14.0 mph22.5 kmh 30.11 in1019.6 mb 0.00 in0.0 mm 0.00 in/hr0.0 mm/hr 0.00 in0.0 mm
10:10 AM 49.8°F9.9°C 43.3°F6.3°C 78% 6.0 mph ESE9.7 kmh ESE 14.0 mph22.5 kmh 30.11 in1019.6 mb 0.00 in0.0 mm 0.00 in/hr0.0 mm/hr 0.00 in0.0 mm
10:09 AM 49.6°F9.8°C 43.2°F6.2°C 78% 6.0 mph ESE9.7 kmh ESE 14.0 mph22.5 kmh 30.11 in1019.6 mb 0.00 in0.0 mm 0.00 in/hr0.0 mm/hr 0.00 in0.0 mm
10:08 AM 49.6°F9.8°C 43.2°F6.2°C 78% 6.0 mph ESE9.7 kmh ESE 14.0 mph22.5 kmh 30.11 in1019.6 mb 0.00 in0.0 mm 0.00 in/hr0.0 mm/hr 0.00 in0.0 mm
10:07 AM 49.6°F9.8°C 43.2°F6.2°C 78% 6.0 mph ESE9.7 kmh ESE 14.0 mph22.5 kmh 30.11 in1019.6 mb 0.00 in0.0 mm 0.00 in/hr0.0 mm/hr 0.00 in0.0 mm
10:06 AM 49.8°F9.9°C 43.2°F6.2°C 78% 6.0 mph ESE9.7 kmh ESE 14.0 mph22.5 kmh 30.11 in1019.6 mb 0.00 in0.0 mm 0.00 in/hr0.0 mm/hr 0.00 in0.0 mm
10:05 AM 49.8°F9.9°C 43.3°F6.3°C 78% 6.0 mph ESE9.7 kmh ESE 14.0 mph22.5 kmh 30.11 in1019.6 mb 0.00 in0.0 mm 0.00 in/hr0.0 mm/hr 0.00 in0.0 mm
10:04 AM 49.8°F9.9°C 43.3°F6.3°C 78% 6.0 mph E9.7 kmh E 14.0 mph22.5 kmh 30.12 in1020.0 mb 0.00 in0.0 mm 0.00 in/hr0.0 mm/hr 0.00 in0.0 mm
10:03 AM 50.0°F10.0°C 43.3°F6.3°C 78% 6.0 mph E9.7 kmh E 14.0 mph22.5 kmh 30.11 in1019.6 mb 0.00 in0.0 mm 0.00 in/hr0.0 mm/hr 0.00 in0.0 mm
10:02 AM 50.0°F10.0°C 43.3°F6.3°C 78% 6.0 mph E9.7 kmh E 15.0 mph24.1 kmh 30.11 in1019.6 mb 0.00 in0.0 mm 0.00 in/hr0.0 mm/hr 0.00 in0.0 mm
10:01 AM 50.0°F10.0°C 43.3°F6.3°C 78% 7.0 mph E11.3 kmh E 15.0 mph24.1 kmh 30.12 in1020.0 mb 0.00 in0.0 mm 0.00 in/hr0.0 mm/hr 0.00 in0.0 mm
10:00 AM 50.0°F10.0°C 43.3°F6.3°C 78% 7.0 mph E11.3 kmh E 15.0 mph24.1 kmh 30.11 in1019.6 mb 0.00 in0.0 mm 0.00 in/hr0.0 mm/hr 0.00 in0.0 mm
09:59 AM 50.0°F10.0°C 43.3°F6.3°C 78% 7.0 mph E11.3 kmh E 15.0 mph24.1 kmh 30.12 in1020.0 mb 0.00 in0.0 mm 0.00 in/hr0.0 mm/hr 0.00 in0.0 mm
09:58 AM 50.0°F10.0°C 43.2°F6.2°C 77% 7.0 mph E11.3 kmh E 15.0 mph24.1 kmh 30.12 in1020.0 mb 0.00 in0.0 mm 0.00 in/hr0.0 mm/hr 0.00 in0.0 mm
09:57 AM 50.2°F10.1°C 43.2°F6.2°C 77% 7.0 mph ESE11.3 kmh ESE 15.0 mph24.1 kmh 30.11 in1019.6 mb 0.00 in0.0 mm 0.00 in/hr0.0 mm/hr 0.00 in0.0 mm
09:56 AM 50.2°F10.1°C 43.2°F6.2°C 77% 7.0 mph ESE11.3 kmh ESE 15.0 mph24.1 kmh 30.11 in1019.6 mb 0.00 in0.0 mm 0.00 in/hr0.0 mm/hr 0.00 in0.0 mm
09:55 AM 50.2°F10.1°C 43.3°F6.3°C 77% 7.0 mph ESE11.3 kmh ESE 15.0 mph24.1 kmh 30.11 in1019.6 mb 0.00 in0.0 mm 0.00 in/hr0.0 mm/hr 0.00 in0.0 mm
09:54 AM 50.4°F10.2°C 43.3°F6.3°C 77% 7.0 mph ESE11.3 kmh ESE 15.0 mph24.1 kmh 30.12 in1020.0 mb 0.00 in0.0 mm 0.00 in/hr0.0 mm/hr 0.00 in0.0 mm
09:53 AM 50.4°F10.2°C 43.3°F6.3°C 77% 7.0 mph ESE11.3 kmh ESE 15.0 mph24.1 kmh 30.12 in1020.0 mb 0.00 in0.0 mm 0.00 in/hr0.0 mm/hr 0.00 in0.0 mm
09:52 AM 50.4°F10.2°C 43.0°F6.1°C 76% 7.0 mph ESE11.3 kmh ESE 15.0 mph24.1 kmh 30.12 in1020.0 mb 0.00 in0.0 mm 0.00 in/hr0.0 mm/hr 0.00 in0.0 mm
09:51 AM 50.4°F10.2°C 43.0°F6.1°C 76% 7.0 mph ESE11.3 kmh ESE 15.0 mph24.1 kmh 30.11 in1019.6 mb 0.00 in0.0 mm 0.00 in/hr0.0 mm/hr 0.00 in0.0 mm
09:50 AM 50.4°F10.2°C 43.0°F6.1°C 76% 7.0 mph ESE11.3 kmh ESE 15.0 mph24.1 kmh 30.11 in1019.6 mb 0.00 in0.0 mm 0.00 in/hr0.0 mm/hr 0.00 in0.0 mm
09:49 AM 50.4°F10.2°C 43.0°F6.1°C 76% 7.0 mph E11.3 kmh E 15.0 mph24.1 kmh 30.12 in1020.0 mb 0.00 in0.0 mm 0.00 in/hr0.0 mm/hr 0.00 in0.0 mm
09:48 AM 50.2°F10.1°C 43.0°F6.1°C 76% 7.0 mph E11.3 kmh E 15.0 mph24.1 kmh 30.11 in1019.6 mb 0.00 in0.0 mm 0.00 in/hr0.0 mm/hr 0.00 in0.0 mm
09:47 AM 50.2°F10.1°C 43.0°F6.1°C 76% 7.0 mph E11.3 kmh E 16.0 mph25.7 kmh 30.11 in1019.6 mb 0.00 in0.0 mm 0.00 in/hr0.0 mm/hr 0.00 in0.0 mm
09:46 AM 50.2°F10.1°C 42.8°F6.0°C 76% 7.0 mph E11.3 kmh E 16.0 mph25.7 kmh 30.11 in1019.6 mb 0.00 in0.0 mm 0.00 in/hr0.0 mm/hr 0.00 in0.0 mm
09:45 AM 50.2°F10.1°C 42.8°F6.0°C 76% 8.0 mph E12.9 kmh E 16.0 mph25.7 kmh 30.11 in1019.6 mb 0.00 in0.0 mm 0.00 in/hr0.0 mm/hr 0.00 in0.0 mm
09:44 AM 50.2°F10.1°C 42.8°F6.0°C 76% 8.0 mph E12.9 kmh E 16.0 mph25.7 kmh 30.11 in1019.6 mb 0.00 in0.0 mm 0.00 in/hr0.0 mm/hr 0.00 in0.0 mm
09:43 AM 50.2°F10.1°C 42.8°F6.0°C 76% 8.0 mph E12.9 kmh E 16.0 mph25.7 kmh 30.11 in1019.6 mb 0.00 in0.0 mm 0.00 in/hr0.0 mm/hr 0.00 in0.0 mm
09:42 AM 50.4°F10.2°C 43.0°F6.1°C 76% 8.0 mph E12.9 kmh E 16.0 mph25.7 kmh 30.11 in1019.6 mb 0.00 in0.0 mm 0.00 in/hr0.0 mm/hr 0.00 in0.0 mm
09:41 AM 50.4°F10.2°C 42.6°F5.9°C 75% 8.0 mph E12.9 kmh E 16.0 mph25.7 kmh 30.11 in1019.6 mb 0.00 in0.0 mm 0.00 in/hr0.0 mm/hr 0.00 in0.0 mm
09:40 AM 50.5°F10.3°C 42.8°F6.0°C 75% 7.0 mph E11.3 kmh E 16.0 mph25.7 kmh 30.11 in1019.6 mb 0.00 in0.0 mm 0.00 in/hr0.0 mm/hr 0.00 in0.0 mm
09:39 AM 50.5°F10.3°C 43.0°F6.1°C 75% 7.0 mph E11.3 kmh E 16.0 mph25.7 kmh 30.11 in1019.6 mb 0.00 in0.0 mm 0.00 in/hr0.0 mm/hr 0.00 in0.0 mm
09:38 AM 50.7°F10.4°C 43.5°F6.4°C 76% 7.0 mph E11.3 kmh E 16.0 mph25.7 kmh 30.11 in1019.6 mb 0.00 in0.0 mm 0.00 in/hr0.0 mm/hr 0.00 in0.0 mm
09:37 AM 50.9°F10.5°C 43.5°F6.4°C 76% 7.0 mph E11.3 kmh E 14.0 mph22.5 kmh 30.11 in1019.6 mb 0.00 in0.0 mm 0.00 in/hr0.0 mm/hr 0.00 in0.0 mm
09:36 AM 51.1°F10.6°C 43.7°F6.5°C 76% 7.0 mph E11.3 kmh E 14.0 mph22.5 kmh 30.11 in1019.6 mb 0.00 in0.0 mm 0.00 in/hr0.0 mm/hr 0.00 in0.0 mm
09:35 AM 51.1°F10.6°C 43.9°F6.6°C 76% 6.0 mph E9.7 kmh E 14.0 mph22.5 kmh 30.11 in1019.6 mb 0.00 in0.0 mm 0.00 in/hr0.0 mm/hr 0.00 in0.0 mm
09:34 AM 51.3°F10.7°C 43.9°F6.6°C 76% 6.0 mph E9.7 kmh E 14.0 mph22.5 kmh 30.11 in1019.6 mb 0.00 in0.0 mm 0.00 in/hr0.0 mm/hr 0.00 in0.0 mm
09:33 AM 51.3°F10.7°C 44.2°F6.8°C 77% 6.0 mph E9.7 kmh E 14.0 mph22.5 kmh 30.11 in1019.6 mb 0.00 in0.0 mm 0.00 in/hr0.0 mm/hr 0.00 in0.0 mm
09:32 AM 51.3°F10.7°C 44.6°F7.0°C 78% 6.0 mph E9.7 kmh E 16.0 mph25.7 kmh 30.11 in1019.6 mb 0.00 in0.0 mm 0.00 in/hr0.0 mm/hr 0.00 in0.0 mm
09:31 AM 51.1°F10.6°C 44.8°F7.1°C 79% 7.0 mph E11.3 kmh E 17.0 mph27.4 kmh 30.11 in1019.6 mb 0.00 in0.0 mm 0.00 in/hr0.0 mm/hr 0.00 in0.0 mm
09:30 AM 51.1°F10.6°C 44.8°F7.1°C 79% 7.0 mph E11.3 kmh E 17.0 mph27.4 kmh 30.11 in1019.6 mb 0.00 in0.0 mm 0.00 in/hr0.0 mm/hr 0.00 in0.0 mm
09:29 AM 50.7°F10.4°C 44.6°F7.0°C 79% 7.0 mph E11.3 kmh E 17.0 mph27.4 kmh 30.11 in1019.6 mb 0.00 in0.0 mm 0.00 in/hr0.0 mm/hr 0.00 in0.0 mm
09:28 AM 50.7°F10.4°C 44.4°F6.9°C 79% 7.0 mph E11.3 kmh E 17.0 mph27.4 kmh 30.11 in1019.6 mb 0.00 in0.0 mm 0.00 in/hr0.0 mm/hr 0.00 in0.0 mm
09:27 AM 50.5°F10.3°C 44.2°F6.8°C 79% 7.0 mph ESE11.3 kmh ESE 17.0 mph27.4 kmh 30.11 in1019.6 mb 0.00 in0.0 mm 0.00 in/hr0.0 mm/hr 0.00 in0.0 mm
09:26 AM 50.4°F10.2°C 44.1°F6.7°C 79% 8.0 mph E12.9 kmh E 17.0 mph27.4 kmh 30.11 in1019.6 mb 0.00 in0.0 mm 0.00 in/hr0.0 mm/hr 0.00 in0.0 mm
09:25 AM 50.2°F10.1°C 44.2°F6.8°C 80% 8.0 mph E12.9 kmh E 17.0 mph27.4 kmh 30.11 in1019.6 mb 0.00 in0.0 mm 0.00 in/hr0.0 mm/hr 0.00 in0.0 mm
09:24 AM 50.0°F10.0°C 44.1°F6.7°C 80% 7.0 mph E11.3 kmh E 17.0 mph27.4 kmh 30.11 in1019.6 mb 0.00 in0.0 mm 0.00 in/hr0.0 mm/hr 0.00 in0.0 mm
09:23 AM 49.8°F9.9°C 43.9°F6.6°C 80% 7.0 mph E11.3 kmh E 17.0 mph27.4 kmh 30.11 in1019.6 mb 0.00 in0.0 mm 0.00 in/hr0.0 mm/hr 0.00 in0.0 mm
09:22 AM 49.6°F9.8°C 44.1°F6.7°C 81% 6.0 mph E9.7 kmh E 17.0 mph27.4 kmh 30.11 in1019.6 mb 0.00 in0.0 mm 0.00 in/hr0.0 mm/hr 0.00 in0.0 mm
09:21 AM 49.5°F9.7°C 43.9°F6.6°C 81% 6.0 mph E9.7 kmh E 16.0 mph25.7 kmh 30.11 in1019.6 mb 0.00 in0.0 mm 0.00 in/hr0.0 mm/hr 0.00 in0.0 mm
09:20 AM 49.5°F9.7°C 43.9°F6.6°C 81% 6.0 mph E9.7 kmh E 16.0 mph25.7 kmh 30.11 in1019.6 mb 0.00 in0.0 mm 0.00 in/hr0.0 mm/hr 0.00 in0.0 mm
09:19 AM 49.3°F9.6°C 43.7°F6.5°C 81% 6.0 mph E9.7 kmh E 16.0 mph25.7 kmh 30.11 in1019.6 mb 0.00 in0.0 mm 0.00 in/hr0.0 mm/hr 0.00 in0.0 mm
09:18 AM 49.3°F9.6°C 43.7°F6.5°C 81% 6.0 mph E9.7 kmh E 16.0 mph25.7 kmh 30.11 in1019.6 mb 0.00 in0.0 mm 0.00 in/hr0.0 mm/hr 0.00 in0.0 mm
09:17 AM 49.3°F9.6°C 43.9°F6.6°C 82% 6.0 mph E9.7 kmh E 16.0 mph25.7 kmh 30.11 in1019.6 mb 0.00 in0.0 mm 0.00 in/hr0.0 mm/hr 0.00 in0.0 mm
09:16 AM 49.3°F9.6°C 43.9°F6.6°C 82% 6.0 mph E9.7 kmh E 16.0 mph25.7 kmh 30.11 in1019.6 mb 0.00 in0.0 mm 0.00 in/hr0.0 mm/hr 0.00 in0.0 mm
09:15 AM 49.1°F9.5°C 43.9°F6.6°C 82% 7.0 mph E11.3 kmh E 16.0 mph25.7 kmh 30.11 in1019.6 mb 0.00 in0.0 mm 0.00 in/hr0.0 mm/hr 0.00 in0.0 mm
09:14 AM 48.9°F9.4°C 43.7°F6.5°C 82% 8.0 mph E12.9 kmh E 17.0 mph27.4 kmh 30.11 in1019.6 mb 0.00 in0.0 mm 0.00 in/hr0.0 mm/hr 0.00 in0.0 mm
09:13 AM 48.9°F9.4°C 43.7°F6.5°C 82% 8.0 mph E12.9 kmh E 17.0 mph27.4 kmh 30.11 in1019.6 mb 0.00 in0.0 mm 0.00 in/hr0.0 mm/hr 0.00 in0.0 mm
09:12 AM 48.7°F9.3°C 43.5°F6.4°C 82% 9.0 mph E14.5 kmh E 17.0 mph27.4 kmh 30.11 in1019.6 mb 0.00 in0.0 mm 0.00 in/hr0.0 mm/hr 0.00 in0.0 mm
09:11 AM 48.7°F9.3°C 43.5°F6.4°C 82% 9.0 mph E14.5 kmh E 18.0 mph29.0 kmh 30.11 in1019.6 mb 0.00 in0.0 mm 0.00 in/hr0.0 mm/hr 0.00 in0.0 mm
09:10 AM 48.6°F9.2°C 43.3°F6.3°C 82% 9.0 mph E14.5 kmh E 18.0 mph29.0 kmh 30.11 in1019.6 mb 0.00 in0.0 mm 0.00 in/hr0.0 mm/hr 0.00 in0.0 mm
09:09 AM 48.6°F9.2°C 43.3°F6.3°C 82% 9.0 mph E14.5 kmh E 18.0 mph29.0 kmh 30.11 in1019.6 mb 0.00 in0.0 mm 0.00 in/hr0.0 mm/hr 0.00 in0.0 mm
09:08 AM 48.6°F9.2°C 43.3°F6.3°C 82% 9.0 mph E14.5 kmh E 18.0 mph29.0 kmh 30.11 in1019.6 mb 0.00 in0.0 mm 0.00 in/hr0.0 mm/hr 0.00 in0.0 mm
09:07 AM 48.7°F9.3°C 43.5°F6.4°C 82% 9.0 mph E14.5 kmh E 18.0 mph29.0 kmh 30.11 in1019.6 mb 0.00 in0.0 mm 0.00 in/hr0.0 mm/hr 0.00 in0.0 mm
09:06 AM 48.7°F9.3°C 43.5°F6.4°C 82% 8.0 mph E12.9 kmh E 18.0 mph29.0 kmh 30.11 in1019.6 mb 0.00 in0.0 mm 0.00 in/hr0.0 mm/hr 0.00 in0.0 mm
09:05 AM 48.7°F9.3°C 43.5°F6.4°C 82% 8.0 mph E12.9 kmh E 18.0 mph29.0 kmh 30.11 in1019.6 mb 0.00 in0.0 mm 0.00 in/hr0.0 mm/hr 0.00 in0.0 mm
09:04 AM 48.7°F9.3°C 43.7°F6.5°C 83% 8.0 mph E12.9 kmh E 18.0 mph29.0 kmh 30.11 in1019.6 mb 0.00 in0.0 mm 0.00 in/hr0.0 mm/hr 0.00 in0.0 mm
09:03 AM 48.6°F9.2°C 43.7°F6.5°C 83% 8.0 mph E12.9 kmh E 18.0 mph29.0 kmh 30.11 in1019.6 mb 0.00 in0.0 mm 0.00 in/hr0.0 mm/hr 0.00 in0.0 mm
09:02 AM 48.6°F9.2°C 44.2°F6.8°C 85% 8.0 mph E12.9 kmh E 18.0 mph29.0 kmh 30.11 in1019.6 mb 0.00 in0.0 mm 0.00 in/hr0.0 mm/hr 0.00 in0.0 mm
09:01 AM 48.4°F9.1°C 44.1°F6.7°C 85% 8.0 mph E12.9 kmh E 19.0 mph30.6 kmh 30.11 in1019.6 mb 0.00 in0.0 mm 0.00 in/hr0.0 mm/hr 0.00 in0.0 mm
09:00 AM 48.0°F8.9°C 43.9°F6.6°C 85% 8.0 mph E12.9 kmh E 19.0 mph30.6 kmh 30.11 in1019.6 mb 0.00 in0.0 mm 0.00 in/hr0.0 mm/hr 0.00 in0.0 mm
08:59 AM 47.8°F8.8°C 43.5°F6.4°C 85% 8.0 mph E12.9 kmh E 19.0 mph30.6 kmh 30.11 in1019.6 mb 0.00 in0.0 mm 0.00 in/hr0.0 mm/hr 0.00 in0.0 mm
08:58 AM 47.8°F8.8°C 43.5°F6.4°C 85% 8.0 mph E12.9 kmh E 19.0 mph30.6 kmh 30.11 in1019.6 mb 0.00 in0.0 mm 0.00 in/hr0.0 mm/hr 0.00 in0.0 mm
08:57 AM 47.7°F8.7°C 43.3°F6.3°C 85% 9.0 mph E14.5 kmh E 19.0 mph30.6 kmh 30.11 in1019.6 mb 0.00 in0.0 mm 0.00 in/hr0.0 mm/hr 0.00 in0.0 mm
08:56 AM 47.7°F8.7°C 43.3°F6.3°C 85% 9.0 mph E14.5 kmh E 19.0 mph30.6 kmh 30.11 in1019.6 mb 0.00 in0.0 mm 0.00 in/hr0.0 mm/hr 0.00 in0.0 mm
08:55 AM 47.7°F8.7°C 43.3°F6.3°C 85% 9.0 mph E14.5 kmh E 19.0 mph30.6 kmh 30.11 in1019.6 mb 0.00 in0.0 mm 0.00 in/hr0.0 mm/hr 0.00 in0.0 mm
08:54 AM 47.7°F8.7°C 43.3°F6.3°C 85% 8.0 mph E12.9 kmh E 19.0 mph30.6 kmh 30.11 in1019.6 mb 0.00 in0.0 mm 0.00 in/hr0.0 mm/hr 0.00 in0.0 mm
08:53 AM 47.7°F8.7°C 43.3°F6.3°C 85% 7.0 mph E11.3 kmh E 19.0 mph30.6 kmh 30.11 in1019.6 mb 0.00 in0.0 mm 0.00 in/hr0.0 mm/hr 0.00 in0.0 mm
08:52 AM 47.7°F8.7°C 43.7°F6.5°C 86% 7.0 mph E11.3 kmh E 19.0 mph30.6 kmh 30.11 in1019.6 mb 0.00 in0.0 mm 0.00 in/hr0.0 mm/hr 0.00 in0.0 mm
08:51 AM 47.5°F8.6°C 43.5°F6.4°C 86% 7.0 mph E11.3 kmh E 15.0 mph24.1 kmh 30.11 in1019.6 mb 0.00 in0.0 mm 0.00 in/hr0.0 mm/hr 0.00 in0.0 mm
08:50 AM 47.5°F8.6°C 43.3°F6.3°C 86% 7.0 mph E11.3 kmh E 15.0 mph24.1 kmh 30.11 in1019.6 mb 0.00 in0.0 mm 0.00 in/hr0.0 mm/hr 0.00 in0.0 mm
08:49 AM 47.3°F8.5°C 43.3°F6.3°C 86% 7.0 mph E11.3 kmh E 15.0 mph24.1 kmh 30.11 in1019.6 mb 0.00 in0.0 mm 0.00 in/hr0.0 mm/hr 0.00 in0.0 mm
08:48 AM 47.1°F8.4°C 43.2°F6.2°C 86% 7.0 mph E11.3 kmh E 16.0 mph25.7 kmh 30.11 in1019.6 mb 0.00 in0.0 mm 0.00 in/hr0.0 mm/hr 0.00 in0.0 mm
08:47 AM 47.1°F8.4°C 43.2°F6.2°C 86% 6.0 mph E9.7 kmh E 16.0 mph25.7 kmh 30.11 in1019.6 mb 0.00 in0.0 mm 0.00 in/hr0.0 mm/hr 0.00 in0.0 mm
08:46 AM 47.1°F8.4°C 43.5°F6.4°C 87% 7.0 mph E11.3 kmh E 16.0 mph25.7 kmh 30.10 in1019.3 mb 0.00 in0.0 mm 0.00 in/hr0.0 mm/hr 0.00 in0.0 mm
08:45 AM 47.1°F8.4°C 43.5°F6.4°C 87% 7.0 mph E11.3 kmh E 16.0 mph25.7 kmh 30.11 in1019.6 mb 0.00 in0.0 mm 0.00 in/hr0.0 mm/hr 0.00 in0.0 mm
08:44 AM 47.1°F8.4°C 43.3°F6.3°C 87% 7.0 mph E11.3 kmh E 16.0 mph25.7 kmh 30.11 in1019.6 mb 0.00 in0.0 mm 0.00 in/hr0.0 mm/hr 0.00 in0.0 mm
08:43 AM 47.1°F8.4°C 43.3°F6.3°C 87% 7.0 mph E11.3 kmh E 16.0 mph25.7 kmh 30.11 in1019.6 mb 0.00 in0.0 mm 0.00 in/hr0.0 mm/hr 0.00 in0.0 mm
08:42 AM 47.1°F8.4°C 43.3°F6.3°C 87% 8.0 mph E12.9 kmh E 16.0 mph25.7 kmh 30.11 in1019.6 mb 0.00 in0.0 mm 0.00 in/hr0.0 mm/hr 0.00 in0.0 mm
08:41 AM 46.9°F8.3°C 43.3°F6.3°C 87% 7.0 mph E11.3 kmh E 16.0 mph25.7 kmh 30.11 in1019.6 mb 0.00 in0.0 mm 0.00 in/hr0.0 mm/hr 0.00 in0.0 mm
08:40 AM 46.9°F8.3°C 43.3°F6.3°C 87% 7.0 mph E11.3 kmh E 16.0 mph25.7 kmh 30.11 in1019.6 mb 0.00 in0.0 mm 0.00 in/hr0.0 mm/hr 0.00 in0.0 mm
08:39 AM 46.9°F8.3°C 43.3°F6.3°C 87% 6.0 mph E9.7 kmh E 16.0 mph25.7 kmh 30.11 in1019.6 mb 0.00 in0.0 mm 0.00 in/hr0.0 mm/hr 0.00 in0.0 mm
08:38 AM 46.9°F8.3°C 43.3°F6.3°C 87% 6.0 mph E9.7 kmh E 15.0 mph24.1 kmh 30.11 in1019.6 mb 0.00 in0.0 mm 0.00 in/hr0.0 mm/hr 0.00 in0.0 mm
08:37 AM 46.9°F8.3°C 43.3°F6.3°C 87% 6.0 mph E9.7 kmh E 15.0 mph24.1 kmh 30.11 in1019.6 mb 0.00 in0.0 mm 0.00 in/hr0.0 mm/hr 0.00 in0.0 mm
08:36 AM 46.9°F8.3°C 43.3°F6.3°C 87% 5.0 mph E8.0 kmh E 15.0 mph24.1 kmh 30.11 in1019.6 mb 0.00 in0.0 mm 0.00 in/hr0.0 mm/hr 0.00 in0.0 mm
08:35 AM 46.9°F8.3°C 43.3°F6.3°C 87% 6.0 mph E9.7 kmh E 13.0 mph20.9 kmh 30.11 in1019.6 mb 0.00 in0.0 mm 0.00 in/hr0.0 mm/hr 0.00 in0.0 mm
08:34 AM 46.9°F8.3°C 43.3°F6.3°C 87% 6.0 mph E9.7 kmh E 13.0 mph20.9 kmh 30.11 in1019.6 mb 0.00 in0.0 mm 0.00 in/hr0.0 mm/hr 0.00 in0.0 mm
08:33 AM 46.9°F8.3°C 43.3°F6.3°C 87% 6.0 mph E9.7 kmh E 13.0 mph20.9 kmh 30.11 in1019.6 mb 0.00 in0.0 mm 0.00 in/hr0.0 mm/hr 0.00 in0.0 mm
08:32 AM 46.9°F8.3°C 43.3°F6.3°C 87% 6.0 mph E9.7 kmh E 13.0 mph20.9 kmh 30.11 in1019.6 mb 0.00 in0.0 mm 0.00 in/hr0.0 mm/hr 0.00 in0.0 mm
08:31 AM 46.9°F8.3°C 43.3°F6.3°C 87% 6.0 mph E9.7 kmh E 13.0 mph20.9 kmh 30.11 in1019.6 mb 0.00 in0.0 mm 0.00 in/hr0.0 mm/hr 0.00 in0.0 mm
08:30 AM 46.9°F8.3°C 43.2°F6.2°C 87% 7.0 mph E11.3 kmh E 15.0 mph24.1 kmh 30.11 in1019.6 mb 0.00 in0.0 mm 0.00 in/hr0.0 mm/hr 0.00 in0.0 mm
08:29 AM 46.9°F8.3°C 43.2°F6.2°C 87% 7.0 mph E11.3 kmh E 15.0 mph24.1 kmh 30.10 in1019.3 mb 0.00 in0.0 mm 0.00 in/hr0.0 mm/hr 0.00 in0.0 mm
08:28 AM 46.9°F8.3°C 43.2°F6.2°C 87% 7.0 mph E11.3 kmh E 15.0 mph24.1 kmh 30.11 in1019.6 mb 0.00 in0.0 mm 0.00 in/hr0.0 mm/hr 0.00 in0.0 mm
08:27 AM 46.8°F8.2°C 43.2°F6.2°C 87% 7.0 mph E11.3 kmh E 15.0 mph24.1 kmh 30.10 in1019.3 mb 0.00 in0.0 mm 0.00 in/hr0.0 mm/hr 0.00 in0.0 mm
08:26 AM 46.8°F8.2°C 43.2°F6.2°C 87% 7.0 mph E11.3 kmh E 15.0 mph24.1 kmh 30.10 in1019.3 mb 0.00 in0.0 mm 0.00 in/hr0.0 mm/hr 0.00 in0.0 mm
08:25 AM 46.9°F8.3°C 43.2°F6.2°C 87% 7.0 mph E11.3 kmh E 15.0 mph24.1 kmh 30.10 in1019.3 mb 0.00 in0.0 mm 0.00 in/hr0.0 mm/hr 0.00 in0.0 mm
08:24 AM 46.9°F8.3°C 43.5°F6.4°C 88% 6.0 mph E9.7 kmh E 15.0 mph24.1 kmh 30.10 in1019.3 mb 0.00 in0.0 mm 0.00 in/hr0.0 mm/hr 0.00 in0.0 mm
08:23 AM 46.9°F8.3°C 43.5°F6.4°C 88% 6.0 mph E9.7 kmh E 15.0 mph24.1 kmh 30.10 in1019.3 mb 0.00 in0.0 mm 0.00 in/hr0.0 mm/hr 0.00 in0.0 mm
08:22 AM 46.9°F8.3°C 43.5°F6.4°C 88% 6.0 mph E9.7 kmh E 15.0 mph24.1 kmh 30.10 in1019.3 mb 0.00 in0.0 mm 0.00 in/hr0.0 mm/hr 0.00 in0.0 mm
08:21 AM 46.9°F8.3°C 43.9°F6.6°C 89% 6.0 mph E9.7 kmh E 15.0 mph24.1 kmh 30.10 in1019.3 mb 0.00 in0.0 mm 0.00 in/hr0.0 mm/hr 0.00 in0.0 mm
08:20 AM 46.9°F8.3°C 43.9°F6.6°C 89% 6.0 mph E9.7 kmh E 13.0 mph20.9 kmh 30.10 in1019.3 mb 0.00 in0.0 mm 0.00 in/hr0.0 mm/hr 0.00 in0.0 mm
08:19 AM 46.9°F8.3°C 43.9°F6.6°C 89% 6.0 mph E9.7 kmh E 13.0 mph20.9 kmh 30.10 in1019.3 mb 0.00 in0.0 mm 0.00 in/hr0.0 mm/hr 0.00 in0.0 mm
08:18 AM 46.8°F8.2°C 43.7°F6.5°C 89% 6.0 mph E9.7 kmh E 13.0 mph20.9 kmh 30.10 in1019.3 mb 0.00 in0.0 mm 0.00 in/hr0.0 mm/hr 0.00 in0.0 mm
08:17 AM 46.8°F8.2°C 43.7°F6.5°C 89% 6.0 mph E9.7 kmh E 14.0 mph22.5 kmh 30.10 in1019.3 mb 0.00 in0.0 mm 0.00 in/hr0.0 mm/hr 0.00 in0.0 mm
08:16 AM 46.8°F8.2°C 43.9°F6.6°C 90% 6.0 mph E9.7 kmh E 14.0 mph22.5 kmh 30.10 in1019.3 mb 0.00 in0.0 mm 0.00 in/hr0.0 mm/hr 0.00 in0.0 mm
08:15 AM 46.6°F8.1°C 43.9°F6.6°C 90% 7.0 mph E11.3 kmh E 17.0 mph27.4 kmh 30.09 in1019.0 mb 0.00 in0.0 mm 0.00 in/hr0.0 mm/hr 0.00 in0.0 mm
08:14 AM 46.6°F8.1°C 43.7°F6.5°C 90% 7.0 mph E11.3 kmh E 17.0 mph27.4 kmh 30.10 in1019.3 mb 0.00 in0.0 mm 0.00 in/hr0.0 mm/hr 0.00 in0.0 mm
08:13 AM 46.4°F8.0°C 43.7°F6.5°C 90% 7.0 mph E11.3 kmh E 17.0 mph27.4 kmh 30.10 in1019.3 mb 0.00 in0.0 mm 0.00 in/hr0.0 mm/hr 0.00 in0.0 mm
08:12 AM 46.4°F8.0°C 43.7°F6.5°C 90% 6.0 mph E9.7 kmh E 17.0 mph27.4 kmh 30.09 in1019.0 mb 0.00 in0.0 mm 0.00 in/hr0.0 mm/hr 0.00 in0.0 mm
08:11 AM 46.2°F7.9°C 43.5°F6.4°C 90% 6.0 mph E9.7 kmh E 17.0 mph27.4 kmh 30.09 in1019.0 mb 0.00 in0.0 mm 0.00 in/hr0.0 mm/hr 0.00 in0.0 mm
08:10 AM 46.2°F7.9°C 43.5°F6.4°C 90% 6.0 mph E9.7 kmh E 17.0 mph27.4 kmh 30.09 in1019.0 mb 0.00 in0.0 mm 0.00 in/hr0.0 mm/hr 0.00 in0.0 mm
08:09 AM 46.2°F7.9°C 43.5°F6.4°C 90% 5.0 mph E8.0 kmh E 17.0 mph27.4 kmh 30.09 in1019.0 mb 0.00 in0.0 mm 0.00 in/hr0.0 mm/hr 0.00 in0.0 mm
08:08 AM 46.2°F7.9°C 43.9°F6.6°C 91% 5.0 mph E8.0 kmh E 17.0 mph27.4 kmh 30.09 in1019.0 mb 0.00 in0.0 mm 0.00 in/hr0.0 mm/hr 0.00 in0.0 mm
08:07 AM 46.2°F7.9°C 43.7°F6.5°C 91% 5.0 mph E8.0 kmh E 17.0 mph27.4 kmh 30.09 in1019.0 mb 0.00 in0.0 mm 0.00 in/hr0.0 mm/hr 0.00 in0.0 mm
08:06 AM 46.2°F7.9°C 43.7°F6.5°C 91% 5.0 mph E8.0 kmh E 17.0 mph27.4 kmh 30.09 in1019.0 mb 0.00 in0.0 mm 0.00 in/hr0.0 mm/hr 0.00 in0.0 mm
08:05 AM 46.0°F7.8°C 43.7°F6.5°C 91% 6.0 mph E9.7 kmh E 13.0 mph20.9 kmh 30.09 in1019.0 mb 0.00 in0.0 mm 0.00 in/hr0.0 mm/hr 0.00 in0.0 mm
08:04 AM 46.0°F7.8°C 43.7°F6.5°C 91% 6.0 mph E9.7 kmh E 14.0 mph22.5 kmh 30.09 in1019.0 mb 0.00 in0.0 mm 0.00 in/hr0.0 mm/hr 0.00 in0.0 mm
08:03 AM 46.0°F7.8°C 43.5°F6.4°C 91% 6.0 mph E9.7 kmh E 14.0 mph22.5 kmh 30.09 in1019.0 mb 0.00 in0.0 mm 0.00 in/hr0.0 mm/hr 0.00 in0.0 mm
08:02 AM 45.9°F7.7°C 43.3°F6.3°C 91% 6.0 mph E9.7 kmh E 14.0 mph22.5 kmh 30.09 in1019.0 mb 0.00 in0.0 mm 0.00 in/hr0.0 mm/hr 0.00 in0.0 mm
08:01 AM 45.9°F7.7°C 43.3°F6.3°C 91% 6.0 mph E9.7 kmh E 14.0 mph22.5 kmh 30.09 in1019.0 mb 0.00 in0.0 mm 0.00 in/hr0.0 mm/hr 0.00 in0.0 mm
08:00 AM 45.9°F7.7°C 43.3°F6.3°C 91% 7.0 mph E11.3 kmh E 14.0 mph22.5 kmh 30.09 in1019.0 mb 0.00 in0.0 mm 0.00 in/hr0.0 mm/hr 0.00 in0.0 mm
07:59 AM 45.9°F7.7°C 43.3°F6.3°C 91% 7.0 mph E11.3 kmh E 14.0 mph22.5 kmh 30.09 in1019.0 mb 0.00 in0.0 mm 0.00 in/hr0.0 mm/hr 0.00 in0.0 mm
07:58 AM 45.9°F7.7°C 43.3°F6.3°C 91% 7.0 mph E11.3 kmh E 14.0 mph22.5 kmh 30.09 in1019.0 mb 0.00 in0.0 mm 0.00 in/hr0.0 mm/hr 0.00 in0.0 mm
07:57 AM 45.9°F7.7°C 43.3°F6.3°C 91% 7.0 mph ENE11.3 kmh ENE 14.0 mph22.5 kmh 30.09 in1019.0 mb 0.00 in0.0 mm 0.00 in/hr0.0 mm/hr 0.00 in0.0 mm
07:56 AM 45.9°F7.7°C 43.5°F6.4°C 92% 7.0 mph ENE11.3 kmh ENE 14.0 mph22.5 kmh 30.09 in1019.0 mb 0.00 in0.0 mm 0.00 in/hr0.0 mm/hr 0.00 in0.0 mm
07:55 AM 45.9°F7.7°C 43.5°F6.4°C 92% 6.0 mph ENE9.7 kmh ENE 14.0 mph22.5 kmh 30.09 in1019.0 mb 0.00 in0.0 mm 0.00 in/hr0.0 mm/hr 0.00 in0.0 mm
07:54 AM 45.7°F7.6°C 43.5°F6.4°C 92% 6.0 mph ENE9.7 kmh ENE 12.0 mph19.3 kmh 30.09 in1019.0 mb 0.00 in0.0 mm 0.00 in/hr0.0 mm/hr 0.00 in0.0 mm
07:53 AM 45.7°F7.6°C 43.5°F6.4°C 92% 6.0 mph ENE9.7 kmh ENE 12.0 mph19.3 kmh 30.09 in1019.0 mb 0.00 in0.0 mm 0.00 in/hr0.0 mm/hr 0.00 in0.0 mm
07:52 AM 45.7°F7.6°C 43.5°F6.4°C 92% 6.0 mph ENE9.7 kmh ENE 12.0 mph19.3 kmh 30.09 in1019.0 mb 0.00 in0.0 mm 0.00 in/hr0.0 mm/hr 0.00 in0.0 mm
07:51 AM 45.7°F7.6°C 43.5°F6.4°C 92% 6.0 mph ENE9.7 kmh ENE 12.0 mph19.3 kmh 30.09 in1019.0 mb 0.00 in0.0 mm 0.00 in/hr0.0 mm/hr 0.00 in0.0 mm
07:50 AM 45.7°F7.6°C 43.3°F6.3°C 92% 6.0 mph ENE9.7 kmh ENE 12.0 mph19.3 kmh 30.09 in1019.0 mb 0.00 in0.0 mm 0.00 in/hr0.0 mm/hr 0.00 in0.0 mm
07:49 AM 45.7°F7.6°C 43.3°F6.3°C 92% 6.0 mph ENE9.7 kmh ENE 12.0 mph19.3 kmh 30.08 in1018.6 mb 0.00 in0.0 mm 0.00 in/hr0.0 mm/hr 0.00 in0.0 mm
07:48 AM 45.7°F7.6°C 43.3°F6.3°C 92% 5.0 mph ENE8.0 kmh ENE 12.0 mph19.3 kmh 30.09 in1019.0 mb 0.00 in0.0 mm 0.00 in/hr0.0 mm/hr 0.00 in0.0 mm
07:47 AM 45.5°F7.5°C 43.3°F6.3°C 92% 5.0 mph ENE8.0 kmh ENE 11.0 mph17.7 kmh 30.09 in1019.0 mb 0.00 in0.0 mm 0.00 in/hr0.0 mm/hr 0.00 in0.0 mm
07:46 AM 45.5°F7.5°C 43.3°F6.3°C 92% 5.0 mph ENE8.0 kmh ENE 11.0 mph17.7 kmh 30.09 in1019.0 mb 0.00 in0.0 mm 0.00 in/hr0.0 mm/hr 0.00 in0.0 mm
07:45 AM 45.3°F7.4°C 43.2°F6.2°C 92% 5.0 mph ENE8.0 kmh ENE 11.0 mph17.7 kmh 30.09 in1019.0 mb 0.00 in0.0 mm 0.00 in/hr0.0 mm/hr 0.00 in0.0 mm
07:44 AM 45.3°F7.4°C 43.2°F6.2°C 92% 5.0 mph E8.0 kmh E 11.0 mph17.7 kmh 30.08 in1018.6 mb 0.00 in0.0 mm 0.00 in/hr0.0 mm/hr 0.00 in0.0 mm
07:43 AM 45.3°F7.4°C 43.2°F6.2°C 92% 5.0 mph E8.0 kmh E 11.0 mph17.7 kmh 30.08 in1018.6 mb 0.00 in0.0 mm 0.00 in/hr0.0 mm/hr 0.00 in0.0 mm
07:42 AM 45.3°F7.4°C 43.2°F6.2°C 92% 5.0 mph E8.0 kmh E 11.0 mph17.7 kmh 30.09 in1019.0 mb 0.00 in0.0 mm 0.00 in/hr0.0 mm/hr 0.00 in0.0 mm
07:41 AM 45.3°F7.4°C 43.2°F6.2°C 92% 5.0 mph E8.0 kmh E 11.0 mph17.7 kmh 30.08 in1018.6 mb 0.00 in0.0 mm 0.00 in/hr0.0 mm/hr 0.00 in0.0 mm
07:40 AM 45.1°F7.3°C 43.0°F6.1°C 92% 5.0 mph E8.0 kmh E 11.0 mph17.7 kmh 30.09 in1019.0 mb 0.00 in0.0 mm 0.00 in/hr0.0 mm/hr 0.00 in0.0 mm
07:39 AM 45.1°F7.3°C 43.0°F6.1°C 92% 5.0 mph E8.0 kmh E 11.0 mph17.7 kmh 30.08 in1018.6 mb 0.00 in0.0 mm 0.00 in/hr0.0 mm/hr 0.00 in0.0 mm
07:38 AM 45.1°F7.3°C 43.0°F6.1°C 92% 5.0 mph E8.0 kmh E 11.0 mph17.7 kmh 30.08 in1018.6 mb 0.00 in0.0 mm 0.00 in/hr0.0 mm/hr 0.00 in0.0 mm
07:37 AM 45.1°F7.3°C 43.0°F6.1°C 92% 4.0 mph E6.4 kmh E 11.0 mph17.7 kmh 30.08 in1018.6 mb 0.00 in0.0 mm 0.00 in/hr0.0 mm/hr 0.00 in0.0 mm
07:36 AM 45.1°F7.3°C 43.0°F6.1°C 92% 4.0 mph E6.4 kmh E 11.0 mph17.7 kmh 30.08 in1018.6 mb 0.00 in0.0 mm 0.00 in/hr0.0 mm/hr 0.00 in0.0 mm
07:35 AM 45.1°F7.3°C 43.0°F6.1°C 92% 3.0 mph E4.8 kmh E 11.0 mph17.7 kmh 30.08 in1018.6 mb 0.00 in0.0 mm 0.00 in/hr0.0 mm/hr 0.00 in0.0 mm
07:34 AM 45.1°F7.3°C 43.0°F6.1°C 92% 3.0 mph E4.8 kmh E 9.0 mph14.5 kmh 30.08 in1018.6 mb 0.00 in0.0 mm 0.00 in/hr0.0 mm/hr 0.00 in0.0 mm
07:33 AM 45.1°F7.3°C 43.0°F6.1°C 92% 3.0 mph E4.8 kmh E 9.0 mph14.5 kmh 30.08 in1018.6 mb 0.00 in0.0 mm 0.00 in/hr0.0 mm/hr 0.00 in0.0 mm
07:32 AM 45.1°F7.3°C 43.0°F6.1°C 92% 3.0 mph E4.8 kmh E 9.0 mph14.5 kmh 30.08 in1018.6 mb 0.00 in0.0 mm 0.00 in/hr0.0 mm/hr 0.00 in0.0 mm
07:31 AM 45.1°F7.3°C 43.0°F6.1°C 92% 3.0 mph E4.8 kmh E 8.0 mph12.9 kmh 30.08 in1018.6 mb 0.00 in0.0 mm 0.00 in/hr0.0 mm/hr 0.00 in0.0 mm
07:30 AM 45.1°F7.3°C 43.0°F6.1°C 92% 4.0 mph E6.4 kmh E 8.0 mph12.9 kmh 30.08 in1018.6 mb 0.00 in0.0 mm 0.00 in/hr0.0 mm/hr 0.00 in0.0 mm
07:29 AM 45.0°F7.2°C 42.8°F6.0°C 92% 4.0 mph E6.4 kmh E 10.0 mph16.1 kmh 30.08 in1018.6 mb 0.00 in0.0 mm 0.00 in/hr0.0 mm/hr 0.00 in0.0 mm
07:28 AM 45.0°F7.2°C 43.2°F6.2°C 93% 4.0 mph E6.4 kmh E 10.0 mph16.1 kmh 30.08 in1018.6 mb 0.00 in0.0 mm 0.00 in/hr0.0 mm/hr 0.00 in0.0 mm
07:27 AM 45.0°F7.2°C 43.2°F6.2°C 93% 4.0 mph E6.4 kmh E 10.0 mph16.1 kmh 30.08 in1018.6 mb 0.00 in0.0 mm 0.00 in/hr0.0 mm/hr 0.00 in0.0 mm
07:26 AM 45.0°F7.2°C 43.0°F6.1°C 93% 4.0 mph E6.4 kmh E 10.0 mph16.1 kmh 30.08 in1018.6 mb 0.00 in0.0 mm 0.00 in/hr0.0 mm/hr 0.00 in0.0 mm
07:25 AM 45.0°F7.2°C 43.0°F6.1°C 93% 4.0 mph E6.4 kmh E 10.0 mph16.1 kmh 30.08 in1018.6 mb 0.00 in0.0 mm 0.00 in/hr0.0 mm/hr 0.00 in0.0 mm
07:24 AM 45.0°F7.2°C 43.0°F6.1°C 93% 4.0 mph E6.4 kmh E 10.0 mph16.1 kmh 30.07 in1018.3 mb 0.00 in0.0 mm 0.00 in/hr0.0 mm/hr 0.00 in0.0 mm
07:23 AM 44.8°F7.1°C 43.0°F6.1°C 93% 5.0 mph E8.0 kmh E 10.0 mph16.1 kmh 30.07 in1018.3 mb 0.00 in0.0 mm 0.00 in/hr0.0 mm/hr 0.00 in0.0 mm
07:22 AM 44.8°F7.1°C 42.4°F5.8°C 92% 5.0 mph E8.0 kmh E 10.0 mph16.1 kmh 30.07 in1018.3 mb 0.00 in0.0 mm 0.00 in/hr0.0 mm/hr 0.00 in0.0 mm
07:21 AM 44.8°F7.1°C 42.4°F5.8°C 92% 5.0 mph E8.0 kmh E 10.0 mph16.1 kmh 30.07 in1018.3 mb 0.00 in0.0 mm 0.00 in/hr0.0 mm/hr 0.00 in0.0 mm
07:20 AM 44.6°F7.0°C 42.4°F5.8°C 92% 5.0 mph E8.0 kmh E 10.0 mph16.1 kmh 30.07 in1018.3 mb 0.00 in0.0 mm 0.00 in/hr0.0 mm/hr 0.00 in0.0 mm
07:19 AM 44.6°F7.0°C 42.4°F5.8°C 92% 4.0 mph E6.4 kmh E 10.0 mph16.1 kmh 30.07 in1018.3 mb 0.00 in0.0 mm 0.00 in/hr0.0 mm/hr 0.00 in0.0 mm
07:18 AM 44.6°F7.0°C 42.4°F5.8°C 92% 4.0 mph E6.4 kmh E 10.0 mph16.1 kmh 30.08 in1018.6 mb 0.00 in0.0 mm 0.00 in/hr0.0 mm/hr 0.00 in0.0 mm
07:17 AM 44.4°F6.9°C 42.3°F5.7°C 92% 4.0 mph E6.4 kmh E 10.0 mph16.1 kmh 30.08 in1018.6 mb 0.00 in0.0 mm 0.00 in/hr0.0 mm/hr 0.00 in0.0 mm
07:16 AM 44.4°F6.9°C 42.3°F5.7°C 92% 4.0 mph E6.4 kmh E 10.0 mph16.1 kmh 30.08 in1018.6 mb 0.00 in0.0 mm 0.00 in/hr0.0 mm/hr 0.00 in0.0 mm
07:15 AM 44.4°F6.9°C 42.3°F5.7°C 92% 5.0 mph E8.0 kmh E 10.0 mph16.1 kmh 30.08 in1018.6 mb 0.00 in0.0 mm 0.00 in/hr0.0 mm/hr 0.00 in0.0 mm
07:14 AM 44.4°F6.9°C 42.3°F5.7°C 92% 5.0 mph E8.0 kmh E 10.0 mph16.1 kmh 30.08 in1018.6 mb 0.00 in0.0 mm 0.00 in/hr0.0 mm/hr 0.00 in0.0 mm
07:13 AM 44.4°F6.9°C 42.3°F5.7°C 92% 5.0 mph E8.0 kmh E 10.0 mph16.1 kmh 30.08 in1018.6 mb 0.00 in0.0 mm 0.00 in/hr0.0 mm/hr 0.00 in0.0 mm
07:12 AM 44.4°F6.9°C 42.3°F5.7°C 92% 5.0 mph E8.0 kmh E 10.0 mph16.1 kmh 30.08 in1018.6 mb 0.00 in0.0 mm 0.00 in/hr0.0 mm/hr 0.00 in0.0 mm
07:11 AM 44.4°F6.9°C 42.3°F5.7°C 92% 5.0 mph ENE8.0 kmh ENE 10.0 mph16.1 kmh 30.08 in1018.6 mb 0.00 in0.0 mm 0.00 in/hr0.0 mm/hr 0.00 in0.0 mm
07:10 AM 44.2°F6.8°C 42.4°F5.8°C 93% 5.0 mph E8.0 kmh E 10.0 mph16.1 kmh 30.08 in1018.6 mb 0.00 in0.0 mm 0.00 in/hr0.0 mm/hr 0.00 in0.0 mm
07:09 AM 44.2°F6.8°C 42.4°F5.8°C 93% 5.0 mph ENE8.0 kmh ENE 10.0 mph16.1 kmh 30.08 in1018.6 mb 0.00 in0.0 mm 0.00 in/hr0.0 mm/hr 0.00 in0.0 mm
07:08 AM 44.2°F6.8°C 42.4°F5.8°C 93% 5.0 mph ENE8.0 kmh ENE 10.0 mph16.1 kmh 30.08 in1018.6 mb 0.00 in0.0 mm 0.00 in/hr0.0 mm/hr 0.00 in0.0 mm
07:07 AM 44.2°F6.8°C 42.3°F5.7°C 93% 5.0 mph ENE8.0 kmh ENE 10.0 mph16.1 kmh 30.08 in1018.6 mb 0.00 in0.0 mm 0.00 in/hr0.0 mm/hr 0.00 in0.0 mm
07:06 AM 44.2°F6.8°C 42.3°F5.7°C 93% 4.0 mph ENE6.4 kmh ENE 10.0 mph16.1 kmh 30.07 in1018.3 mb 0.00 in0.0 mm 0.00 in/hr0.0 mm/hr 0.00 in0.0 mm
07:05 AM 44.2°F6.8°C 42.3°F5.7°C 93% 4.0 mph ENE6.4 kmh ENE 10.0 mph16.1 kmh 30.08 in1018.6 mb 0.00 in0.0 mm 0.00 in/hr0.0 mm/hr 0.00 in0.0 mm
07:04 AM 44.1°F6.7°C 42.3°F5.7°C 93% 4.0 mph ENE6.4 kmh ENE 10.0 mph16.1 kmh 30.07 in1018.3 mb 0.00 in0.0 mm 0.00 in/hr0.0 mm/hr 0.00 in0.0 mm
07:03 AM 44.1°F6.7°C 41.9°F5.5°C 92% 4.0 mph E6.4 kmh E 9.0 mph14.5 kmh 30.07 in1018.3 mb 0.00 in0.0 mm 0.00 in/hr0.0 mm/hr 0.00 in0.0 mm
07:02 AM 44.1°F6.7°C 41.9°F5.5°C 92% 4.0 mph E6.4 kmh E 8.0 mph12.9 kmh 30.07 in1018.3 mb 0.00 in0.0 mm 0.00 in/hr0.0 mm/hr 0.00 in0.0 mm
07:01 AM 44.1°F6.7°C 41.9°F5.5°C 92% 3.0 mph E4.8 kmh E 8.0 mph12.9 kmh 30.07 in1018.3 mb 0.00 in0.0 mm 0.00 in/hr0.0 mm/hr 0.00 in0.0 mm
07:00 AM 43.9°F6.6°C 41.7°F5.4°C 92% 3.0 mph E4.8 kmh E 8.0 mph12.9 kmh 30.07 in1018.3 mb 0.00 in0.0 mm 0.00 in/hr0.0 mm/hr 0.00 in0.0 mm
06:59 AM 43.9°F6.6°C 41.7°F5.4°C 92% 3.0 mph E4.8 kmh E 8.0 mph12.9 kmh 30.07 in1018.3 mb 0.00 in0.0 mm 0.00 in/hr0.0 mm/hr 0.00 in0.0 mm
06:58 AM 43.9°F6.6°C 41.5°F5.3°C 92% 4.0 mph E6.4 kmh E 8.0 mph12.9 kmh 30.07 in1018.3 mb 0.00 in0.0 mm 0.00 in/hr0.0 mm/hr 0.00 in0.0 mm
06:57 AM 43.9°F6.6°C 41.5°F5.3°C 92% 4.0 mph E6.4 kmh E 9.0 mph14.5 kmh 30.07 in1018.3 mb 0.00 in0.0 mm 0.00 in/hr0.0 mm/hr 0.00 in0.0 mm
06:56 AM 43.9°F6.6°C 41.5°F5.3°C 92% 4.0 mph E6.4 kmh E 9.0 mph14.5 kmh 30.07 in1018.3 mb 0.00 in0.0 mm 0.00 in/hr0.0 mm/hr 0.00 in0.0 mm
06:55 AM 43.7°F6.5°C 41.5°F5.3°C 92% 4.0 mph E6.4 kmh E 9.0 mph14.5 kmh 30.07 in1018.3 mb 0.00 in0.0 mm 0.00 in/hr0.0 mm/hr 0.00 in0.0 mm
06:54 AM 43.7°F6.5°C 41.5°F5.3°C 92% 4.0 mph E6.4 kmh E 9.0 mph14.5 kmh 30.07 in1018.3 mb 0.00 in0.0 mm 0.00 in/hr0.0 mm/hr 0.00 in0.0 mm
06:53 AM 43.7°F6.5°C 41.5°F5.3°C 92% 4.0 mph E6.4 kmh E 9.0 mph14.5 kmh 30.07 in1018.3 mb 0.00 in0.0 mm 0.00 in/hr0.0 mm/hr 0.00 in0.0 mm
06:52 AM 43.7°F6.5°C 41.5°F5.3°C 92% 5.0 mph ENE8.0 kmh ENE 9.0 mph14.5 kmh 30.07 in1018.3 mb 0.00 in0.0 mm 0.00 in/hr0.0 mm/hr 0.00 in0.0 mm
06:51 AM 43.7°F6.5°C 41.5°F5.3°C 92% 5.0 mph ENE8.0 kmh ENE 9.0 mph14.5 kmh 30.07 in1018.3 mb 0.00 in0.0 mm 0.00 in/hr0.0 mm/hr 0.00 in0.0 mm
06:50 AM 43.5°F6.4°C 41.4°F5.2°C 92% 5.0 mph ENE8.0 kmh ENE 9.0 mph14.5 kmh 30.07 in1018.3 mb 0.00 in0.0 mm 0.00 in/hr0.0 mm/hr 0.00 in0.0 mm
06:49 AM 43.5°F6.4°C 41.4°F5.2°C 92% 5.0 mph ENE8.0 kmh ENE 9.0 mph14.5 kmh 30.07 in1018.3 mb 0.00 in0.0 mm 0.00 in/hr0.0 mm/hr 0.00 in0.0 mm
06:48 AM 43.5°F6.4°C 41.4°F5.2°C 92% 5.0 mph ENE8.0 kmh ENE 9.0 mph14.5 kmh 30.07 in1018.3 mb 0.00 in0.0 mm 0.00 in/hr0.0 mm/hr 0.00 in0.0 mm
06:47 AM 43.5°F6.4°C 41.4°F5.2°C 92% 5.0 mph ENE8.0 kmh ENE 9.0 mph14.5 kmh 30.07 in1018.3 mb 0.00 in0.0 mm 0.00 in/hr0.0 mm/hr 0.00 in0.0 mm
06:46 AM 43.5°F6.4°C 41.4°F5.2°C 92% 4.0 mph ENE6.4 kmh ENE 9.0 mph14.5 kmh 30.07 in1018.3 mb 0.00 in0.0 mm 0.00 in/hr0.0 mm/hr 0.00 in0.0 mm
06:45 AM 43.5°F6.4°C 41.4°F5.2°C 92% 5.0 mph ENE8.0 kmh ENE 9.0 mph14.5 kmh 30.07 in1018.3 mb 0.00 in0.0 mm 0.00 in/hr0.0 mm/hr 0.00 in0.0 mm
06:44 AM 43.5°F6.4°C 41.4°F5.2°C 92% 5.0 mph ENE8.0 kmh ENE 9.0 mph14.5 kmh 30.07 in1018.3 mb 0.00 in0.0 mm 0.00 in/hr0.0 mm/hr 0.00 in0.0 mm
06:43 AM 43.3°F6.3°C 41.2°F5.1°C 92% 5.0 mph ENE8.0 kmh ENE 9.0 mph14.5 kmh 30.07 in1018.3 mb 0.00 in0.0 mm 0.00 in/hr0.0 mm/hr 0.00 in0.0 mm
06:42 AM 43.3°F6.3°C 41.2°F5.1°C 92% 4.0 mph ENE6.4 kmh ENE 9.0 mph14.5 kmh 30.07 in1018.3 mb 0.00 in0.0 mm 0.00 in/hr0.0 mm/hr 0.00 in0.0 mm
06:41 AM 43.3°F6.3°C 41.2°F5.1°C 92% 5.0 mph ENE8.0 kmh ENE 9.0 mph14.5 kmh 30.07 in1018.3 mb 0.00 in0.0 mm 0.00 in/hr0.0 mm/hr 0.00 in0.0 mm
06:40 AM 43.3°F6.3°C 41.2°F5.1°C 92% 5.0 mph ENE8.0 kmh ENE 9.0 mph14.5 kmh 30.07 in1018.3 mb 0.00 in0.0 mm 0.00 in/hr0.0 mm/hr 0.00 in0.0 mm
06:39 AM 43.3°F6.3°C 41.2°F5.1°C 92% 4.0 mph ENE6.4 kmh ENE 9.0 mph14.5 kmh 30.07 in1018.3 mb 0.00 in0.0 mm 0.00 in/hr0.0 mm/hr 0.00 in0.0 mm
06:38 AM 43.3°F6.3°C 41.2°F5.1°C 92% 4.0 mph ENE6.4 kmh ENE 9.0 mph14.5 kmh 30.07 in1018.3 mb 0.00 in0.0 mm 0.00 in/hr0.0 mm/hr 0.00 in0.0 mm
06:37 AM 43.3°F6.3°C 41.2°F5.1°C 92% 4.0 mph ENE6.4 kmh ENE 9.0 mph14.5 kmh 30.07 in1018.3 mb 0.00 in0.0 mm 0.00 in/hr0.0 mm/hr 0.00 in0.0 mm
06:36 AM 43.2°F6.2°C 41.0°F5.0°C 92% 4.0 mph ENE6.4 kmh ENE 9.0 mph14.5 kmh 30.07 in1018.3 mb 0.00 in0.0 mm 0.00 in/hr0.0 mm/hr 0.00 in0.0 mm
06:35 AM 43.2°F6.2°C 41.0°F5.0°C 92% 4.0 mph ENE6.4 kmh ENE 9.0 mph14.5 kmh 30.07 in1018.3 mb 0.00 in0.0 mm 0.00 in/hr0.0 mm/hr 0.00 in0.0 mm
06:34 AM 43.2°F6.2°C 41.0°F5.0°C 92% 4.0 mph ENE6.4 kmh ENE 9.0 mph14.5 kmh 30.07 in1018.3 mb 0.00 in0.0 mm 0.00 in/hr0.0 mm/hr 0.00 in0.0 mm
06:33 AM 43.2°F6.2°C 41.0°F5.0°C 92% 4.0 mph ENE6.4 kmh ENE 9.0 mph14.5 kmh 30.07 in1018.3 mb 0.00 in0.0 mm 0.00 in/hr0.0 mm/hr 0.00 in0.0 mm
06:32 AM 43.2°F6.2°C 41.0°F5.0°C 92% 4.0 mph ENE6.4 kmh ENE 9.0 mph14.5 kmh 30.07 in1018.3 mb 0.00 in0.0 mm 0.00 in/hr0.0 mm/hr 0.00 in0.0 mm
06:31 AM 43.2°F6.2°C 41.0°F5.0°C 92% 4.0 mph ENE6.4 kmh ENE 9.0 mph14.5 kmh 30.07 in1018.3 mb 0.00 in0.0 mm 0.00 in/hr0.0 mm/hr 0.00 in0.0 mm
06:30 AM 43.2°F6.2°C 41.0°F5.0°C 92% 3.0 mph ENE4.8 kmh ENE 9.0 mph14.5 kmh 30.07 in1018.3 mb 0.00 in0.0 mm 0.00 in/hr0.0 mm/hr 0.00 in0.0 mm
06:29 AM 43.2°F6.2°C 41.0°F5.0°C 92% 4.0 mph E6.4 kmh E 9.0 mph14.5 kmh 30.07 in1018.3 mb 0.00 in0.0 mm 0.00 in/hr0.0 mm/hr 0.00 in0.0 mm
06:28 AM 43.2°F6.2°C 41.0°F5.0°C 92% 4.0 mph E6.4 kmh E 9.0 mph14.5 kmh 30.07 in1018.3 mb 0.00 in0.0 mm 0.00 in/hr0.0 mm/hr 0.00 in0.0 mm
06:27 AM 43.2°F6.2°C 41.0°F5.0°C 92% 4.0 mph E6.4 kmh E 9.0 mph14.5 kmh 30.07 in1018.3 mb 0.00 in0.0 mm 0.00 in/hr0.0 mm/hr 0.00 in0.0 mm
06:26 AM 43.2°F6.2°C 41.0°F5.0°C 92% 4.0 mph E6.4 kmh E 9.0 mph14.5 kmh 30.07 in1018.3 mb 0.00 in0.0 mm 0.00 in/hr0.0 mm/hr 0.00 in0.0 mm
06:25 AM 43.2°F6.2°C 41.0°F5.0°C 92% 4.0 mph E6.4 kmh E 9.0 mph14.5 kmh 30.07 in1018.3 mb 0.00 in0.0 mm 0.00 in/hr0.0 mm/hr 0.00 in0.0 mm
06:24 AM 43.2°F6.2°C 41.0°F5.0°C 92% 4.0 mph ENE6.4 kmh ENE 9.0 mph14.5 kmh 30.07 in1018.3 mb 0.00 in0.0 mm 0.00 in/hr0.0 mm/hr 0.00 in0.0 mm
06:23 AM 43.2°F6.2°C 41.0°F5.0°C 92% 4.0 mph E6.4 kmh E 9.0 mph14.5 kmh 30.07 in1018.3 mb 0.00 in0.0 mm 0.00 in/hr0.0 mm/hr 0.00 in0.0 mm
06:22 AM 43.2°F6.2°C 41.0°F5.0°C 92% 4.0 mph ENE6.4 kmh ENE 9.0 mph14.5 kmh 30.07 in1018.3 mb 0.00 in0.0 mm 0.00 in/hr0.0 mm/hr 0.00 in0.0 mm
06:21 AM 43.2°F6.2°C 41.0°F5.0°C 92% 5.0 mph ENE8.0 kmh ENE 9.0 mph14.5 kmh 30.07 in1018.3 mb 0.00 in0.0 mm 0.00 in/hr0.0 mm/hr 0.00 in0.0 mm
06:20 AM 43.2°F6.2°C 41.0°F5.0°C 92% 5.0 mph ENE8.0 kmh ENE 9.0 mph14.5 kmh 30.07 in1018.3 mb 0.00 in0.0 mm 0.00 in/hr0.0 mm/hr 0.00 in0.0 mm
06:19 AM 43.2°F6.2°C 41.0°F5.0°C 92% 5.0 mph ENE8.0 kmh ENE 9.0 mph14.5 kmh 30.07 in1018.3 mb 0.00 in0.0 mm 0.00 in/hr0.0 mm/hr 0.00 in0.0 mm
06:18 AM 43.2°F6.2°C 41.0°F5.0°C 92% 5.0 mph ENE8.0 kmh ENE 9.0 mph14.5 kmh 30.06 in1017.9 mb 0.00 in0.0 mm 0.00 in/hr0.0 mm/hr 0.00 in0.0 mm
06:17 AM 43.2°F6.2°C 41.0°F5.0°C 92% 4.0 mph ENE6.4 kmh ENE 9.0 mph14.5 kmh 30.07 in1018.3 mb 0.00 in0.0 mm 0.00 in/hr0.0 mm/hr 0.00 in0.0 mm
06:16 AM 43.2°F6.2°C 41.0°F5.0°C 92% 5.0 mph ENE8.0 kmh ENE 9.0 mph14.5 kmh 30.07 in1018.3 mb 0.00 in0.0 mm 0.00 in/hr0.0 mm/hr 0.00 in0.0 mm
06:15 AM 43.2°F6.2°C 41.0°F5.0°C 92% 5.0 mph ENE8.0 kmh ENE 9.0 mph14.5 kmh 30.06 in1017.9 mb 0.00 in0.0 mm 0.00 in/hr0.0 mm/hr 0.00 in0.0 mm
06:14 AM 43.2°F6.2°C 41.0°F5.0°C 92% 5.0 mph ENE8.0 kmh ENE 9.0 mph14.5 kmh 30.06 in1017.9 mb 0.00 in0.0 mm 0.00 in/hr0.0 mm/hr 0.00 in0.0 mm
06:13 AM 43.2°F6.2°C 41.0°F5.0°C 92% 5.0 mph ENE8.0 kmh ENE 9.0 mph14.5 kmh 30.06 in1017.9 mb 0.00 in0.0 mm 0.00 in/hr0.0 mm/hr 0.00 in0.0 mm
06:12 AM 43.2°F6.2°C 41.0°F5.0°C 92% 5.0 mph ENE8.0 kmh ENE 9.0 mph14.5 kmh 30.06 in1017.9 mb 0.00 in0.0 mm 0.00 in/hr0.0 mm/hr 0.00 in0.0 mm
06:11 AM 43.2°F6.2°C 41.0°F5.0°C 92% 5.0 mph ENE8.0 kmh ENE 9.0 mph14.5 kmh 30.06 in1017.9 mb 0.00 in0.0 mm 0.00 in/hr0.0 mm/hr 0.00 in0.0 mm
06:10 AM 43.2°F6.2°C 41.0°F5.0°C 92% 4.0 mph ENE6.4 kmh ENE 9.0 mph14.5 kmh 30.06 in1017.9 mb 0.00 in0.0 mm 0.00 in/hr0.0 mm/hr 0.00 in0.0 mm
06:09 AM 43.2°F6.2°C 41.0°F5.0°C 92% 4.0 mph ENE6.4 kmh ENE 9.0 mph14.5 kmh 30.06 in1017.9 mb 0.00 in0.0 mm 0.00 in/hr0.0 mm/hr 0.00 in0.0 mm
06:08 AM 43.2°F6.2°C 41.0°F5.0°C 92% 4.0 mph ENE6.4 kmh ENE 9.0 mph14.5 kmh 30.06 in1017.9 mb 0.00 in0.0 mm 0.00 in/hr0.0 mm/hr 0.00 in0.0 mm
06:07 AM 43.2°F6.2°C 41.0°F5.0°C 92% 4.0 mph ENE6.4 kmh ENE 9.0 mph14.5 kmh 30.06 in1017.9 mb 0.00 in0.0 mm 0.00 in/hr0.0 mm/hr 0.00 in0.0 mm
06:06 AM 43.2°F6.2°C 41.0°F5.0°C 92% 4.0 mph ENE6.4 kmh ENE 9.0 mph14.5 kmh 30.06 in1017.9 mb 0.00 in0.0 mm 0.00 in/hr0.0 mm/hr 0.00 in0.0 mm
06:05 AM 43.3°F6.3°C 41.2°F5.1°C 92% 4.0 mph ENE6.4 kmh ENE 9.0 mph14.5 kmh 30.06 in1017.9 mb 0.00 in0.0 mm 0.00 in/hr0.0 mm/hr 0.00 in0.0 mm
06:04 AM 43.3°F6.3°C 41.2°F5.1°C 92% 4.0 mph ENE6.4 kmh ENE 9.0 mph14.5 kmh 30.06 in1017.9 mb 0.00 in0.0 mm 0.00 in/hr0.0 mm/hr 0.00 in0.0 mm
06:03 AM 43.2°F6.2°C 41.0°F5.0°C 92% 4.0 mph ENE6.4 kmh ENE 9.0 mph14.5 kmh 30.06 in1017.9 mb 0.00 in0.0 mm 0.00 in/hr0.0 mm/hr 0.00 in0.0 mm
06:02 AM 43.3°F6.3°C 41.2°F5.1°C 92% 4.0 mph ENE6.4 kmh ENE 9.0 mph14.5 kmh 30.06 in1017.9 mb 0.00 in0.0 mm 0.00 in/hr0.0 mm/hr 0.00 in0.0 mm
06:01 AM 43.3°F6.3°C 41.2°F5.1°C 92% 4.0 mph ENE6.4 kmh ENE 9.0 mph14.5 kmh 30.06 in1017.9 mb 0.00 in0.0 mm 0.00 in/hr0.0 mm/hr 0.00 in0.0 mm
06:00 AM 43.3°F6.3°C 41.2°F5.1°C 92% 4.0 mph ENE6.4 kmh ENE 9.0 mph14.5 kmh 30.06 in1017.9 mb 0.00 in0.0 mm 0.00 in/hr0.0 mm/hr 0.00 in0.0 mm
05:59 AM 43.3°F6.3°C 41.2°F5.1°C 92% 4.0 mph ENE6.4 kmh ENE 9.0 mph14.5 kmh 30.06 in1017.9 mb 0.00 in0.0 mm 0.00 in/hr0.0 mm/hr 0.00 in0.0 mm
05:58 AM 43.3°F6.3°C 41.2°F5.1°C 92% 4.0 mph ENE6.4 kmh ENE 10.0 mph16.1 kmh 30.06 in1017.9 mb 0.00 in0.0 mm 0.00 in/hr0.0 mm/hr 0.00 in0.0 mm
05:57 AM 43.3°F6.3°C 41.2°F5.1°C 92% 5.0 mph ENE8.0 kmh ENE 10.0 mph16.1 kmh 30.06 in1017.9 mb 0.00 in0.0 mm 0.00 in/hr0.0 mm/hr 0.00 in0.0 mm
05:56 AM 43.3°F6.3°C 41.2°F5.1°C 92% 5.0 mph ENE8.0 kmh ENE 10.0 mph16.1 kmh 30.06 in1017.9 mb 0.00 in0.0 mm 0.00 in/hr0.0 mm/hr 0.00 in0.0 mm
05:55 AM 43.3°F6.3°C 41.2°F5.1°C 92% 6.0 mph ENE9.7 kmh ENE 11.0 mph17.7 kmh 30.06 in1017.9 mb 0.00 in0.0 mm 0.00 in/hr0.0 mm/hr 0.00 in0.0 mm
05:54 AM 43.3°F6.3°C 41.2°F5.1°C 92% 6.0 mph ENE9.7 kmh ENE 11.0 mph17.7 kmh 30.06 in1017.9 mb 0.00 in0.0 mm 0.00 in/hr0.0 mm/hr 0.00 in0.0 mm
05:53 AM 43.3°F6.3°C 41.2°F5.1°C 92% 6.0 mph ENE9.7 kmh ENE 11.0 mph17.7 kmh 30.06 in1017.9 mb 0.00 in0.0 mm 0.00 in/hr0.0 mm/hr 0.00 in0.0 mm
05:52 AM 43.3°F6.3°C 41.2°F5.1°C 92% 6.0 mph ENE9.7 kmh ENE 11.0 mph17.7 kmh 30.06 in1017.9 mb 0.00 in0.0 mm 0.00 in/hr0.0 mm/hr 0.00 in0.0 mm
05:51 AM 43.3°F6.3°C 41.2°F5.1°C 92% 6.0 mph ENE9.7 kmh ENE 11.0 mph17.7 kmh 30.06 in1017.9 mb 0.00 in0.0 mm 0.00 in/hr0.0 mm/hr 0.00 in0.0 mm
05:50 AM 43.3°F6.3°C 41.2°F5.1°C 92% 6.0 mph ENE9.7 kmh ENE 11.0 mph17.7 kmh 30.06 in1017.9 mb 0.00 in0.0 mm 0.00 in/hr0.0 mm/hr 0.00 in0.0 mm
05:49 AM 43.3°F6.3°C 41.2°F5.1°C 92% 6.0 mph ENE9.7 kmh ENE 12.0 mph19.3 kmh 30.05 in1017.6 mb 0.00 in0.0 mm 0.00 in/hr0.0 mm/hr 0.00 in0.0 mm
05:48 AM 43.3°F6.3°C 41.2°F5.1°C 92% 6.0 mph ENE9.7 kmh ENE 12.0 mph19.3 kmh 30.05 in1017.6 mb 0.00 in0.0 mm 0.00 in/hr0.0 mm/hr 0.00 in0.0 mm
05:47 AM 43.3°F6.3°C 40.8°F4.9°C 91% 6.0 mph ENE9.7 kmh ENE 12.0 mph19.3 kmh 30.05 in1017.6 mb 0.00 in0.0 mm 0.00 in/hr0.0 mm/hr 0.00 in0.0 mm
05:46 AM 43.3°F6.3°C 41.0°F5.0°C 91% 6.0 mph ENE9.7 kmh ENE 12.0 mph19.3 kmh 30.05 in1017.6 mb 0.00 in0.0 mm 0.00 in/hr0.0 mm/hr 0.00 in0.0 mm
05:45 AM 43.3°F6.3°C 41.0°F5.0°C 91% 6.0 mph ENE9.7 kmh ENE 12.0 mph19.3 kmh 30.05 in1017.6 mb 0.00 in0.0 mm 0.00 in/hr0.0 mm/hr 0.00 in0.0 mm
05:44 AM 43.3°F6.3°C 41.0°F5.0°C 91% 5.0 mph ENE8.0 kmh ENE 12.0 mph19.3 kmh 30.05 in1017.6 mb 0.00 in0.0 mm 0.00 in/hr0.0 mm/hr 0.00 in0.0 mm
05:43 AM 43.3°F6.3°C 41.0°F5.0°C 91% 6.0 mph ENE9.7 kmh ENE 12.0 mph19.3 kmh 30.05 in1017.6 mb 0.00 in0.0 mm 0.00 in/hr0.0 mm/hr 0.00 in0.0 mm
05:42 AM 43.3°F6.3°C 41.0°F5.0°C 91% 6.0 mph ENE9.7 kmh ENE 12.0 mph19.3 kmh 30.05 in1017.6 mb 0.00 in0.0 mm 0.00 in/hr0.0 mm/hr 0.00 in0.0 mm
05:41 AM 43.3°F6.3°C 41.0°F5.0°C 91% 6.0 mph ENE9.7 kmh ENE 12.0 mph19.3 kmh 30.05 in1017.6 mb 0.00 in0.0 mm 0.00 in/hr0.0 mm/hr 0.00 in0.0 mm
05:40 AM 43.3°F6.3°C 41.0°F5.0°C 91% 6.0 mph ENE9.7 kmh ENE 12.0 mph19.3 kmh 30.05 in1017.6 mb 0.00 in0.0 mm 0.00 in/hr0.0 mm/hr 0.00 in0.0 mm
05:39 AM 43.3°F6.3°C 41.0°F5.0°C 91% 6.0 mph ENE9.7 kmh ENE 10.0 mph16.1 kmh 30.05 in1017.6 mb 0.00 in0.0 mm 0.00 in/hr0.0 mm/hr 0.00 in0.0 mm
05:38 AM 43.3°F6.3°C 41.0°F5.0°C 91% 6.0 mph ENE9.7 kmh ENE 10.0 mph16.1 kmh 30.05 in1017.6 mb 0.00 in0.0 mm 0.00 in/hr0.0 mm/hr 0.00 in0.0 mm
05:37 AM 43.3°F6.3°C 41.0°F5.0°C 91% 5.0 mph ENE8.0 kmh ENE 10.0 mph16.1 kmh 30.05 in1017.6 mb 0.00 in0.0 mm 0.00 in/hr0.0 mm/hr 0.00 in0.0 mm
05:36 AM 43.3°F6.3°C 41.0°F5.0°C 91% 5.0 mph ENE8.0 kmh ENE 10.0 mph16.1 kmh 30.05 in1017.6 mb 0.00 in0.0 mm 0.00 in/hr0.0 mm/hr 0.00 in0.0 mm
05:35 AM 43.3°F6.3°C 41.0°F5.0°C 91% 6.0 mph ENE9.7 kmh ENE 10.0 mph16.1 kmh 30.05 in1017.6 mb 0.00 in0.0 mm 0.00 in/hr0.0 mm/hr 0.00 in0.0 mm
05:34 AM 43.3°F6.3°C 41.0°F5.0°C 91% 6.0 mph ENE9.7 kmh ENE 11.0 mph17.7 kmh 30.05 in1017.6 mb 0.00 in0.0 mm 0.00 in/hr0.0 mm/hr 0.00 in0.0 mm
05:33 AM 43.3°F6.3°C 41.0°F5.0°C 91% 5.0 mph ENE8.0 kmh ENE 11.0 mph17.7 kmh 30.05 in1017.6 mb 0.00 in0.0 mm 0.00 in/hr0.0 mm/hr 0.00 in0.0 mm
05:32 AM 43.5°F6.4°C 41.0°F5.0°C 91% 5.0 mph ENE8.0 kmh ENE 11.0 mph17.7 kmh 30.05 in1017.6 mb 0.00 in0.0 mm 0.00 in/hr0.0 mm/hr 0.00 in0.0 mm
05:31 AM 43.5°F6.4°C 41.0°F5.0°C 91% 5.0 mph ENE8.0 kmh ENE 11.0 mph17.7 kmh 30.05 in1017.6 mb 0.00 in0.0 mm 0.00 in/hr0.0 mm/hr 0.00 in0.0 mm
05:30 AM 43.5°F6.4°C 41.0°F5.0°C 91% 5.0 mph NE8.0 kmh NE 11.0 mph17.7 kmh 30.05 in1017.6 mb 0.00 in0.0 mm 0.00 in/hr0.0 mm/hr 0.00 in0.0 mm
05:29 AM 43.5°F6.4°C 41.0°F5.0°C 91% 5.0 mph NE8.0 kmh NE 11.0 mph17.7 kmh 30.05 in1017.6 mb 0.00 in0.0 mm 0.00 in/hr0.0 mm/hr 0.00 in0.0 mm
05:28 AM 43.5°F6.4°C 41.0°F5.0°C 91% 5.0 mph NE8.0 kmh NE 11.0 mph17.7 kmh 30.05 in1017.6 mb 0.00 in0.0 mm 0.00 in/hr0.0 mm/hr 0.00 in0.0 mm
05:27 AM 43.5°F6.4°C 41.0°F5.0°C 91% 5.0 mph NE8.0 kmh NE 11.0 mph17.7 kmh 30.04 in1017.3 mb 0.00 in0.0 mm 0.00 in/hr0.0 mm/hr 0.00 in0.0 mm
05:26 AM 43.5°F6.4°C 41.0°F5.0°C 91% 5.0 mph NE8.0 kmh NE 11.0 mph17.7 kmh 30.04 in1017.3 mb 0.00 in0.0 mm 0.00 in/hr0.0 mm/hr 0.00 in0.0 mm
05:25 AM 43.5°F6.4°C 41.0°F5.0°C 91% 5.0 mph NE8.0 kmh NE 11.0 mph17.7 kmh 30.04 in1017.3 mb 0.00 in0.0 mm 0.00 in/hr0.0 mm/hr 0.00 in0.0 mm
05:24 AM 43.5°F6.4°C 41.0°F5.0°C 91% 5.0 mph NE8.0 kmh NE 9.0 mph14.5 kmh 30.04 in1017.3 mb 0.00 in0.0 mm 0.00 in/hr0.0 mm/hr 0.00 in0.0 mm
05:23 AM 43.5°F6.4°C 41.0°F5.0°C 91% 5.0 mph NE8.0 kmh NE 9.0 mph14.5 kmh 30.04 in1017.3 mb 0.00 in0.0 mm 0.00 in/hr0.0 mm/hr 0.00 in0.0 mm
05:22 AM 43.5°F6.4°C 41.2°F5.1°C 91% 5.0 mph NE8.0 kmh NE 9.0 mph14.5 kmh 30.04 in1017.3 mb 0.00 in0.0 mm 0.00 in/hr0.0 mm/hr 0.00 in0.0 mm
05:21 AM 43.5°F6.4°C 41.2°F5.1°C 91% 4.0 mph NE6.4 kmh NE 9.0 mph14.5 kmh 30.04 in1017.3 mb 0.00 in0.0 mm 0.00 in/hr0.0 mm/hr 0.00 in0.0 mm
05:20 AM 43.5°F6.4°C 41.2°F5.1°C 91% 4.0 mph NE6.4 kmh NE 8.0 mph12.9 kmh 30.04 in1017.3 mb 0.00 in0.0 mm 0.00 in/hr0.0 mm/hr 0.00 in0.0 mm
05:19 AM 43.5°F6.4°C 41.2°F5.1°C 91% 4.0 mph NE6.4 kmh NE 8.0 mph12.9 kmh 30.04 in1017.3 mb 0.00 in0.0 mm 0.00 in/hr0.0 mm/hr 0.00 in0.0 mm
05:18 AM 43.5°F6.4°C 41.2°F5.1°C 91% 4.0 mph NE6.4 kmh NE 8.0 mph12.9 kmh 30.04 in1017.3 mb 0.00 in0.0 mm 0.00 in/hr0.0 mm/hr 0.00 in0.0 mm
05:17 AM 43.5°F6.4°C 41.2°F5.1°C 91% 4.0 mph NE6.4 kmh NE 8.0 mph12.9 kmh 30.04 in1017.3 mb 0.00 in0.0 mm 0.00 in/hr0.0 mm/hr 0.00 in0.0 mm
05:16 AM 43.5°F6.4°C 41.2°F5.1°C 91% 4.0 mph NE6.4 kmh NE 8.0 mph12.9 kmh 30.04 in1017.3 mb 0.00 in0.0 mm 0.00 in/hr0.0 mm/hr 0.00 in0.0 mm
05:15 AM 43.7°F6.5°C 41.2°F5.1°C 91% 4.0 mph NE6.4 kmh NE 8.0 mph12.9 kmh 30.04 in1017.3 mb 0.00 in0.0 mm 0.00 in/hr0.0 mm/hr 0.00 in0.0 mm
05:14 AM 43.7°F6.5°C 41.2°F5.1°C 91% 5.0 mph NE8.0 kmh NE 8.0 mph12.9 kmh 30.04 in1017.3 mb 0.00 in0.0 mm 0.00 in/hr0.0 mm/hr 0.00 in0.0 mm
05:13 AM 43.7°F6.5°C 41.2°F5.1°C 91% 5.0 mph NE8.0 kmh NE 10.0 mph16.1 kmh 30.04 in1017.3 mb 0.00 in0.0 mm 0.00 in/hr0.0 mm/hr 0.00 in0.0 mm
05:12 AM 43.7°F6.5°C 41.2°F5.1°C 91% 5.0 mph NE8.0 kmh NE 10.0 mph16.1 kmh 30.04 in1017.3 mb 0.00 in0.0 mm 0.00 in/hr0.0 mm/hr 0.00 in0.0 mm
05:11 AM 43.7°F6.5°C 41.2°F5.1°C 91% 5.0 mph NE8.0 kmh NE 11.0 mph17.7 kmh 30.04 in1017.3 mb 0.00 in0.0 mm 0.00 in/hr0.0 mm/hr 0.00 in0.0 mm
05:10 AM 43.7°F6.5°C 41.2°F5.1°C 91% 5.0 mph NE8.0 kmh NE 11.0 mph17.7 kmh 30.04 in1017.3 mb 0.00 in0.0 mm 0.00 in/hr0.0 mm/hr 0.00 in0.0 mm
05:09 AM 43.7°F6.5°C 41.2°F5.1°C 91% 5.0 mph NE8.0 kmh NE 11.0 mph17.7 kmh 30.04 in1017.3 mb 0.00 in0.0 mm 0.00 in/hr0.0 mm/hr 0.00 in0.0 mm
05:08 AM 43.7°F6.5°C 41.2°F5.1°C 91% 5.0 mph NE8.0 kmh NE 11.0 mph17.7 kmh 30.04 in1017.3 mb 0.00 in0.0 mm 0.00 in/hr0.0 mm/hr 0.00 in0.0 mm
05:07 AM 43.9°F6.6°C 41.0°F5.0°C 90% 5.0 mph NE8.0 kmh NE 11.0 mph17.7 kmh 30.04 in1017.3 mb 0.00 in0.0 mm 0.00 in/hr0.0 mm/hr 0.00 in0.0 mm
05:06 AM 43.9°F6.6°C 41.4°F5.2°C 91% 5.0 mph NE8.0 kmh NE 11.0 mph17.7 kmh 30.04 in1017.3 mb 0.00 in0.0 mm 0.00 in/hr0.0 mm/hr 0.00 in0.0 mm
05:05 AM 43.9°F6.6°C 41.4°F5.2°C 91% 5.0 mph NE8.0 kmh NE 11.0 mph17.7 kmh 30.04 in1017.3 mb 0.00 in0.0 mm 0.00 in/hr0.0 mm/hr 0.00 in0.0 mm
05:04 AM 43.9°F6.6°C 41.4°F5.2°C 91% 5.0 mph NE8.0 kmh NE 11.0 mph17.7 kmh 30.03 in1016.9 mb 0.00 in0.0 mm 0.00 in/hr0.0 mm/hr 0.00 in0.0 mm
05:03 AM 43.9°F6.6°C 41.4°F5.2°C 91% 6.0 mph NE9.7 kmh NE 12.0 mph19.3 kmh 30.04 in1017.3 mb 0.00 in0.0 mm 0.00 in/hr0.0 mm/hr 0.00 in0.0 mm
05:02 AM 43.9°F6.6°C 41.4°F5.2°C 91% 6.0 mph NE9.7 kmh NE 12.0 mph19.3 kmh 30.04 in1017.3 mb 0.00 in0.0 mm 0.00 in/hr0.0 mm/hr 0.00 in0.0 mm
05:01 AM 43.9°F6.6°C 41.4°F5.2°C 91% 6.0 mph NE9.7 kmh NE 12.0 mph19.3 kmh 30.04 in1017.3 mb 0.00 in0.0 mm 0.00 in/hr0.0 mm/hr 0.00 in0.0 mm
05:00 AM 43.9°F6.6°C 41.4°F5.2°C 91% 6.0 mph NE9.7 kmh NE 12.0 mph19.3 kmh 30.03 in1016.9 mb 0.00 in0.0 mm 0.00 in/hr0.0 mm/hr 0.00 in0.0 mm
04:59 AM 43.9°F6.6°C 41.4°F5.2°C 91% 6.0 mph NE9.7 kmh NE 12.0 mph19.3 kmh 30.04 in1017.3 mb 0.00 in0.0 mm 0.00 in/hr0.0 mm/hr 0.00 in0.0 mm
04:58 AM 43.9°F6.6°C 41.4°F5.2°C 91% 6.0 mph NE9.7 kmh NE 12.0 mph19.3 kmh 30.04 in1017.3 mb 0.00 in0.0 mm 0.00 in/hr0.0 mm/hr 0.00 in0.0 mm
04:57 AM 43.9°F6.6°C 41.4°F5.2°C 91% 6.0 mph NE9.7 kmh NE 12.0 mph19.3 kmh 30.03 in1016.9 mb 0.00 in0.0 mm 0.00 in/hr0.0 mm/hr 0.00 in0.0 mm
04:56 AM 43.9°F6.6°C 41.4°F5.2°C 91% 6.0 mph NE9.7 kmh NE 12.0 mph19.3 kmh 30.03 in1016.9 mb 0.00 in0.0 mm 0.00 in/hr0.0 mm/hr 0.00 in0.0 mm
04:55 AM 43.9°F6.6°C 41.4°F5.2°C 91% 6.0 mph NE9.7 kmh NE 12.0 mph19.3 kmh 30.03 in1016.9 mb 0.00 in0.0 mm 0.00 in/hr0.0 mm/hr 0.00 in0.0 mm
04:54 AM 43.9°F6.6°C 41.4°F5.2°C 91% 7.0 mph NE11.3 kmh NE 12.0 mph19.3 kmh 30.03 in1016.9 mb 0.00 in0.0 mm 0.00 in/hr0.0 mm/hr 0.00 in0.0 mm
04:53 AM 43.9°F6.6°C 41.2°F5.1°C 90% 7.0 mph NE11.3 kmh NE 13.0 mph20.9 kmh 30.03 in1016.9 mb 0.00 in0.0 mm 0.00 in/hr0.0 mm/hr 0.00 in0.0 mm
04:52 AM 43.9°F6.6°C 41.2°F5.1°C 90% 7.0 mph NE11.3 kmh NE 13.0 mph20.9 kmh 30.03 in1016.9 mb 0.00 in0.0 mm 0.00 in/hr0.0 mm/hr 0.00 in0.0 mm
04:51 AM 43.9°F6.6°C 41.2°F5.1°C 90% 7.0 mph NE11.3 kmh NE 13.0 mph20.9 kmh 30.03 in1016.9 mb 0.00 in0.0 mm 0.00 in/hr0.0 mm/hr 0.00 in0.0 mm
04:50 AM 44.1°F6.7°C 41.2°F5.1°C 90% 7.0 mph NE11.3 kmh NE 13.0 mph20.9 kmh 30.03 in1016.9 mb 0.00 in0.0 mm 0.00 in/hr0.0 mm/hr 0.00 in0.0 mm
04:49 AM 44.1°F6.7°C 41.2°F5.1°C 90% 7.0 mph NE11.3 kmh NE 13.0 mph20.9 kmh 30.03 in1016.9 mb 0.00 in0.0 mm 0.00 in/hr0.0 mm/hr 0.00 in0.0 mm
04:48 AM 44.1°F6.7°C 41.2°F5.1°C 90% 7.0 mph NE11.3 kmh NE 13.0 mph20.9 kmh 30.03 in1016.9 mb 0.00 in0.0 mm 0.00 in/hr0.0 mm/hr 0.00 in0.0 mm
04:47 AM 44.1°F6.7°C 41.2°F5.1°C 90% 7.0 mph NE11.3 kmh NE 13.0 mph20.9 kmh 30.03 in1016.9 mb 0.00 in0.0 mm 0.00 in/hr0.0 mm/hr 0.00 in0.0 mm
04:46 AM 44.1°F6.7°C 41.2°F5.1°C 90% 6.0 mph NE9.7 kmh NE 13.0 mph20.9 kmh 30.03 in1016.9 mb 0.00 in0.0 mm 0.00 in/hr0.0 mm/hr 0.00 in0.0 mm
04:45 AM 44.1°F6.7°C 41.2°F5.1°C 90% 6.0 mph NE9.7 kmh NE 13.0 mph20.9 kmh 30.03 in1016.9 mb 0.00 in0.0 mm 0.00 in/hr0.0 mm/hr 0.00 in0.0 mm
04:44 AM 44.1°F6.7°C 41.2°F5.1°C 90% 6.0 mph NE9.7 kmh NE 13.0 mph20.9 kmh 30.03 in1016.9 mb 0.00 in0.0 mm 0.00 in/hr0.0 mm/hr 0.00 in0.0 mm
04:43 AM 44.1°F6.7°C 41.2°F5.1°C 90% 5.0 mph NE8.0 kmh NE 12.0 mph19.3 kmh 30.03 in1016.9 mb 0.00 in0.0 mm 0.00 in/hr0.0 mm/hr 0.00 in0.0 mm
04:42 AM 44.1°F6.7°C 41.2°F5.1°C 90% 5.0 mph NE8.0 kmh NE 11.0 mph17.7 kmh 30.03 in1016.9 mb 0.00 in0.0 mm 0.00 in/hr0.0 mm/hr 0.00 in0.0 mm
04:41 AM 44.1°F6.7°C 41.2°F5.1°C 90% 5.0 mph NE8.0 kmh NE 11.0 mph17.7 kmh 30.03 in1016.9 mb 0.00 in0.0 mm 0.00 in/hr0.0 mm/hr 0.00 in0.0 mm
04:40 AM 44.1°F6.7°C 41.2°F5.1°C 90% 4.0 mph NE6.4 kmh NE 11.0 mph17.7 kmh 30.03 in1016.9 mb 0.00 in0.0 mm 0.00 in/hr0.0 mm/hr 0.00 in0.0 mm
04:39 AM 44.1°F6.7°C 41.2°F5.1°C 90% 4.0 mph NE6.4 kmh NE 10.0 mph16.1 kmh 30.03 in1016.9 mb 0.00 in0.0 mm 0.00 in/hr0.0 mm/hr 0.00 in0.0 mm
04:38 AM 44.1°F6.7°C 41.2°F5.1°C 90% 4.0 mph NE6.4 kmh NE 10.0 mph16.1 kmh 30.03 in1016.9 mb 0.00 in0.0 mm 0.00 in/hr0.0 mm/hr 0.00 in0.0 mm
04:37 AM 44.1°F6.7°C 41.2°F5.1°C 90% 4.0 mph NE6.4 kmh NE 10.0 mph16.1 kmh 30.03 in1016.9 mb 0.00 in0.0 mm 0.00 in/hr0.0 mm/hr 0.00 in0.0 mm
04:36 AM 44.1°F6.7°C 41.2°F5.1°C 90% 4.0 mph NE6.4 kmh NE 10.0 mph16.1 kmh 30.03 in1016.9 mb 0.00 in0.0 mm 0.00 in/hr0.0 mm/hr 0.00 in0.0 mm
04:35 AM 44.1°F6.7°C 41.4°F5.2°C 90% 4.0 mph NE6.4 kmh NE 9.0 mph14.5 kmh 30.03 in1016.9 mb 0.00 in0.0 mm 0.00 in/hr0.0 mm/hr 0.00 in0.0 mm
04:34 AM 44.1°F6.7°C 41.4°F5.2°C 90% 4.0 mph ENE6.4 kmh ENE 9.0 mph14.5 kmh 30.03 in1016.9 mb 0.00 in0.0 mm 0.00 in/hr0.0 mm/hr 0.00 in0.0 mm
04:33 AM 44.1°F6.7°C 41.4°F5.2°C 90% 4.0 mph ENE6.4 kmh ENE 9.0 mph14.5 kmh 30.03 in1016.9 mb 0.00 in0.0 mm 0.00 in/hr0.0 mm/hr 0.00 in0.0 mm
04:32 AM 44.1°F6.7°C 41.4°F5.2°C 90% 4.0 mph NE6.4 kmh NE 9.0 mph14.5 kmh 30.03 in1016.9 mb 0.00 in0.0 mm 0.00 in/hr0.0 mm/hr 0.00 in0.0 mm
04:31 AM 44.1°F6.7°C 41.4°F5.2°C 90% 4.0 mph NE6.4 kmh NE 9.0 mph14.5 kmh 30.03 in1016.9 mb 0.00 in0.0 mm 0.00 in/hr0.0 mm/hr 0.00 in0.0 mm
04:30 AM 44.1°F6.7°C 41.4°F5.2°C 90% 4.0 mph NE6.4 kmh NE 9.0 mph14.5 kmh 30.03 in1016.9 mb 0.00 in0.0 mm 0.00 in/hr0.0 mm/hr 0.00 in0.0 mm
04:29 AM 44.1°F6.7°C 41.4°F5.2°C 90% 4.0 mph NE6.4 kmh NE 10.0 mph16.1 kmh 30.03 in1016.9 mb 0.00 in0.0 mm 0.00 in/hr0.0 mm/hr 0.00 in0.0 mm
04:28 AM 44.1°F6.7°C 41.4°F5.2°C 90% 4.0 mph NE6.4 kmh NE 10.0 mph16.1 kmh 30.03 in1016.9 mb 0.00 in0.0 mm 0.00 in/hr0.0 mm/hr 0.00 in0.0 mm
04:27 AM 44.2°F6.8°C 41.5°F5.3°C 90% 5.0 mph NE8.0 kmh NE 10.0 mph16.1 kmh 30.03 in1016.9 mb 0.00 in0.0 mm 0.00 in/hr0.0 mm/hr 0.00 in0.0 mm
04:26 AM 44.2°F6.8°C 41.5°F5.3°C 90% 4.0 mph NE6.4 kmh NE 10.0 mph16.1 kmh 30.03 in1016.9 mb 0.00 in0.0 mm 0.00 in/hr0.0 mm/hr 0.00 in0.0 mm
04:25 AM 44.2°F6.8°C 41.5°F5.3°C 90% 5.0 mph NE8.0 kmh NE 10.0 mph16.1 kmh 30.03 in1016.9 mb 0.00 in0.0 mm 0.00 in/hr0.0 mm/hr 0.00 in0.0 mm
04:24 AM 44.2°F6.8°C 41.5°F5.3°C 90% 4.0 mph NE6.4 kmh NE 11.0 mph17.7 kmh 30.03 in1016.9 mb 0.00 in0.0 mm 0.00 in/hr0.0 mm/hr 0.00 in0.0 mm
04:23 AM 44.2°F6.8°C 41.5°F5.3°C 90% 5.0 mph NE8.0 kmh NE 11.0 mph17.7 kmh 30.03 in1016.9 mb 0.00 in0.0 mm 0.00 in/hr0.0 mm/hr 0.00 in0.0 mm
04:22 AM 44.2°F6.8°C 41.5°F5.3°C 90% 5.0 mph ENE8.0 kmh ENE 11.0 mph17.7 kmh 30.03 in1016.9 mb 0.00 in0.0 mm 0.00 in/hr0.0 mm/hr 0.00 in0.0 mm
04:21 AM 44.2°F6.8°C 41.5°F5.3°C 90% 5.0 mph NE8.0 kmh NE 11.0 mph17.7 kmh 30.03 in1016.9 mb 0.00 in0.0 mm 0.00 in/hr0.0 mm/hr 0.00 in0.0 mm
04:20 AM 44.2°F6.8°C 41.5°F5.3°C 90% 4.0 mph NE6.4 kmh NE 11.0 mph17.7 kmh 30.03 in1016.9 mb 0.00 in0.0 mm 0.00 in/hr0.0 mm/hr 0.00 in0.0 mm
04:19 AM 44.2°F6.8°C 41.5°F5.3°C 90% 4.0 mph NE6.4 kmh NE 11.0 mph17.7 kmh 30.03 in1016.9 mb 0.00 in0.0 mm 0.00 in/hr0.0 mm/hr 0.00 in0.0 mm
04:18 AM 44.2°F6.8°C 41.5°F5.3°C 90% 4.0 mph NE6.4 kmh NE 11.0 mph17.7 kmh 30.03 in1016.9 mb 0.00 in0.0 mm 0.00 in/hr0.0 mm/hr 0.00 in0.0 mm
04:17 AM 44.2°F6.8°C 41.5°F5.3°C 90% 4.0 mph NE6.4 kmh NE 11.0 mph17.7 kmh 30.03 in1016.9 mb 0.00 in0.0 mm 0.00 in/hr0.0 mm/hr 0.00 in0.0 mm
04:16 AM 44.2°F6.8°C 41.5°F5.3°C 90% 5.0 mph NE8.0 kmh NE 11.0 mph17.7 kmh 30.03 in1016.9 mb 0.00 in0.0 mm 0.00 in/hr0.0 mm/hr 0.00 in0.0 mm
04:15 AM 44.2°F6.8°C 41.5°F5.3°C 90% 4.0 mph NE6.4 kmh NE 11.0 mph17.7 kmh 30.03 in1016.9 mb 0.00 in0.0 mm 0.00 in/hr0.0 mm/hr 0.00 in0.0 mm
04:14 AM 44.2°F6.8°C 41.5°F5.3°C 90% 5.0 mph NE8.0 kmh NE 9.0 mph14.5 kmh 30.03 in1016.9 mb 0.00 in0.0 mm 0.00 in/hr0.0 mm/hr 0.00 in0.0 mm
04:13 AM 44.2°F6.8°C 41.5°F5.3°C 90% 4.0 mph NE6.4 kmh NE 9.0 mph14.5 kmh 30.03 in1016.9 mb 0.00 in0.0 mm 0.00 in/hr0.0 mm/hr 0.00 in0.0 mm
04:12 AM 44.2°F6.8°C 41.5°F5.3°C 90% 5.0 mph NE8.0 kmh NE 9.0 mph14.5 kmh 30.03 in1016.9 mb 0.00 in0.0 mm 0.00 in/hr0.0 mm/hr 0.00 in0.0 mm
04:11 AM 44.2°F6.8°C 41.5°F5.3°C 90% 5.0 mph NE8.0 kmh NE 9.0 mph14.5 kmh 30.03 in1016.9 mb 0.00 in0.0 mm 0.00 in/hr0.0 mm/hr 0.00 in0.0 mm
04:10 AM 44.2°F6.8°C 41.5°F5.3°C 90% 5.0 mph NE8.0 kmh NE 9.0 mph14.5 kmh 30.03 in1016.9 mb 0.00 in0.0 mm 0.00 in/hr0.0 mm/hr 0.00 in0.0 mm
04:09 AM 44.2°F6.8°C 41.5°F5.3°C 90% 5.0 mph NE8.0 kmh NE 9.0 mph14.5 kmh 30.03 in1016.9 mb 0.00 in0.0 mm 0.00 in/hr0.0 mm/hr 0.00 in0.0 mm
04:08 AM 44.2°F6.8°C 41.5°F5.3°C 90% 5.0 mph NE8.0 kmh NE 9.0 mph14.5 kmh 30.03 in1016.9 mb 0.00 in0.0 mm 0.00 in/hr0.0 mm/hr 0.00 in0.0 mm
04:07 AM 44.2°F6.8°C 41.5°F5.3°C 90% 5.0 mph ENE8.0 kmh ENE 10.0 mph16.1 kmh 30.03 in1016.9 mb 0.00 in0.0 mm 0.00 in/hr0.0 mm/hr 0.00 in0.0 mm
04:06 AM 44.2°F6.8°C 41.5°F5.3°C 90% 5.0 mph ENE8.0 kmh ENE 10.0 mph16.1 kmh 30.02 in1016.6 mb 0.00 in0.0 mm 0.00 in/hr0.0 mm/hr 0.00 in0.0 mm
04:05 AM 44.2°F6.8°C 41.5°F5.3°C 90% 6.0 mph ENE9.7 kmh ENE 10.0 mph16.1 kmh 30.03 in1016.9 mb 0.00 in0.0 mm 0.00 in/hr0.0 mm/hr 0.00 in0.0 mm
04:04 AM 44.2°F6.8°C 41.5°F5.3°C 90% 6.0 mph ENE9.7 kmh ENE 11.0 mph17.7 kmh 30.03 in1016.9 mb 0.00 in0.0 mm 0.00 in/hr0.0 mm/hr 0.00 in0.0 mm
04:03 AM 44.2°F6.8°C 41.5°F5.3°C 90% 5.0 mph ENE8.0 kmh ENE 11.0 mph17.7 kmh 30.02 in1016.6 mb 0.00 in0.0 mm 0.00 in/hr0.0 mm/hr 0.00 in0.0 mm
04:02 AM 44.2°F6.8°C 41.5°F5.3°C 90% 5.0 mph ENE8.0 kmh ENE 11.0 mph17.7 kmh 30.02 in1016.6 mb 0.00 in0.0 mm 0.00 in/hr0.0 mm/hr 0.00 in0.0 mm
04:01 AM 44.2°F6.8°C 41.5°F5.3°C 90% 5.0 mph NE8.0 kmh NE 11.0 mph17.7 kmh 30.02 in1016.6 mb 0.00 in0.0 mm 0.00 in/hr0.0 mm/hr 0.00 in0.0 mm
04:00 AM 44.2°F6.8°C 41.5°F5.3°C 90% 5.0 mph NE8.0 kmh NE 11.0 mph17.7 kmh 30.03 in1016.9 mb 0.00 in0.0 mm 0.00 in/hr0.0 mm/hr 0.00 in0.0 mm
03:59 AM 44.2°F6.8°C 41.5°F5.3°C 90% 5.0 mph NE8.0 kmh NE 11.0 mph17.7 kmh 30.03 in1016.9 mb 0.00 in0.0 mm 0.00 in/hr0.0 mm/hr 0.00 in0.0 mm
03:58 AM 44.2°F6.8°C 41.5°F5.3°C 90% 5.0 mph NE8.0 kmh NE 11.0 mph17.7 kmh 30.03 in1016.9 mb 0.00 in0.0 mm 0.00 in/hr0.0 mm/hr 0.00 in0.0 mm
03:57 AM 44.2°F6.8°C 41.5°F5.3°C 90% 5.0 mph NE8.0 kmh NE 11.0 mph17.7 kmh 30.03 in1016.9 mb 0.00 in0.0 mm 0.00 in/hr0.0 mm/hr 0.00 in0.0 mm
03:56 AM 44.2°F6.8°C 41.5°F5.3°C 90% 5.0 mph NE8.0 kmh NE 11.0 mph17.7 kmh 30.02 in1016.6 mb 0.00 in0.0 mm 0.00 in/hr0.0 mm/hr 0.00 in0.0 mm
03:55 AM 44.2°F6.8°C 41.5°F5.3°C 90% 5.0 mph NE8.0 kmh NE 11.0 mph17.7 kmh 30.02 in1016.6 mb 0.00 in0.0 mm 0.00 in/hr0.0 mm/hr 0.00 in0.0 mm
03:54 AM 44.2°F6.8°C 41.5°F5.3°C 90% 6.0 mph NE9.7 kmh NE 12.0 mph19.3 kmh 30.02 in1016.6 mb 0.00 in0.0 mm 0.00 in/hr0.0 mm/hr 0.00 in0.0 mm
03:53 AM 44.2°F6.8°C 41.5°F5.3°C 90% 6.0 mph NE9.7 kmh NE 12.0 mph19.3 kmh 30.02 in1016.6 mb 0.00 in0.0 mm 0.00 in/hr0.0 mm/hr 0.00 in0.0 mm
03:52 AM 44.2°F6.8°C 41.5°F5.3°C 90% 6.0 mph NE9.7 kmh NE 12.0 mph19.3 kmh 30.02 in1016.6 mb 0.00 in0.0 mm 0.00 in/hr0.0 mm/hr 0.00 in0.0 mm
03:51 AM 44.2°F6.8°C 41.5°F5.3°C 90% 6.0 mph NE9.7 kmh NE 12.0 mph19.3 kmh 30.02 in1016.6 mb 0.00 in0.0 mm 0.00 in/hr0.0 mm/hr 0.00 in0.0 mm
03:50 AM 44.2°F6.8°C 41.5°F5.3°C 90% 6.0 mph NE9.7 kmh NE 12.0 mph19.3 kmh 30.02 in1016.6 mb 0.00 in0.0 mm 0.00 in/hr0.0 mm/hr 0.00 in0.0 mm
03:49 AM 44.2°F6.8°C 41.5°F5.3°C 90% 6.0 mph NE9.7 kmh NE 12.0 mph19.3 kmh 30.02 in1016.6 mb 0.00 in0.0 mm 0.00 in/hr0.0 mm/hr 0.00 in0.0 mm
03:48 AM 44.2°F6.8°C 41.5°F5.3°C 90% 5.0 mph NE8.0 kmh NE 12.0 mph19.3 kmh 30.02 in1016.6 mb 0.00 in0.0 mm 0.00 in/hr0.0 mm/hr 0.00 in0.0 mm
03:47 AM 44.2°F6.8°C 41.5°F5.3°C 90% 5.0 mph NE8.0 kmh NE 12.0 mph19.3 kmh 30.02 in1016.6 mb 0.00 in0.0 mm 0.00 in/hr0.0 mm/hr 0.00 in0.0 mm
03:46 AM 44.2°F6.8°C 41.5°F5.3°C 90% 5.0 mph NE8.0 kmh NE 12.0 mph19.3 kmh 30.02 in1016.6 mb 0.00 in0.0 mm 0.00 in/hr0.0 mm/hr 0.00 in0.0 mm
03:45 AM 44.2°F6.8°C 41.5°F5.3°C 90% 5.0 mph NE8.0 kmh NE 12.0 mph19.3 kmh 30.02 in1016.6 mb 0.00 in0.0 mm 0.00 in/hr0.0 mm/hr 0.00 in0.0 mm
03:44 AM 44.2°F6.8°C 41.5°F5.3°C 90% 4.0 mph NE6.4 kmh NE 11.0 mph17.7 kmh 30.02 in1016.6 mb 0.00 in0.0 mm 0.00 in/hr0.0 mm/hr 0.00 in0.0 mm
03:43 AM 44.2°F6.8°C 41.5°F5.3°C 90% 4.0 mph NE6.4 kmh NE 9.0 mph14.5 kmh 30.02 in1016.6 mb 0.00 in0.0 mm 0.00 in/hr0.0 mm/hr 0.00 in0.0 mm
03:42 AM 44.2°F6.8°C 41.5°F5.3°C 90% 5.0 mph NE8.0 kmh NE 9.0 mph14.5 kmh 30.02 in1016.6 mb 0.00 in0.0 mm 0.00 in/hr0.0 mm/hr 0.00 in0.0 mm
03:41 AM 44.2°F6.8°C 41.5°F5.3°C 90% 5.0 mph NE8.0 kmh NE 9.0 mph14.5 kmh 30.02 in1016.6 mb 0.00 in0.0 mm 0.00 in/hr0.0 mm/hr 0.00 in0.0 mm
03:40 AM 44.2°F6.8°C 41.5°F5.3°C 90% 5.0 mph NE8.0 kmh NE 9.0 mph14.5 kmh 30.02 in1016.6 mb 0.00 in0.0 mm 0.00 in/hr0.0 mm/hr 0.00 in0.0 mm
03:39 AM 44.2°F6.8°C 41.5°F5.3°C 90% 5.0 mph NNE8.0 kmh NNE 10.0 mph16.1 kmh 30.02 in1016.6 mb 0.00 in0.0 mm 0.00 in/hr0.0 mm/hr 0.00 in0.0 mm
03:38 AM 44.2°F6.8°C 41.5°F5.3°C 90% 5.0 mph NNE8.0 kmh NNE 10.0 mph16.1 kmh 30.02 in1016.6 mb 0.00 in0.0 mm 0.00 in/hr0.0 mm/hr 0.00 in0.0 mm
03:37 AM 44.2°F6.8°C 41.5°F5.3°C 90% 6.0 mph NNE9.7 kmh NNE 10.0 mph16.1 kmh 30.02 in1016.6 mb 0.00 in0.0 mm 0.00 in/hr0.0 mm/hr 0.00 in0.0 mm
03:36 AM 44.2°F6.8°C 41.5°F5.3°C 90% 6.0 mph NNE9.7 kmh NNE 10.0 mph16.1 kmh 30.02 in1016.6 mb 0.00 in0.0 mm 0.00 in/hr0.0 mm/hr 0.00 in0.0 mm
03:35 AM 44.4°F6.9°C 41.7°F5.4°C 90% 6.0 mph NNE9.7 kmh NNE 10.0 mph16.1 kmh 30.02 in1016.6 mb 0.00 in0.0 mm 0.00 in/hr0.0 mm/hr 0.00 in0.0 mm
03:34 AM 44.4°F6.9°C 41.7°F5.4°C 90% 6.0 mph NNE9.7 kmh NNE 10.0 mph16.1 kmh 30.02 in1016.6 mb 0.00 in0.0 mm 0.00 in/hr0.0 mm/hr 0.00 in0.0 mm
03:33 AM 44.4°F6.9°C 41.7°F5.4°C 90% 6.0 mph NNE9.7 kmh NNE 10.0 mph16.1 kmh 30.02 in1016.6 mb 0.00 in0.0 mm 0.00 in/hr0.0 mm/hr 0.00 in0.0 mm
03:32 AM 44.4°F6.9°C 41.7°F5.4°C 90% 6.0 mph NNE9.7 kmh NNE 10.0 mph16.1 kmh 30.02 in1016.6 mb 0.00 in0.0 mm 0.00 in/hr0.0 mm/hr 0.00 in0.0 mm
03:31 AM 44.4°F6.9°C 41.7°F5.4°C 90% 6.0 mph NNE9.7 kmh NNE 10.0 mph16.1 kmh 30.02 in1016.6 mb 0.00 in0.0 mm 0.00 in/hr0.0 mm/hr 0.00 in0.0 mm
03:30 AM 44.4°F6.9°C 41.7°F5.4°C 90% 6.0 mph NNE9.7 kmh NNE 10.0 mph16.1 kmh 30.02 in1016.6 mb 0.00 in0.0 mm 0.00 in/hr0.0 mm/hr 0.00 in0.0 mm
03:29 AM 44.4°F6.9°C 41.7°F5.4°C 90% 6.0 mph NNE9.7 kmh NNE 10.0 mph16.1 kmh 30.02 in1016.6 mb 0.00 in0.0 mm 0.00 in/hr0.0 mm/hr 0.00 in0.0 mm
03:28 AM 44.4°F6.9°C 41.7°F5.4°C 90% 6.0 mph NNE9.7 kmh NNE 10.0 mph16.1 kmh 30.02 in1016.6 mb 0.00 in0.0 mm 0.00 in/hr0.0 mm/hr 0.00 in0.0 mm
03:27 AM 44.4°F6.9°C 41.7°F5.4°C 90% 6.0 mph NNE9.7 kmh NNE 10.0 mph16.1 kmh 30.02 in1016.6 mb 0.00 in0.0 mm 0.00 in/hr0.0 mm/hr 0.00 in0.0 mm
03:26 AM 44.4°F6.9°C 41.7°F5.4°C 90% 6.0 mph NNE9.7 kmh NNE 10.0 mph16.1 kmh 30.02 in1016.6 mb 0.00 in0.0 mm 0.00 in/hr0.0 mm/hr 0.00 in0.0 mm
03:25 AM 44.4°F6.9°C 41.7°F5.4°C 90% 6.0 mph NNE9.7 kmh NNE 10.0 mph16.1 kmh 30.02 in1016.6 mb 0.00 in0.0 mm 0.00 in/hr0.0 mm/hr 0.00 in0.0 mm
03:24 AM 44.4°F6.9°C 41.7°F5.4°C 90% 6.0 mph NNE9.7 kmh NNE 10.0 mph16.1 kmh 30.02 in1016.6 mb 0.00 in0.0 mm 0.00 in/hr0.0 mm/hr 0.00 in0.0 mm
03:23 AM 44.4°F6.9°C 41.7°F5.4°C 90% 6.0 mph NNE9.7 kmh NNE 10.0 mph16.1 kmh 30.02 in1016.6 mb 0.00 in0.0 mm 0.00 in/hr0.0 mm/hr 0.00 in0.0 mm
03:22 AM 44.4°F6.9°C 41.7°F5.4°C 90% 6.0 mph NNE9.7 kmh NNE 10.0 mph16.1 kmh 30.02 in1016.6 mb 0.00 in0.0 mm 0.00 in/hr0.0 mm/hr 0.00 in0.0 mm
03:21 AM 44.4°F6.9°C 42.1°F5.6°C 91% 6.0 mph NNE9.7 kmh NNE 10.0 mph16.1 kmh 30.02 in1016.6 mb 0.00 in0.0 mm 0.00 in/hr0.0 mm/hr 0.00 in0.0 mm
03:20 AM 44.4°F6.9°C 42.1°F5.6°C 91% 6.0 mph NNE9.7 kmh NNE 10.0 mph16.1 kmh 30.02 in1016.6 mb 0.00 in0.0 mm 0.00 in/hr0.0 mm/hr 0.00 in0.0 mm
03:19 AM 44.4°F6.9°C 42.1°F5.6°C 91% 5.0 mph NNE8.0 kmh NNE 10.0 mph16.1 kmh 30.02 in1016.6 mb 0.00 in0.0 mm 0.00 in/hr0.0 mm/hr 0.00 in0.0 mm
03:18 AM 44.4°F6.9°C 42.1°F5.6°C 91% 5.0 mph NNE8.0 kmh NNE 10.0 mph16.1 kmh 30.02 in1016.6 mb 0.00 in0.0 mm 0.00 in/hr0.0 mm/hr 0.00 in0.0 mm
03:17 AM 44.4°F6.9°C 42.1°F5.6°C 91% 5.0 mph NNE8.0 kmh NNE 10.0 mph16.1 kmh 30.02 in1016.6 mb 0.00 in0.0 mm 0.00 in/hr0.0 mm/hr 0.00 in0.0 mm
03:16 AM 44.4°F6.9°C 42.1°F5.6°C 91% 5.0 mph NNE8.0 kmh NNE 10.0 mph16.1 kmh 30.02 in1016.6 mb 0.00 in0.0 mm 0.00 in/hr0.0 mm/hr 0.00 in0.0 mm
03:15 AM 44.4°F6.9°C 42.1°F5.6°C 91% 5.0 mph NNE8.0 kmh NNE 10.0 mph16.1 kmh 30.02 in1016.6 mb 0.00 in0.0 mm 0.00 in/hr0.0 mm/hr 0.00 in0.0 mm
03:14 AM 44.4°F6.9°C 42.1°F5.6°C 91% 5.0 mph NNE8.0 kmh NNE 8.0 mph12.9 kmh 30.02 in1016.6 mb 0.00 in0.0 mm 0.00 in/hr0.0 mm/hr 0.00 in0.0 mm
03:13 AM 44.4°F6.9°C 42.1°F5.6°C 91% 4.0 mph NNE6.4 kmh NNE 9.0 mph14.5 kmh 30.02 in1016.6 mb 0.00 in0.0 mm 0.00 in/hr0.0 mm/hr 0.00 in0.0 mm
03:12 AM 44.4°F6.9°C 42.1°F5.6°C 91% 4.0 mph NNE6.4 kmh NNE 9.0 mph14.5 kmh 30.02 in1016.6 mb 0.00 in0.0 mm 0.00 in/hr0.0 mm/hr 0.00 in0.0 mm
03:11 AM 44.6°F7.0°C 42.1°F5.6°C 91% 4.0 mph NNE6.4 kmh NNE 9.0 mph14.5 kmh 30.02 in1016.6 mb 0.00 in0.0 mm 0.00 in/hr0.0 mm/hr 0.00 in0.0 mm
03:10 AM 44.6°F7.0°C 42.1°F5.6°C 91% 4.0 mph NNE6.4 kmh NNE 9.0 mph14.5 kmh 30.02 in1016.6 mb 0.00 in0.0 mm 0.00 in/hr0.0 mm/hr 0.00 in0.0 mm
03:09 AM 44.6°F7.0°C 42.1°F5.6°C 91% 4.0 mph NNE6.4 kmh NNE 9.0 mph14.5 kmh 30.02 in1016.6 mb 0.00 in0.0 mm 0.00 in/hr0.0 mm/hr 0.00 in0.0 mm
03:08 AM 44.6°F7.0°C 42.1°F5.6°C 91% 4.0 mph N6.4 kmh N 9.0 mph14.5 kmh 30.02 in1016.6 mb 0.00 in0.0 mm 0.00 in/hr0.0 mm/hr 0.00 in0.0 mm
03:07 AM 44.6°F7.0°C 42.1°F5.6°C 91% 4.0 mph N6.4 kmh N 9.0 mph14.5 kmh 30.02 in1016.6 mb 0.00 in0.0 mm 0.00 in/hr0.0 mm/hr 0.00 in0.0 mm
03:06 AM 44.8°F7.1°C 42.3°F5.7°C 91% 4.0 mph N6.4 kmh N 9.0 mph14.5 kmh 30.02 in1016.6 mb 0.00 in0.0 mm 0.00 in/hr0.0 mm/hr 0.00 in0.0 mm
03:05 AM 44.8°F7.1°C 42.3°F5.7°C 91% 3.0 mph N4.8 kmh N 9.0 mph14.5 kmh 30.02 in1016.6 mb 0.00 in0.0 mm 0.00 in/hr0.0 mm/hr 0.00 in0.0 mm
03:04 AM 44.8°F7.1°C 42.3°F5.7°C 91% 3.0 mph N4.8 kmh N 9.0 mph14.5 kmh 30.02 in1016.6 mb 0.00 in0.0 mm 0.00 in/hr0.0 mm/hr 0.00 in0.0 mm
03:03 AM 44.8°F7.1°C 42.3°F5.7°C 91% 3.0 mph N4.8 kmh N 9.0 mph14.5 kmh 30.02 in1016.6 mb 0.00 in0.0 mm 0.00 in/hr0.0 mm/hr 0.00 in0.0 mm
03:02 AM 44.8°F7.1°C 42.3°F5.7°C 91% 3.0 mph N4.8 kmh N 9.0 mph14.5 kmh 30.02 in1016.6 mb 0.00 in0.0 mm 0.00 in/hr0.0 mm/hr 0.00 in0.0 mm
03:01 AM 44.8°F7.1°C 42.3°F5.7°C 91% 3.0 mph N4.8 kmh N 9.0 mph14.5 kmh 30.02 in1016.6 mb 0.00 in0.0 mm 0.00 in/hr0.0 mm/hr 0.00 in0.0 mm
03:00 AM 45.0°F7.2°C 42.4°F5.8°C 91% 3.0 mph N4.8 kmh N 9.0 mph14.5 kmh 30.02 in1016.6 mb 0.00 in0.0 mm 0.00 in/hr0.0 mm/hr 0.00 in0.0 mm
02:59 AM 45.0°F7.2°C 42.4°F5.8°C 91% 3.0 mph N4.8 kmh N 9.0 mph14.5 kmh 30.02 in1016.6 mb 0.00 in0.0 mm 0.00 in/hr0.0 mm/hr 0.00 in0.0 mm
02:58 AM 45.0°F7.2°C 42.6°F5.9°C 91% 4.0 mph N6.4 kmh N 9.0 mph14.5 kmh 30.02 in1016.6 mb 0.00 in0.0 mm 0.00 in/hr0.0 mm/hr 0.00 in0.0 mm
02:57 AM 45.0°F7.2°C 42.6°F5.9°C 91% 4.0 mph N6.4 kmh N 9.0 mph14.5 kmh 30.02 in1016.6 mb 0.00 in0.0 mm 0.00 in/hr0.0 mm/hr 0.00 in0.0 mm
02:56 AM 45.1°F7.3°C 42.6°F5.9°C 91% 4.0 mph N6.4 kmh N 9.0 mph14.5 kmh 30.02 in1016.6 mb 0.00 in0.0 mm 0.00 in/hr0.0 mm/hr 0.00 in0.0 mm
02:55 AM 45.1°F7.3°C 42.6°F5.9°C 91% 4.0 mph N6.4 kmh N 9.0 mph14.5 kmh 30.02 in1016.6 mb 0.00 in0.0 mm 0.00 in/hr0.0 mm/hr 0.00 in0.0 mm
02:54 AM 45.1°F7.3°C 42.6°F5.9°C 91% 4.0 mph N6.4 kmh N 9.0 mph14.5 kmh 30.02 in1016.6 mb 0.00 in0.0 mm 0.00 in/hr0.0 mm/hr 0.00 in0.0 mm
02:53 AM 45.1°F7.3°C 42.6°F5.9°C 91% 4.0 mph N6.4 kmh N 9.0 mph14.5 kmh 30.02 in1016.6 mb 0.00 in0.0 mm 0.00 in/hr0.0 mm/hr 0.00 in0.0 mm
02:52 AM 45.1°F7.3°C 42.8°F6.0°C 91% 4.0 mph N6.4 kmh N 9.0 mph14.5 kmh 30.02 in1016.6 mb 0.00 in0.0 mm 0.00 in/hr0.0 mm/hr 0.00 in0.0 mm
02:51 AM 45.1°F7.3°C 42.8°F6.0°C 91% 5.0 mph N8.0 kmh N 9.0 mph14.5 kmh 30.02 in1016.6 mb 0.00 in0.0 mm 0.00 in/hr0.0 mm/hr 0.00 in0.0 mm
02:50 AM 45.1°F7.3°C 42.8°F6.0°C 91% 5.0 mph N8.0 kmh N 11.0 mph17.7 kmh 30.02 in1016.6 mb 0.00 in0.0 mm 0.00 in/hr0.0 mm/hr 0.00 in0.0 mm
02:49 AM 45.1°F7.3°C 42.8°F6.0°C 91% 5.0 mph N8.0 kmh N 11.0 mph17.7 kmh 30.02 in1016.6 mb 0.00 in0.0 mm 0.00 in/hr0.0 mm/hr 0.00 in0.0 mm
02:48 AM 45.1°F7.3°C 42.6°F5.9°C 91% 5.0 mph N8.0 kmh N 11.0 mph17.7 kmh 30.02 in1016.6 mb 0.00 in0.0 mm 0.00 in/hr0.0 mm/hr 0.00 in0.0 mm
02:47 AM 45.1°F7.3°C 42.6°F5.9°C 91% 5.0 mph N8.0 kmh N 11.0 mph17.7 kmh 30.02 in1016.6 mb 0.00 in0.0 mm 0.00 in/hr0.0 mm/hr 0.00 in0.0 mm
02:46 AM 45.1°F7.3°C 43.0°F6.1°C 92% 5.0 mph N8.0 kmh N 11.0 mph17.7 kmh 30.02 in1016.6 mb 0.00 in0.0 mm 0.00 in/hr0.0 mm/hr 0.00 in0.0 mm
02:45 AM 45.1°F7.3°C 42.6°F5.9°C 91% 5.0 mph N8.0 kmh N 11.0 mph17.7 kmh 30.02 in1016.6 mb 0.00 in0.0 mm 0.00 in/hr0.0 mm/hr 0.00 in0.0 mm
02:44 AM 45.0°F7.2°C 42.6°F5.9°C 91% 5.0 mph N8.0 kmh N 11.0 mph17.7 kmh 30.02 in1016.6 mb 0.00 in0.0 mm 0.00 in/hr0.0 mm/hr 0.00 in0.0 mm
02:43 AM 45.0°F7.2°C 42.6°F5.9°C 91% 5.0 mph NNW8.0 kmh NNW 11.0 mph17.7 kmh 30.02 in1016.6 mb 0.00 in0.0 mm 0.00 in/hr0.0 mm/hr 0.00 in0.0 mm
02:42 AM 45.0°F7.2°C 42.4°F5.8°C 91% 5.0 mph NNW8.0 kmh NNW 11.0 mph17.7 kmh 30.02 in1016.6 mb 0.00 in0.0 mm 0.00 in/hr0.0 mm/hr 0.00 in0.0 mm
02:41 AM 45.0°F7.2°C 42.4°F5.8°C 91% 4.0 mph N6.4 kmh N 11.0 mph17.7 kmh 30.02 in1016.6 mb 0.00 in0.0 mm 0.00 in/hr0.0 mm/hr 0.00 in0.0 mm
02:40 AM 45.0°F7.2°C 42.4°F5.8°C 91% 4.0 mph NNW6.4 kmh NNW 11.0 mph17.7 kmh 30.02 in1016.6 mb 0.00 in0.0 mm 0.00 in/hr0.0 mm/hr 0.00 in0.0 mm
02:39 AM 45.0°F7.2°C 42.4°F5.8°C 91% 4.0 mph NNW6.4 kmh NNW 11.0 mph17.7 kmh 30.02 in1016.6 mb 0.00 in0.0 mm 0.00 in/hr0.0 mm/hr 0.00 in0.0 mm
02:38 AM 44.8°F7.1°C 42.3°F5.7°C 91% 4.0 mph NNW6.4 kmh NNW 11.0 mph17.7 kmh 30.02 in1016.6 mb 0.00 in0.0 mm 0.00 in/hr0.0 mm/hr 0.00 in0.0 mm
02:37 AM 44.8°F7.1°C 42.3°F5.7°C 91% 4.0 mph NNW6.4 kmh NNW 11.0 mph17.7 kmh 30.02 in1016.6 mb 0.00 in0.0 mm 0.00 in/hr0.0 mm/hr 0.00 in0.0 mm
02:36 AM 44.8°F7.1°C 42.3°F5.7°C 91% 4.0 mph NNW6.4 kmh NNW 9.0 mph14.5 kmh 30.02 in1016.6 mb 0.00 in0.0 mm 0.00 in/hr0.0 mm/hr 0.00 in0.0 mm
02:35 AM 44.8°F7.1°C 42.3°F5.7°C 91% 4.0 mph NNW6.4 kmh NNW 9.0 mph14.5 kmh 30.02 in1016.6 mb 0.00 in0.0 mm 0.00 in/hr0.0 mm/hr 0.00 in0.0 mm
02:34 AM 44.8°F7.1°C 42.3°F5.7°C 91% 4.0 mph NNW6.4 kmh NNW 9.0 mph14.5 kmh 30.02 in1016.6 mb 0.00 in0.0 mm 0.00 in/hr0.0 mm/hr 0.00 in0.0 mm
02:33 AM 44.8°F7.1°C 42.3°F5.7°C 91% 4.0 mph NNW6.4 kmh NNW 9.0 mph14.5 kmh 30.02 in1016.6 mb 0.00 in0.0 mm 0.00 in/hr0.0 mm/hr 0.00 in0.0 mm
02:32 AM 44.8°F7.1°C 42.3°F5.7°C 91% 4.0 mph NNW6.4 kmh NNW 9.0 mph14.5 kmh 30.02 in1016.6 mb 0.00 in0.0 mm 0.00 in/hr0.0 mm/hr 0.00 in0.0 mm
02:31 AM 44.8°F7.1°C 42.3°F5.7°C 91% 4.0 mph NNW6.4 kmh NNW 9.0 mph14.5 kmh 30.02 in1016.6 mb 0.00 in0.0 mm 0.00 in/hr0.0 mm/hr 0.00 in0.0 mm
02:30 AM 44.6°F7.0°C 42.1°F5.6°C 91% 4.0 mph NNW6.4 kmh NNW 9.0 mph14.5 kmh 30.02 in1016.6 mb 0.00 in0.0 mm 0.00 in/hr0.0 mm/hr 0.00 in0.0 mm
02:29 AM 44.6°F7.0°C 42.1°F5.6°C 91% 3.0 mph NNW4.8 kmh NNW 9.0 mph14.5 kmh 30.02 in1016.6 mb 0.00 in0.0 mm 0.00 in/hr0.0 mm/hr 0.00 in0.0 mm
02:28 AM 44.6°F7.0°C 42.1°F5.6°C 91% 3.0 mph NNW4.8 kmh NNW 9.0 mph14.5 kmh 30.02 in1016.6 mb 0.00 in0.0 mm 0.00 in/hr0.0 mm/hr 0.00 in0.0 mm
02:27 AM 44.4°F6.9°C 42.1°F5.6°C 91% 3.0 mph NNW4.8 kmh NNW 7.0 mph11.3 kmh 30.02 in1016.6 mb 0.00 in0.0 mm 0.00 in/hr0.0 mm/hr 0.00 in0.0 mm
02:26 AM 44.4°F6.9°C 42.1°F5.6°C 91% 3.0 mph NNW4.8 kmh NNW 7.0 mph11.3 kmh 30.02 in1016.6 mb 0.00 in0.0 mm 0.00 in/hr0.0 mm/hr 0.00 in0.0 mm
02:25 AM 44.4°F6.9°C 42.1°F5.6°C 91% 3.0 mph NNW4.8 kmh NNW 7.0 mph11.3 kmh 30.02 in1016.6 mb 0.00 in0.0 mm 0.00 in/hr0.0 mm/hr 0.00 in0.0 mm
02:24 AM 44.4°F6.9°C 42.1°F5.6°C 91% 3.0 mph NNW4.8 kmh NNW 7.0 mph11.3 kmh 30.02 in1016.6 mb 0.00 in0.0 mm 0.00 in/hr0.0 mm/hr 0.00 in0.0 mm
02:23 AM 44.4°F6.9°C 41.9°F5.5°C 91% 3.0 mph NNW4.8 kmh NNW 7.0 mph11.3 kmh 30.02 in1016.6 mb 0.00 in0.0 mm 0.00 in/hr0.0 mm/hr 0.00 in0.0 mm
02:22 AM 44.4°F6.9°C 41.9°F5.5°C 91% 3.0 mph NNW4.8 kmh NNW 6.0 mph9.7 kmh 30.02 in1016.6 mb 0.00 in0.0 mm 0.00 in/hr0.0 mm/hr 0.00 in0.0 mm
02:21 AM 44.4°F6.9°C 41.9°F5.5°C 91% 3.0 mph NNW4.8 kmh NNW 6.0 mph9.7 kmh 30.02 in1016.6 mb 0.00 in0.0 mm 0.00 in/hr0.0 mm/hr 0.00 in0.0 mm
02:20 AM 44.2°F6.8°C 41.9°F5.5°C 91% 3.0 mph NNW4.8 kmh NNW 6.0 mph9.7 kmh 30.02 in1016.6 mb 0.00 in0.0 mm 0.00 in/hr0.0 mm/hr 0.00 in0.0 mm
02:19 AM 44.2°F6.8°C 41.9°F5.5°C 91% 4.0 mph NNW6.4 kmh NNW 7.0 mph11.3 kmh 30.02 in1016.6 mb 0.00 in0.0 mm 0.00 in/hr0.0 mm/hr 0.00 in0.0 mm
02:18 AM 44.2°F6.8°C 41.9°F5.5°C 91% 4.0 mph NNW6.4 kmh NNW 7.0 mph11.3 kmh 30.02 in1016.6 mb 0.00 in0.0 mm 0.00 in/hr0.0 mm/hr 0.00 in0.0 mm
02:17 AM 44.2°F6.8°C 41.9°F5.5°C 91% 4.0 mph NW6.4 kmh NW 7.0 mph11.3 kmh 30.02 in1016.6 mb 0.00 in0.0 mm 0.00 in/hr0.0 mm/hr 0.00 in0.0 mm
02:16 AM 44.2°F6.8°C 41.9°F5.5°C 91% 4.0 mph NW6.4 kmh NW 7.0 mph11.3 kmh 30.02 in1016.6 mb 0.00 in0.0 mm 0.00 in/hr0.0 mm/hr 0.00 in0.0 mm
02:15 AM 44.2°F6.8°C 41.7°F5.4°C 91% 4.0 mph NW6.4 kmh NW 7.0 mph11.3 kmh 30.02 in1016.6 mb 0.00 in0.0 mm 0.00 in/hr0.0 mm/hr 0.00 in0.0 mm
02:14 AM 44.2°F6.8°C 41.7°F5.4°C 91% 4.0 mph NNW6.4 kmh NNW 7.0 mph11.3 kmh 30.03 in1016.9 mb 0.00 in0.0 mm 0.00 in/hr0.0 mm/hr 0.00 in0.0 mm
02:13 AM 44.2°F6.8°C 41.7°F5.4°C 91% 5.0 mph NW8.0 kmh NW 7.0 mph11.3 kmh 30.03 in1016.9 mb 0.00 in0.0 mm 0.00 in/hr0.0 mm/hr 0.00 in0.0 mm
02:12 AM 44.2°F6.8°C 41.7°F5.4°C 91% 5.0 mph NW8.0 kmh NW 8.0 mph12.9 kmh 30.03 in1016.9 mb 0.00 in0.0 mm 0.00 in/hr0.0 mm/hr 0.00 in0.0 mm
02:11 AM 44.2°F6.8°C 41.7°F5.4°C 91% 5.0 mph NW8.0 kmh NW 8.0 mph12.9 kmh 30.03 in1016.9 mb 0.00 in0.0 mm 0.00 in/hr0.0 mm/hr 0.00 in0.0 mm
02:10 AM 44.2°F6.8°C 41.7°F5.4°C 91% 5.0 mph NW8.0 kmh NW 8.0 mph12.9 kmh 30.03 in1016.9 mb 0.00 in0.0 mm 0.00 in/hr0.0 mm/hr 0.00 in0.0 mm
02:09 AM 44.1°F6.7°C 41.7°F5.4°C 91% 4.0 mph NW6.4 kmh NW 8.0 mph12.9 kmh 30.03 in1016.9 mb 0.00 in0.0 mm 0.00 in/hr0.0 mm/hr 0.00 in0.0 mm
02:08 AM 44.1°F6.7°C 41.7°F5.4°C 91% 4.0 mph NW6.4 kmh NW 8.0 mph12.9 kmh 30.03 in1016.9 mb 0.00 in0.0 mm 0.00 in/hr0.0 mm/hr 0.00 in0.0 mm
02:07 AM 44.1°F6.7°C 41.7°F5.4°C 91% 4.0 mph NW6.4 kmh NW 8.0 mph12.9 kmh 30.03 in1016.9 mb 0.00 in0.0 mm 0.00 in/hr0.0 mm/hr 0.00 in0.0 mm
02:06 AM 44.1°F6.7°C 41.7°F5.4°C 91% 4.0 mph NW6.4 kmh NW 8.0 mph12.9 kmh 30.03 in1016.9 mb 0.00 in0.0 mm 0.00 in/hr0.0 mm/hr 0.00 in0.0 mm
02:05 AM 44.1°F6.7°C 41.7°F5.4°C 91% 4.0 mph NW6.4 kmh NW 8.0 mph12.9 kmh 30.03 in1016.9 mb 0.00 in0.0 mm 0.00 in/hr0.0 mm/hr 0.00 in0.0 mm
02:04 AM 44.1°F6.7°C 41.5°F5.3°C 91% 4.0 mph NW6.4 kmh NW 8.0 mph12.9 kmh 30.03 in1016.9 mb 0.00 in0.0 mm 0.00 in/hr0.0 mm/hr 0.00 in0.0 mm
02:03 AM 44.1°F6.7°C 41.5°F5.3°C 91% 3.0 mph NW4.8 kmh NW 8.0 mph12.9 kmh 30.03 in1016.9 mb 0.00 in0.0 mm 0.00 in/hr0.0 mm/hr 0.00 in0.0 mm
02:02 AM 44.1°F6.7°C 41.5°F5.3°C 91% 3.0 mph NW4.8 kmh NW 8.0 mph12.9 kmh 30.03 in1016.9 mb 0.00 in0.0 mm 0.00 in/hr0.0 mm/hr 0.00 in0.0 mm
02:01 AM 44.1°F6.7°C 41.5°F5.3°C 91% 3.0 mph NW4.8 kmh NW 8.0 mph12.9 kmh 30.03 in1016.9 mb 0.00 in0.0 mm 0.00 in/hr0.0 mm/hr 0.00 in0.0 mm
02:00 AM 44.1°F6.7°C 41.5°F5.3°C 91% 3.0 mph NW4.8 kmh NW 8.0 mph12.9 kmh 30.03 in1016.9 mb 0.00 in0.0 mm 0.00 in/hr0.0 mm/hr 0.00 in0.0 mm
01:59 AM 44.1°F6.7°C 41.5°F5.3°C 91% 3.0 mph NW4.8 kmh NW 8.0 mph12.9 kmh 30.03 in1016.9 mb 0.00 in0.0 mm 0.00 in/hr0.0 mm/hr 0.00 in0.0 mm
01:58 AM 43.9°F6.6°C 41.4°F5.2°C 91% 3.0 mph NW4.8 kmh NW 8.0 mph12.9 kmh 30.03 in1016.9 mb 0.00 in0.0 mm 0.00 in/hr0.0 mm/hr 0.00 in0.0 mm
01:57 AM 43.9°F6.6°C 41.4°F5.2°C 91% 3.0 mph NW4.8 kmh NW 8.0 mph12.9 kmh 30.03 in1016.9 mb 0.00 in0.0 mm 0.00 in/hr0.0 mm/hr 0.00 in0.0 mm
01:56 AM 43.9°F6.6°C 41.4°F5.2°C 91% 3.0 mph NW4.8 kmh NW 8.0 mph12.9 kmh 30.03 in1016.9 mb 0.00 in0.0 mm 0.00 in/hr0.0 mm/hr 0.00 in0.0 mm
01:55 AM 43.9°F6.6°C 41.4°F5.2°C 91% 3.0 mph NW4.8 kmh NW 8.0 mph12.9 kmh 30.03 in1016.9 mb 0.00 in0.0 mm 0.00 in/hr0.0 mm/hr 0.00 in0.0 mm
01:54 AM 43.9°F6.6°C 41.4°F5.2°C 91% 3.0 mph NW4.8 kmh NW 8.0 mph12.9 kmh 30.03 in1016.9 mb 0.00 in0.0 mm 0.00 in/hr0.0 mm/hr 0.00 in0.0 mm
01:53 AM 43.9°F6.6°C 41.4°F5.2°C 91% 3.0 mph NW4.8 kmh NW 8.0 mph12.9 kmh 30.03 in1016.9 mb 0.00 in0.0 mm 0.00 in/hr0.0 mm/hr 0.00 in0.0 mm
01:52 AM 43.9°F6.6°C 41.4°F5.2°C 91% 3.0 mph NW4.8 kmh NW 8.0 mph12.9 kmh 30.03 in1016.9 mb 0.00 in0.0 mm 0.00 in/hr0.0 mm/hr 0.00 in0.0 mm
01:51 AM 43.9°F6.6°C 41.4°F5.2°C 91% 4.0 mph NW6.4 kmh NW 7.0 mph11.3 kmh 30.04 in1017.3 mb 0.00 in0.0 mm 0.00 in/hr0.0 mm/hr 0.00 in0.0 mm
01:50 AM 43.9°F6.6°C 41.4°F5.2°C 91% 4.0 mph NW6.4 kmh NW 7.0 mph11.3 kmh 30.04 in1017.3 mb 0.00 in0.0 mm 0.00 in/hr0.0 mm/hr 0.00 in0.0 mm
01:49 AM 43.9°F6.6°C 41.4°F5.2°C 91% 4.0 mph NW6.4 kmh NW 7.0 mph11.3 kmh 30.04 in1017.3 mb 0.00 in0.0 mm 0.00 in/hr0.0 mm/hr 0.00 in0.0 mm
01:48 AM 43.9°F6.6°C 41.4°F5.2°C 91% 4.0 mph NW6.4 kmh NW 7.0 mph11.3 kmh 30.04 in1017.3 mb 0.00 in0.0 mm 0.00 in/hr0.0 mm/hr 0.00 in0.0 mm
01:47 AM 43.7°F6.5°C 41.2°F5.1°C 91% 4.0 mph NW6.4 kmh NW 7.0 mph11.3 kmh 30.04 in1017.3 mb 0.00 in0.0 mm 0.00 in/hr0.0 mm/hr 0.00 in0.0 mm
01:46 AM 43.7°F6.5°C 41.2°F5.1°C 91% 4.0 mph NW6.4 kmh NW 8.0 mph12.9 kmh 30.03 in1016.9 mb 0.00 in0.0 mm 0.00 in/hr0.0 mm/hr 0.00 in0.0 mm
01:45 AM 43.7°F6.5°C 41.0°F5.0°C 90% 4.0 mph NW6.4 kmh NW 8.0 mph12.9 kmh 30.04 in1017.3 mb 0.00 in0.0 mm 0.00 in/hr0.0 mm/hr 0.00 in0.0 mm
01:44 AM 43.5°F6.4°C 40.8°F4.9°C 90% 4.0 mph NW6.4 kmh NW 8.0 mph12.9 kmh 30.03 in1016.9 mb 0.00 in0.0 mm 0.00 in/hr0.0 mm/hr 0.00 in0.0 mm
01:43 AM 43.5°F6.4°C 40.8°F4.9°C 90% 4.0 mph NW6.4 kmh NW 8.0 mph12.9 kmh 30.04 in1017.3 mb 0.00 in0.0 mm 0.00 in/hr0.0 mm/hr 0.00 in0.0 mm
01:42 AM 43.5°F6.4°C 40.8°F4.9°C 90% 4.0 mph NW6.4 kmh NW 8.0 mph12.9 kmh 30.03 in1016.9 mb 0.00 in0.0 mm 0.00 in/hr0.0 mm/hr 0.00 in0.0 mm
01:41 AM 43.5°F6.4°C 40.8°F4.9°C 90% 4.0 mph NW6.4 kmh NW 8.0 mph12.9 kmh 30.04 in1017.3 mb 0.00 in0.0 mm 0.00 in/hr0.0 mm/hr 0.00 in0.0 mm
01:40 AM 43.5°F6.4°C 40.8°F4.9°C 90% 4.0 mph NW6.4 kmh NW 9.0 mph14.5 kmh 30.04 in1017.3 mb 0.00 in0.0 mm 0.00 in/hr0.0 mm/hr 0.00 in0.0 mm
01:39 AM 43.5°F6.4°C 40.8°F4.9°C 90% 4.0 mph NW6.4 kmh NW 9.0 mph14.5 kmh 30.04 in1017.3 mb 0.00 in0.0 mm 0.00 in/hr0.0 mm/hr 0.00 in0.0 mm
01:38 AM 43.5°F6.4°C 40.8°F4.9°C 90% 4.0 mph NW6.4 kmh NW 9.0 mph14.5 kmh 30.04 in1017.3 mb 0.00 in0.0 mm 0.00 in/hr0.0 mm/hr 0.00 in0.0 mm
01:37 AM 43.5°F6.4°C 40.8°F4.9°C 90% 4.0 mph NW6.4 kmh NW 9.0 mph14.5 kmh 30.04 in1017.3 mb 0.00 in0.0 mm 0.00 in/hr0.0 mm/hr 0.00 in0.0 mm
01:36 AM 43.5°F6.4°C 40.8°F4.9°C 90% 4.0 mph NNW6.4 kmh NNW 9.0 mph14.5 kmh 30.04 in1017.3 mb 0.00 in0.0 mm 0.00 in/hr0.0 mm/hr 0.00 in0.0 mm
01:35 AM 43.5°F6.4°C 40.8°F4.9°C 90% 4.0 mph NNW6.4 kmh NNW 9.0 mph14.5 kmh 30.04 in1017.3 mb 0.00 in0.0 mm 0.00 in/hr0.0 mm/hr 0.00 in0.0 mm
01:34 AM 43.5°F6.4°C 40.8°F4.9°C 90% 4.0 mph NW6.4 kmh NW 9.0 mph14.5 kmh 30.04 in1017.3 mb 0.00 in0.0 mm 0.00 in/hr0.0 mm/hr 0.00 in0.0 mm
01:33 AM 43.5°F6.4°C 40.8°F4.9°C 90% 4.0 mph NW6.4 kmh NW 9.0 mph14.5 kmh 30.04 in1017.3 mb 0.00 in0.0 mm 0.00 in/hr0.0 mm/hr 0.00 in0.0 mm
01:32 AM 43.5°F6.4°C 40.8°F4.9°C 90% 4.0 mph NW6.4 kmh NW 9.0 mph14.5 kmh 30.04 in1017.3 mb 0.00 in0.0 mm 0.00 in/hr0.0 mm/hr 0.00 in0.0 mm
01:31 AM 43.5°F6.4°C 40.8°F4.9°C 90% 4.0 mph NW6.4 kmh NW 9.0 mph14.5 kmh 30.04 in1017.3 mb 0.00 in0.0 mm 0.00 in/hr0.0 mm/hr 0.00 in0.0 mm
01:30 AM 43.3°F6.3°C 40.6°F4.8°C 90% 4.0 mph NW6.4 kmh NW 7.0 mph11.3 kmh 30.04 in1017.3 mb 0.00 in0.0 mm 0.00 in/hr0.0 mm/hr 0.00 in0.0 mm
01:29 AM 43.3°F6.3°C 40.6°F4.8°C 90% 4.0 mph NW6.4 kmh NW 8.0 mph12.9 kmh 30.04 in1017.3 mb 0.00 in0.0 mm 0.00 in/hr0.0 mm/hr 0.00 in0.0 mm
01:28 AM 43.3°F6.3°C 40.6°F4.8°C 90% 4.0 mph NW6.4 kmh NW 8.0 mph12.9 kmh 30.04 in1017.3 mb 0.00 in0.0 mm 0.00 in/hr0.0 mm/hr 0.00 in0.0 mm
01:27 AM 43.3°F6.3°C 40.6°F4.8°C 90% 5.0 mph NW8.0 kmh NW 8.0 mph12.9 kmh 30.04 in1017.3 mb 0.00 in0.0 mm 0.00 in/hr0.0 mm/hr 0.00 in0.0 mm
01:26 AM 43.3°F6.3°C 40.6°F4.8°C 90% 5.0 mph NW8.0 kmh NW 8.0 mph12.9 kmh 30.04 in1017.3 mb 0.00 in0.0 mm 0.00 in/hr0.0 mm/hr 0.00 in0.0 mm
01:25 AM 43.3°F6.3°C 40.6°F4.8°C 90% 5.0 mph NW8.0 kmh NW 9.0 mph14.5 kmh 30.04 in1017.3 mb 0.00 in0.0 mm 0.00 in/hr0.0 mm/hr 0.00 in0.0 mm
01:24 AM 43.3°F6.3°C 40.6°F4.8°C 90% 5.0 mph NW8.0 kmh NW 9.0 mph14.5 kmh 30.04 in1017.3 mb 0.00 in0.0 mm 0.00 in/hr0.0 mm/hr 0.00 in0.0 mm
01:23 AM 43.3°F6.3°C 40.6°F4.8°C 90% 5.0 mph NW8.0 kmh NW 9.0 mph14.5 kmh 30.04 in1017.3 mb 0.00 in0.0 mm 0.00 in/hr0.0 mm/hr 0.00 in0.0 mm
01:22 AM 43.3°F6.3°C 40.6°F4.8°C 90% 5.0 mph NW8.0 kmh NW 9.0 mph14.5 kmh 30.04 in1017.3 mb 0.00 in0.0 mm 0.00 in/hr0.0 mm/hr 0.00 in0.0 mm
01:21 AM 43.3°F6.3°C 40.6°F4.8°C 90% 5.0 mph NW8.0 kmh NW 9.0 mph14.5 kmh 30.04 in1017.3 mb 0.00 in0.0 mm 0.00 in/hr0.0 mm/hr 0.00 in0.0 mm
01:20 AM 43.3°F6.3°C 40.6°F4.8°C 90% 5.0 mph NW8.0 kmh NW 9.0 mph14.5 kmh 30.04 in1017.3 mb 0.00 in0.0 mm 0.00 in/hr0.0 mm/hr 0.00 in0.0 mm
01:19 AM 43.3°F6.3°C 40.6°F4.8°C 90% 5.0 mph NW8.0 kmh NW 9.0 mph14.5 kmh 30.04 in1017.3 mb 0.00 in0.0 mm 0.00 in/hr0.0 mm/hr 0.00 in0.0 mm
01:18 AM 43.3°F6.3°C 40.6°F4.8°C 90% 5.0 mph NW8.0 kmh NW 9.0 mph14.5 kmh 30.04 in1017.3 mb 0.00 in0.0 mm 0.00 in/hr0.0 mm/hr 0.00 in0.0 mm
01:17 AM 43.3°F6.3°C 40.6°F4.8°C 90% 4.0 mph NW6.4 kmh NW 9.0 mph14.5 kmh 30.04 in1017.3 mb 0.00 in0.0 mm 0.00 in/hr0.0 mm/hr 0.00 in0.0 mm
01:16 AM 43.3°F6.3°C 40.6°F4.8°C 90% 4.0 mph NW6.4 kmh NW 9.0 mph14.5 kmh 30.04 in1017.3 mb 0.00 in0.0 mm 0.00 in/hr0.0 mm/hr 0.00 in0.0 mm
01:15 AM 43.3°F6.3°C 40.6°F4.8°C 90% 4.0 mph NW6.4 kmh NW 8.0 mph12.9 kmh 30.04 in1017.3 mb 0.00 in0.0 mm 0.00 in/hr0.0 mm/hr 0.00 in0.0 mm
01:14 AM 43.3°F6.3°C 40.6°F4.8°C 90% 4.0 mph NNW6.4 kmh NNW 8.0 mph12.9 kmh 30.04 in1017.3 mb 0.00 in0.0 mm 0.00 in/hr0.0 mm/hr 0.00 in0.0 mm
01:13 AM 43.3°F6.3°C 40.6°F4.8°C 90% 4.0 mph NNW6.4 kmh NNW 8.0 mph12.9 kmh 30.04 in1017.3 mb 0.00 in0.0 mm 0.00 in/hr0.0 mm/hr 0.00 in0.0 mm
01:12 AM 43.3°F6.3°C 40.5°F4.7°C 89% 4.0 mph NNW6.4 kmh NNW 8.0 mph12.9 kmh 30.04 in1017.3 mb 0.00 in0.0 mm 0.00 in/hr0.0 mm/hr 0.00 in0.0 mm
01:11 AM 43.3°F6.3°C 40.5°F4.7°C 89% 4.0 mph NNW6.4 kmh NNW 8.0 mph12.9 kmh 30.04 in1017.3 mb 0.00 in0.0 mm 0.00 in/hr0.0 mm/hr 0.00 in0.0 mm
01:10 AM 43.3°F6.3°C 40.6°F4.8°C 90% 4.0 mph NNW6.4 kmh NNW 8.0 mph12.9 kmh 30.04 in1017.3 mb 0.00 in0.0 mm 0.00 in/hr0.0 mm/hr 0.00 in0.0 mm
01:09 AM 43.3°F6.3°C 40.6°F4.8°C 90% 4.0 mph NNW6.4 kmh NNW 8.0 mph12.9 kmh 30.04 in1017.3 mb 0.00 in0.0 mm 0.00 in/hr0.0 mm/hr 0.00 in0.0 mm
01:08 AM 43.3°F6.3°C 40.6°F4.8°C 90% 4.0 mph NNW6.4 kmh NNW 8.0 mph12.9 kmh 30.05 in1017.6 mb 0.00 in0.0 mm 0.00 in/hr0.0 mm/hr 0.00 in0.0 mm
01:07 AM 43.3°F6.3°C 40.6°F4.8°C 90% 4.0 mph NNW6.4 kmh NNW 8.0 mph12.9 kmh 30.04 in1017.3 mb 0.00 in0.0 mm 0.00 in/hr0.0 mm/hr 0.00 in0.0 mm
01:06 AM 43.3°F6.3°C 40.6°F4.8°C 90% 4.0 mph NNW6.4 kmh NNW 8.0 mph12.9 kmh 30.05 in1017.6 mb 0.00 in0.0 mm 0.00 in/hr0.0 mm/hr 0.00 in0.0 mm
01:05 AM 43.3°F6.3°C 40.6°F4.8°C 90% 4.0 mph NNW6.4 kmh NNW 8.0 mph12.9 kmh 30.04 in1017.3 mb 0.00 in0.0 mm 0.00 in/hr0.0 mm/hr 0.00 in0.0 mm
01:04 AM 43.3°F6.3°C 40.6°F4.8°C 90% 4.0 mph NW6.4 kmh NW 8.0 mph12.9 kmh 30.05 in1017.6 mb 0.00 in0.0 mm 0.00 in/hr0.0 mm/hr 0.00 in0.0 mm
01:03 AM 43.3°F6.3°C 40.6°F4.8°C 90% 4.0 mph NW6.4 kmh NW 8.0 mph12.9 kmh 30.04 in1017.3 mb 0.00 in0.0 mm 0.00 in/hr0.0 mm/hr 0.00 in0.0 mm
01:02 AM 43.3°F6.3°C 40.6°F4.8°C 90% 4.0 mph NNW6.4 kmh NNW 8.0 mph12.9 kmh 30.04 in1017.3 mb 0.00 in0.0 mm 0.00 in/hr0.0 mm/hr 0.00 in0.0 mm
01:01 AM 43.3°F6.3°C 40.6°F4.8°C 90% 4.0 mph NW6.4 kmh NW 8.0 mph12.9 kmh 30.05 in1017.6 mb 0.00 in0.0 mm 0.00 in/hr0.0 mm/hr 0.00 in0.0 mm
01:00 AM 43.3°F6.3°C 40.5°F4.7°C 89% 3.0 mph NNW4.8 kmh NNW 8.0 mph12.9 kmh 30.05 in1017.6 mb 0.00 in0.0 mm 0.00 in/hr0.0 mm/hr 0.00 in0.0 mm
12:59 AM 43.3°F6.3°C 40.6°F4.8°C 90% 3.0 mph NNW4.8 kmh NNW 8.0 mph12.9 kmh 30.05 in1017.6 mb 0.00 in0.0 mm 0.00 in/hr0.0 mm/hr 0.00 in0.0 mm
12:58 AM 43.3°F6.3°C 40.6°F4.8°C 90% 3.0 mph NNW4.8 kmh NNW 8.0 mph12.9 kmh 30.05 in1017.6 mb 0.00 in0.0 mm 0.00 in/hr0.0 mm/hr 0.00 in0.0 mm
12:57 AM 43.3°F6.3°C 40.6°F4.8°C 90% 3.0 mph NNW4.8 kmh NNW 8.0 mph12.9 kmh 30.05 in1017.6 mb 0.00 in0.0 mm 0.00 in/hr0.0 mm/hr 0.00 in0.0 mm
12:56 AM 43.3°F6.3°C 40.6°F4.8°C 90% 3.0 mph NNW4.8 kmh NNW 8.0 mph12.9 kmh 30.05 in1017.6 mb 0.00 in0.0 mm 0.00 in/hr0.0 mm/hr 0.00 in0.0 mm
12:55 AM 43.3°F6.3°C 40.5°F4.7°C 89% 4.0 mph NNW6.4 kmh NNW 8.0 mph12.9 kmh 30.05 in1017.6 mb 0.00 in0.0 mm 0.00 in/hr0.0 mm/hr 0.00 in0.0 mm
12:54 AM 43.3°F6.3°C 40.5°F4.7°C 89% 4.0 mph NNW6.4 kmh NNW 8.0 mph12.9 kmh 30.05 in1017.6 mb 0.00 in0.0 mm 0.00 in/hr0.0 mm/hr 0.00 in0.0 mm
12:53 AM 43.3°F6.3°C 40.5°F4.7°C 89% 4.0 mph N6.4 kmh N 8.0 mph12.9 kmh 30.05 in1017.6 mb 0.00 in0.0 mm 0.00 in/hr0.0 mm/hr 0.00 in0.0 mm
12:52 AM 43.3°F6.3°C 40.5°F4.7°C 89% 4.0 mph N6.4 kmh N 8.0 mph12.9 kmh 30.05 in1017.6 mb 0.00 in0.0 mm 0.00 in/hr0.0 mm/hr 0.00 in0.0 mm
12:51 AM 43.3°F6.3°C 40.5°F4.7°C 89% 4.0 mph N6.4 kmh N 8.0 mph12.9 kmh 30.05 in1017.6 mb 0.00 in0.0 mm 0.00 in/hr0.0 mm/hr 0.00 in0.0 mm
12:50 AM 43.3°F6.3°C 40.5°F4.7°C 89% 4.0 mph N6.4 kmh N 8.0 mph12.9 kmh 30.05 in1017.6 mb 0.00 in0.0 mm 0.00 in/hr0.0 mm/hr 0.00 in0.0 mm
12:49 AM 43.3°F6.3°C 40.3°F4.6°C 89% 4.0 mph N6.4 kmh N 8.0 mph12.9 kmh 30.05 in1017.6 mb 0.00 in0.0 mm 0.00 in/hr0.0 mm/hr 0.00 in0.0 mm
12:48 AM 43.3°F6.3°C 40.3°F4.6°C 89% 4.0 mph N6.4 kmh N 8.0 mph12.9 kmh 30.05 in1017.6 mb 0.00 in0.0 mm 0.00 in/hr0.0 mm/hr 0.00 in0.0 mm
12:47 AM 43.3°F6.3°C 40.3°F4.6°C 89% 4.0 mph N6.4 kmh N 8.0 mph12.9 kmh 30.05 in1017.6 mb 0.00 in0.0 mm 0.00 in/hr0.0 mm/hr 0.00 in0.0 mm
12:46 AM 43.3°F6.3°C 40.3°F4.6°C 89% 4.0 mph NNW6.4 kmh NNW 8.0 mph12.9 kmh 30.05 in1017.6 mb 0.00 in0.0 mm 0.00 in/hr0.0 mm/hr 0.00 in0.0 mm
12:45 AM 43.3°F6.3°C 40.3°F4.6°C 89% 4.0 mph NNW6.4 kmh NNW 8.0 mph12.9 kmh 30.05 in1017.6 mb 0.00 in0.0 mm 0.00 in/hr0.0 mm/hr 0.00 in0.0 mm
12:44 AM 43.3°F6.3°C 40.3°F4.6°C 89% 4.0 mph NNW6.4 kmh NNW 8.0 mph12.9 kmh 30.05 in1017.6 mb 0.00 in0.0 mm 0.00 in/hr0.0 mm/hr 0.00 in0.0 mm
12:43 AM 43.3°F6.3°C 40.3°F4.6°C 89% 4.0 mph NNW6.4 kmh NNW 8.0 mph12.9 kmh 30.05 in1017.6 mb 0.00 in0.0 mm 0.00 in/hr0.0 mm/hr 0.00 in0.0 mm
12:42 AM 43.3°F6.3°C 40.3°F4.6°C 89% 4.0 mph NNW6.4 kmh NNW 8.0 mph12.9 kmh 30.05 in1017.6 mb 0.00 in0.0 mm 0.00 in/hr0.0 mm/hr 0.00 in0.0 mm
12:41 AM 43.2°F6.2°C 40.1°F4.5°C 89% 4.0 mph NNW6.4 kmh NNW 8.0 mph12.9 kmh 30.05 in1017.6 mb 0.00 in0.0 mm 0.00 in/hr0.0 mm/hr 0.00 in0.0 mm
12:40 AM 43.2°F6.2°C 40.1°F4.5°C 89% 4.0 mph NNW6.4 kmh NNW 8.0 mph12.9 kmh 30.05 in1017.6 mb 0.00 in0.0 mm 0.00 in/hr0.0 mm/hr 0.00 in0.0 mm
12:39 AM 43.2°F6.2°C 40.1°F4.5°C 89% 4.0 mph NNW6.4 kmh NNW 8.0 mph12.9 kmh 30.05 in1017.6 mb 0.00 in0.0 mm 0.00 in/hr0.0 mm/hr 0.00 in0.0 mm
12:38 AM 43.2°F6.2°C 40.1°F4.5°C 89% 3.0 mph NNW4.8 kmh NNW 7.0 mph11.3 kmh 30.05 in1017.6 mb 0.00 in0.0 mm 0.00 in/hr0.0 mm/hr 0.00 in0.0 mm
12:37 AM 43.3°F6.3°C 40.3°F4.6°C 89% 3.0 mph NNW4.8 kmh NNW 7.0 mph11.3 kmh 30.05 in1017.6 mb 0.00 in0.0 mm 0.00 in/hr0.0 mm/hr 0.00 in0.0 mm
12:36 AM 43.3°F6.3°C 40.3°F4.6°C 89% 3.0 mph NNW4.8 kmh NNW 6.0 mph9.7 kmh 30.05 in1017.6 mb 0.00 in0.0 mm 0.00 in/hr0.0 mm/hr 0.00 in0.0 mm
12:35 AM 43.3°F6.3°C 40.3°F4.6°C 89% 3.0 mph NNW4.8 kmh NNW 6.0 mph9.7 kmh 30.05 in1017.6 mb 0.00 in0.0 mm 0.00 in/hr0.0 mm/hr 0.00 in0.0 mm
12:34 AM 43.3°F6.3°C 40.3°F4.6°C 89% 3.0 mph NNW4.8 kmh NNW 7.0 mph11.3 kmh 30.05 in1017.6 mb 0.00 in0.0 mm 0.00 in/hr0.0 mm/hr 0.00 in0.0 mm
12:33 AM 43.3°F6.3°C 40.3°F4.6°C 89% 3.0 mph NNW4.8 kmh NNW 7.0 mph11.3 kmh 30.05 in1017.6 mb 0.00 in0.0 mm 0.00 in/hr0.0 mm/hr 0.00 in0.0 mm
12:32 AM 43.3°F6.3°C 39.9°F4.4°C 88% 4.0 mph NNW6.4 kmh NNW 7.0 mph11.3 kmh 30.05 in1017.6 mb 0.00 in0.0 mm 0.00 in/hr0.0 mm/hr 0.00 in0.0 mm
12:31 AM 43.3°F6.3°C 40.5°F4.7°C 89% 4.0 mph NNW6.4 kmh NNW 7.0 mph11.3 kmh 30.05 in1017.6 mb 0.00 in0.0 mm 0.00 in/hr0.0 mm/hr 0.00 in0.0 mm
12:30 AM 43.3°F6.3°C 40.5°F4.7°C 89% 4.0 mph NNW6.4 kmh NNW 7.0 mph11.3 kmh 30.05 in1017.6 mb 0.00 in0.0 mm 0.00 in/hr0.0 mm/hr 0.00 in0.0 mm
12:29 AM 43.3°F6.3°C 40.1°F4.5°C 88% 4.0 mph NNW6.4 kmh NNW 7.0 mph11.3 kmh 30.05 in1017.6 mb 0.00 in0.0 mm 0.00 in/hr0.0 mm/hr 0.00 in0.0 mm
12:28 AM 43.3°F6.3°C 40.5°F4.7°C 89% 4.0 mph NNW6.4 kmh NNW 7.0 mph11.3 kmh 30.05 in1017.6 mb 0.00 in0.0 mm 0.00 in/hr0.0 mm/hr 0.00 in0.0 mm
12:27 AM 43.3°F6.3°C 40.5°F4.7°C 89% 4.0 mph NNW6.4 kmh NNW 8.0 mph12.9 kmh 30.05 in1017.6 mb 0.00 in0.0 mm 0.00 in/hr0.0 mm/hr 0.00 in0.0 mm
12:26 AM 43.3°F6.3°C 40.1°F4.5°C 88% 4.0 mph NNW6.4 kmh NNW 8.0 mph12.9 kmh 30.05 in1017.6 mb 0.00 in0.0 mm 0.00 in/hr0.0 mm/hr 0.00 in0.0 mm
12:25 AM 43.3°F6.3°C 40.1°F4.5°C 88% 4.0 mph NNW6.4 kmh NNW 8.0 mph12.9 kmh 30.05 in1017.6 mb 0.00 in0.0 mm 0.00 in/hr0.0 mm/hr 0.00 in0.0 mm
12:24 AM 43.3°F6.3°C 40.1°F4.5°C 88% 4.0 mph NNW6.4 kmh NNW 8.0 mph12.9 kmh 30.05 in1017.6 mb 0.00 in0.0 mm 0.00 in/hr0.0 mm/hr 0.00 in0.0 mm
12:23 AM 43.3°F6.3°C 40.1°F4.5°C 88% 4.0 mph NNW6.4 kmh NNW 8.0 mph12.9 kmh 30.05 in1017.6 mb 0.00 in0.0 mm 0.00 in/hr0.0 mm/hr 0.00 in0.0 mm
12:22 AM 43.3°F6.3°C 40.1°F4.5°C 88% 4.0 mph NNW6.4 kmh NNW 8.0 mph12.9 kmh 30.05 in1017.6 mb 0.00 in0.0 mm 0.00 in/hr0.0 mm/hr 0.00 in0.0 mm
12:21 AM 43.3°F6.3°C 40.1°F4.5°C 88% 4.0 mph N6.4 kmh N 8.0 mph12.9 kmh 30.05 in1017.6 mb 0.00 in0.0 mm 0.00 in/hr0.0 mm/hr 0.00 in0.0 mm
12:20 AM 43.3°F6.3°C 40.1°F4.5°C 88% 4.0 mph NNW6.4 kmh NNW 8.0 mph12.9 kmh 30.05 in1017.6 mb 0.00 in0.0 mm 0.00 in/hr0.0 mm/hr 0.00 in0.0 mm
12:19 AM 43.3°F6.3°C 40.1°F4.5°C 88% 4.0 mph NNW6.4 kmh NNW 8.0 mph12.9 kmh 30.05 in1017.6 mb 0.00 in0.0 mm 0.00 in/hr0.0 mm/hr 0.00 in0.0 mm
12:18 AM 43.3°F6.3°C 40.1°F4.5°C 88% 4.0 mph NNW6.4 kmh NNW 8.0 mph12.9 kmh 30.05 in1017.6 mb 0.00 in0.0 mm 0.00 in/hr0.0 mm/hr 0.00 in0.0 mm
12:17 AM 43.3°F6.3°C 40.1°F4.5°C 88% 4.0 mph NNW6.4 kmh NNW 8.0 mph12.9 kmh 30.05 in1017.6 mb 0.00 in0.0 mm 0.00 in/hr0.0 mm/hr 0.00 in0.0 mm
12:16 AM 43.3°F6.3°C 40.1°F4.5°C 88% 4.0 mph NNW6.4 kmh NNW 8.0 mph12.9 kmh 30.05 in1017.6 mb 0.00 in0.0 mm 0.00 in/hr0.0 mm/hr 0.00 in0.0 mm
12:15 AM 43.3°F6.3°C 40.1°F4.5°C 88% 4.0 mph NNW6.4 kmh NNW 7.0 mph11.3 kmh 30.05 in1017.6 mb 0.00 in0.0 mm 0.00 in/hr0.0 mm/hr 0.00 in0.0 mm
12:14 AM 43.3°F6.3°C 40.1°F4.5°C 88% 4.0 mph NNW6.4 kmh NNW 8.0 mph12.9 kmh 30.05 in1017.6 mb 0.00 in0.0 mm 0.00 in/hr0.0 mm/hr 0.00 in0.0 mm
12:13 AM 43.3°F6.3°C 40.1°F4.5°C 88% 4.0 mph NNW6.4 kmh NNW 9.0 mph14.5 kmh 30.05 in1017.6 mb 0.00 in0.0 mm 0.00 in/hr0.0 mm/hr 0.00 in0.0 mm
12:12 AM 43.3°F6.3°C 40.1°F4.5°C 88% 4.0 mph NNW6.4 kmh NNW 9.0 mph14.5 kmh 30.04 in1017.3 mb 0.00 in0.0 mm 0.00 in/hr0.0 mm/hr 0.00 in0.0 mm
12:11 AM 43.3°F6.3°C 40.1°F4.5°C 88% 4.0 mph NNW6.4 kmh NNW 9.0 mph14.5 kmh 30.04 in1017.3 mb 0.00 in0.0 mm 0.00 in/hr0.0 mm/hr 0.00 in0.0 mm
12:10 AM 43.3°F6.3°C 40.1°F4.5°C 88% 4.0 mph NNW6.4 kmh NNW 9.0 mph14.5 kmh 30.04 in1017.3 mb 0.00 in0.0 mm 0.00 in/hr0.0 mm/hr 0.00 in0.0 mm
12:09 AM 43.5°F6.4°C 40.1°F4.5°C 88% 4.0 mph NNW6.4 kmh NNW 9.0 mph14.5 kmh 30.04 in1017.3 mb 0.00 in0.0 mm 0.00 in/hr0.0 mm/hr 0.00 in0.0 mm
12:08 AM 43.5°F6.4°C 40.1°F4.5°C 88% 5.0 mph NNW8.0 kmh NNW 10.0 mph16.1 kmh 30.04 in1017.3 mb 0.00 in0.0 mm 0.00 in/hr0.0 mm/hr 0.00 in0.0 mm
12:07 AM 43.5°F6.4°C 40.1°F4.5°C 88% 5.0 mph NNW8.0 kmh NNW 10.0 mph16.1 kmh 30.04 in1017.3 mb 0.00 in0.0 mm 0.00 in/hr0.0 mm/hr 0.00 in0.0 mm
12:06 AM 43.5°F6.4°C 40.1°F4.5°C 88% 5.0 mph NNW8.0 kmh NNW 10.0 mph16.1 kmh 30.04 in1017.3 mb 0.00 in0.0 mm 0.00 in/hr0.0 mm/hr 0.00 in0.0 mm
12:05 AM 43.5°F6.4°C 40.1°F4.5°C 88% 5.0 mph NNW8.0 kmh NNW 10.0 mph16.1 kmh 30.04 in1017.3 mb 0.00 in0.0 mm 0.00 in/hr0.0 mm/hr 0.00 in0.0 mm
12:04 AM 43.5°F6.4°C 39.9°F4.4°C 87% 5.0 mph NNW8.0 kmh NNW 10.0 mph16.1 kmh 30.04 in1017.3 mb 0.00 in0.0 mm 0.00 in/hr0.0 mm/hr 0.00 in0.0 mm
12:03 AM 43.5°F6.4°C 39.9°F4.4°C 87% 5.0 mph NNW8.0 kmh NNW 10.0 mph16.1 kmh 30.04 in1017.3 mb 0.00 in0.0 mm 0.00 in/hr0.0 mm/hr 0.00 in0.0 mm
12:02 AM 43.5°F6.4°C 39.9°F4.4°C 87% 5.0 mph NNW8.0 kmh NNW 10.0 mph16.1 kmh 30.04 in1017.3 mb 0.00 in0.0 mm 0.00 in/hr0.0 mm/hr 0.00 in0.0 mm
12:01 AM 43.5°F6.4°C 39.9°F4.4°C 87% 5.0 mph NNW8.0 kmh NNW 10.0 mph16.1 kmh 30.04 in1017.3 mb 0.00 in0.0 mm 0.00 in/hr0.0 mm/hr 0.00 in0.0 mm
12:00 AM 43.5°F6.4°C 39.9°F4.4°C 87% 5.0 mph N8.0 kmh N 10.0 mph16.1 kmh 30.04 in1017.3 mb 0.00 in0.0 mm 0.00 in/hr0.0 mm/hr 0.00 in0.0 mm